Provisional Data: Little Mehoopany Creek near North Mehoopany, PA


Please select a monitoring station.
Please select start date.
Please select start date.

Toggle Unit: C/F Toggle Unit: C/F
Sample Time Temperature (C) Temperature (F) Specific Conductivity (mS/cm) pH   Turbidity (NTU+) DO (mg/L)
5/4/2021 12:00:00 AM 13.22 55.796 0.103 7.42 4.5 10.17
5/4/2021 12:15:00 AM 13.2 55.76 0.103 7.41 4.94 10.16
5/4/2021 12:30:00 AM 13.19 55.742 0.104 7.42 4.95 10.22
5/4/2021 12:45:00 AM 13.19 55.742 0.104 7.45 4.78 10.23
5/4/2021 1:00:00 AM 13.17 55.706 0.104 7.43 4.74 10.23
5/4/2021 1:15:00 AM 13.16 55.688 0.104 7.45 4.4 10.22
5/4/2021 1:30:00 AM 13.15 55.67 0.104 7.44 4.36 10.22
5/4/2021 1:45:00 AM 13.16 55.688 0.104 7.47 4.62 10.26
5/4/2021 2:00:00 AM 13.08 55.544 0.104 7.39 5.59 10.08
5/4/2021 2:15:00 AM 13.1 55.58 0.104 7.42 4.43 10.21
5/4/2021 2:30:00 AM 13.1 55.58 0.104 7.44 5.05 10.24
5/4/2021 2:45:00 AM 13.08 55.544 0.104 7.44 4.36 10.22
5/4/2021 3:00:00 AM 13.05 55.49 0.104 7.4 4.29 10.21
5/4/2021 3:15:00 AM 13.07 55.526 0.104 7.45 4.29 10.27
5/4/2021 3:30:00 AM 13.04 55.472 0.104 7.42 4.49 10.21
5/4/2021 3:45:00 AM 13.04 55.472 0.104 7.44 4.29 10.25
5/4/2021 4:00:00 AM 13.02 55.436 0.104 7.45 6.35 10.23
5/4/2021 4:15:00 AM 13.01 55.418 0.104 7.44 4.06 10.26
5/4/2021 4:30:00 AM 12.99 55.382 0.104 7.44 4.28 10.26
5/4/2021 4:45:00 AM 12.98 55.364 0.104 7.42 4.3 10.24
5/4/2021 5:00:00 AM 12.99 55.382 0.104 7.44 4.09 10.24
5/4/2021 5:15:00 AM 12.99 55.382 0.104 7.44 4.35 10.26
5/4/2021 5:30:00 AM 12.95 55.31 0.104 7.4 4.18 10.23
5/4/2021 5:45:00 AM 12.96 55.328 0.104 7.4 4.29 10.21
5/4/2021 6:00:00 AM 12.94 55.292 0.104 7.41 5.16 10.18
5/4/2021 6:15:00 AM 12.95 55.31 0.104 7.42 8.41 10.24
5/4/2021 6:30:00 AM 12.95 55.31 0.104 7.41 4.8 10.23
5/4/2021 6:45:00 AM 12.94 55.292 0.104 7.42 4.37 10.27
5/4/2021 7:00:00 AM 12.98 55.364 0.104 7.45 4.45 10.35
5/4/2021 7:15:00 AM 12.95 55.31 0.104 7.41 4.9 10.31
5/4/2021 7:30:00 AM 13 55.4 0.103 7.46 4.16 10.38
5/4/2021 7:45:00 AM 12.99 55.382 0.103 7.46 3.76 10.37
5/4/2021 8:00:00 AM 13.04 55.472 0.103 7.47 3.8 10.42
5/4/2021 8:15:00 AM 13.11 55.598 0.103 7.52 3.78 10.48
5/4/2021 8:30:00 AM 13.14 55.652 0.103 7.54 3.47 10.47
5/4/2021 8:45:00 AM 13.16 55.688 0.103 7.52 3.63 10.51
5/4/2021 9:00:00 AM 13.25 55.85 0.103 7.55 3.73 10.54
5/4/2021 9:15:00 AM 13.31 55.958 0.103 7.5 3.83 10.47
5/4/2021 9:30:00 AM 13.4 56.12 0.103 7.52 3.71 10.54
5/4/2021 9:45:00 AM 13.46 56.228 0.103 7.54 3.6 10.49
5/4/2021 10:00:00 AM 13.55 56.39 0.103 7.57 3.67 10.52
5/4/2021 10:15:00 AM 13.67 56.606 0.103 7.57 3.57 10.53
5/4/2021 10:30:00 AM 13.76 56.768 0.103 7.55 3.79 10.46
5/4/2021 10:45:00 AM 13.94 57.092 0.103 7.53 3.54 10.42
5/4/2021 11:00:00 AM 14.15 57.47 0.103 7.52 3.86 10.44
5/4/2021 11:15:00 AM 14.38 57.884 0.103 7.54 3.78 10.37
5/4/2021 11:30:00 AM 14.52 58.136 0.103 7.54 3.67 10.27
5/4/2021 11:45:00 AM 14.98 58.964 0.103 7.62 3.65 10.34
5/4/2021 12:00:00 PM 15.06 59.108 0.103 7.64 3.58 10.25
5/4/2021 12:15:00 PM 15.13 59.234 0.103 7.57 3.56 10.16
5/4/2021 12:30:00 PM 15.38 59.684 0.103 7.59 3.6 10.21
5/4/2021 12:45:00 PM 15.57 60.026 0.103 7.61 3.76 10.19
5/4/2021 1:00:00 PM 15.64 60.152 0.103 7.6 3.84 10.11
5/4/2021 1:15:00 PM 15.79 60.422 0.103 7.65 4.02 10.13
5/4/2021 1:30:00 PM 15.7 60.26 0.103 7.58 3.89 10.03
5/4/2021 1:45:00 PM 15.91 60.638 0.103 7.58 3.74 10.04
5/4/2021 2:00:00 PM 16.2 61.16 0.103 7.57 3.65 9.98
5/4/2021 2:15:00 PM 16.28 61.304 0.103 7.65 3.89 9.96
5/4/2021 2:30:00 PM 16.37 61.466 0.103 7.58 4.02 9.98
5/4/2021 2:45:00 PM 16.46 61.628 0.103 7.57 3.89 9.95
5/4/2021 3:00:00 PM 16.74 62.132 0.103 7.65 3.88 9.96
5/4/2021 3:15:00 PM 16.69 62.042 0.103 7.64 3.91 9.91
5/4/2021 3:30:00 PM 16.7 62.06 0.103 7.63 3.92 9.87
5/4/2021 3:45:00 PM 16.76 62.168 0.103 7.61 3.86 9.85
5/4/2021 4:00:00 PM 16.7 62.06 0.103 7.6 3.86 9.77
5/4/2021 4:15:00 PM 16.69 62.042 0.103 7.6 3.95 9.71
5/4/2021 4:30:00 PM 16.61 61.898 0.104 7.55 3.78 9.67
5/4/2021 4:45:00 PM 16.6 61.88 0.103 7.55 9.03 9.74
5/4/2021 5:00:00 PM 16.57 61.826 0.104 7.54 11.02 9.77
5/4/2021 5:15:00 PM 16.49 61.682 0.104 7.5 6.36 9.73
5/4/2021 5:30:00 PM 16.4 61.52 0.104 7.5 4.82 9.64
5/4/2021 5:45:00 PM 16.48 61.664 0.104 7.56 3.71 9.73
5/4/2021 6:00:00 PM 16.43 61.574 0.104 7.52 3.7 9.67
5/4/2021 6:15:00 PM 16.31 61.358 0.104 7.46 4 9.52
5/4/2021 6:30:00 PM 16.26 61.268 0.104 7.45 5.04 9.53
5/4/2021 6:45:00 PM 16.22 61.196 0.104 7.44 3.65 9.53
5/4/2021 7:00:00 PM 16.16 61.088 0.104 7.44 4.15 9.48
5/4/2021 7:15:00 PM 16.19 61.142 0.104 7.46 4.5 9.5
5/4/2021 7:30:00 PM 16.14 61.052 0.104 7.46 4.49 9.53
5/4/2021 7:45:00 PM 16.07 60.926 0.104 7.44 4.08 9.38
5/4/2021 8:00:00 PM 16.02 60.836 0.104 7.43 3.91 9.51
5/4/2021 8:15:00 PM 16.01 60.818 0.105 7.44 3.89 9.54
5/4/2021 8:30:00 PM 15.92 60.656 0.105 7.4 4.04 9.47
5/4/2021 8:45:00 PM 15.91 60.638 0.105 7.42 5.99 9.5
5/4/2021 9:00:00 PM 15.84 60.512 0.105 7.42 4.44 9.5
5/4/2021 9:15:00 PM 15.78 60.404 0.105 7.38 4.4 9.49
5/4/2021 9:30:00 PM 15.77 60.386 0.105 7.41 5.05 9.52
5/4/2021 9:45:00 PM 15.73 60.314 0.105 7.42 4.44 9.53
5/4/2021 10:00:00 PM 15.64 60.152 0.105 7.39 4.27 9.51
5/4/2021 10:15:00 PM 15.63 60.134 0.105 7.41 4.08 9.56
5/4/2021 10:30:00 PM 15.6 60.08 0.105 7.4 4.24 9.59
5/4/2021 10:45:00 PM 15.58 60.044 0.105 7.4 4.61 9.6
5/4/2021 11:00:00 PM 15.48 59.864 0.105 7.35 6.72 9.57
5/4/2021 11:15:00 PM 15.54 59.972 0.105 7.41 7.52 9.59
5/4/2021 11:30:00 PM 15.47 59.846 0.105 7.4 5.09 9.59
5/4/2021 11:45:00 PM 15.43 59.774 0.105 7.38 4.57 9.6
5/5/2021 12:00:00 AM 15.41 59.738 0.105 7.38 4.49 9.61
5/5/2021 12:15:00 AM 15.42 59.756 0.105 7.39 4.56 9.66
5/5/2021 12:30:00 AM 15.36 59.648 0.105 7.37 4.73 9.65
5/5/2021 12:45:00 AM 15.35 59.63 0.105 7.38 4.49 9.64
5/5/2021 1:00:00 AM 15.31 59.558 0.105 7.39 4.86 9.64
5/5/2021 1:15:00 AM 15.28 59.504 0.105 7.39 4.79 9.63
5/5/2021 1:30:00 AM 15.24 59.432 0.105 7.38 6.81 9.65
5/5/2021 1:45:00 AM 15.2 59.36 0.105 7.39 4.73 9.67
5/5/2021 2:00:00 AM 15.13 59.234 0.105 7.36 4.83 9.66
5/5/2021 2:15:00 AM 15.04 59.072 0.105 7.36 4.49 9.69
5/5/2021 2:30:00 AM 15 59 0.105 7.36 4.16 9.68
5/5/2021 2:45:00 AM 14.97 58.946 0.105 7.39 4.52 9.73
5/5/2021 3:00:00 AM 14.9 58.82 0.105 7.38 4.37 9.73
5/5/2021 3:15:00 AM 14.86 58.748 0.105 7.4 4.66 9.75
5/5/2021 3:30:00 AM 14.84 58.712 0.105 7.41 4.19 9.79
5/5/2021 3:45:00 AM 14.78 58.604 0.105 7.39 4.17 9.78
5/5/2021 4:00:00 AM 14.76 58.568 0.105 7.39 8.14 9.76
5/5/2021 4:15:00 AM 14.75 58.55 0.105 7.4 4.3 9.74
5/5/2021 4:30:00 AM 14.73 58.514 0.105 7.38 4.56 9.77
5/5/2021 4:45:00 AM 14.72 58.496 0.105 7.37 4.44 9.77
5/5/2021 5:00:00 AM 14.74 58.532 0.105 7.4 5.21 9.76
5/5/2021 5:15:00 AM 14.76 58.568 0.105 7.41 4.52 9.79
5/5/2021 5:30:00 AM 14.75 58.55 0.105 7.4 4.29 9.8
5/5/2021 5:45:00 AM 14.76 58.568 0.105 7.41 4.59 9.81
5/5/2021 6:00:00 AM 14.75 58.55 0.105 7.41 4.66 9.79
5/5/2021 6:15:00 AM 14.69 58.442 0.105 7.37 4.69 9.82
5/5/2021 6:30:00 AM 14.72 58.496 0.105 7.4 4.4 9.81
5/5/2021 6:45:00 AM 14.7 58.46 0.105 7.4 4.03 9.72
5/5/2021 7:00:00 AM 14.68 58.424 0.105 7.39 4.39 9.82
5/5/2021 7:15:00 AM 14.67 58.406 0.105 7.4 4.13 9.87
5/5/2021 7:30:00 AM 14.67 58.406 0.105 7.42 4.16 9.9
5/5/2021 7:45:00 AM 14.63 58.334 0.105 7.4 4.07 9.89
5/5/2021 8:00:00 AM 14.67 58.406 0.105 7.43 4.93 9.93
5/5/2021 8:15:00 AM 14.62 58.316 0.105 7.41 5.31 9.94
5/5/2021 8:30:00 AM 14.64 58.352 0.105 7.41 4.25 9.96
5/5/2021 8:45:00 AM 14.65 58.37 0.105 7.43 3.95 9.96
5/5/2021 9:00:00 AM 14.69 58.442 0.105 7.46 4.19 9.99
5/5/2021 9:15:00 AM 14.69 58.442 0.105 7.45 4.37 9.98
5/5/2021 9:30:00 AM 14.72 58.496 0.105 7.48 3.89 9.95
5/5/2021 9:45:00 AM 14.69 58.442 0.105 7.45 3.99 9.95
5/5/2021 10:00:00 AM 14.75 58.55 0.105 7.49 4.51 9.99
5/5/2021 10:15:00 AM 14.75 58.55 0.105 7.5 3.88 9.98
5/5/2021 10:30:00 AM 14.78 58.604 0.105 7.51 4 10.06
5/5/2021 10:45:00 AM 14.8 58.64 0.104 7.52 3.97 10.04
5/5/2021 11:00:00 AM 14.75 58.55 0.104 7.46 3.97 9.97
5/5/2021 11:15:00 AM 14.8 58.64 0.104 7.5 4.27 9.97
5/5/2021 11:30:00 AM 14.82 58.676 0.104 7.51 4.84 10.01
5/5/2021 11:45:00 AM 14.82 58.676 0.103 7.5 4.98 9.91
5/5/2021 12:00:00 PM 14.84 58.712 0.102 7.52 5.67 9.98
5/5/2021 12:15:00 PM 14.83 58.694 0.102 7.52 5.5 10.01
5/5/2021 12:30:00 PM 14.83 58.694 0.102 7.53 4.62 10.04
5/5/2021 12:45:00 PM 14.79 58.622 0.102 7.51 4.24 10.05
5/5/2021 1:00:00 PM 14.74 58.532 0.102 7.51 4.53 10.06
5/5/2021 1:15:00 PM 14.8 58.64 0.102 7.55 4.69 10.1
5/5/2021 1:30:00 PM 14.77 58.586 0.102 7.55 4.1 10.11
5/5/2021 1:45:00 PM 14.71 58.478 0.102 7.51 4.48 10.09
5/5/2021 2:00:00 PM 14.72 58.496 0.102 7.55 5.1 10.14
5/5/2021 2:15:00 PM 14.68 58.424 0.102 7.53 5.16 10.11
5/5/2021 2:30:00 PM 14.69 58.442 0.102 7.53 4.9 10.12
5/5/2021 2:45:00 PM 14.69 58.442 0.102 7.55 4.67 10.09
5/5/2021 3:00:00 PM 14.68 58.424 0.102 7.57 5.22 10.14
5/5/2021 3:15:00 PM 14.61 58.298 0.103 7.52 5.94 10.1
5/5/2021 3:30:00 PM 14.59 58.262 0.103 7.54 7.11 10.12
5/5/2021 3:45:00 PM 14.53 58.154 0.103 7.5 6.38 10.14
5/5/2021 4:00:00 PM 14.53 58.154 0.102 7.57 6.51 10.18
5/5/2021 4:15:00 PM 14.5 58.1 0.102 7.58 6.23 10.17
5/5/2021 4:30:00 PM 14.42 57.956 0.102 7.52 6.04 10.1
5/5/2021 4:45:00 PM 14.39 57.902 0.102 7.51 5.9 10.11
5/5/2021 5:00:00 PM 14.36 57.848 0.102 7.53 5.58 10.13
5/5/2021 5:15:00 PM 14.36 57.848 0.102 7.57 5.93 10.15
5/5/2021 5:30:00 PM 14.3 57.74 0.102 7.53 6.17 10.12
5/5/2021 5:45:00 PM 14.31 57.758 0.102 7.57 5.47 10.2
5/5/2021 6:00:00 PM 14.22 57.596 0.102 7.49 5.33 10.06
5/5/2021 6:15:00 PM 14.21 57.578 0.102 7.52 5.57 10.14
5/5/2021 6:30:00 PM 14.18 57.524 0.102 7.52 5.95 10.13
5/5/2021 6:45:00 PM 14.13 57.434 0.102 7.51 5.07 10.17
5/5/2021 7:00:00 PM 14.09 57.362 0.102 7.53 5.89 10.17
5/5/2021 7:15:00 PM 14.02 57.236 0.102 7.48 5.42 10.1
5/5/2021 7:30:00 PM 13.97 57.146 0.102 7.48 5.07 10.13
5/5/2021 7:45:00 PM 13.93 57.074 0.102 7.48 5.19 10.14
5/5/2021 8:00:00 PM 13.89 57.002 0.102 7.49 5.5 10.16
5/5/2021 8:15:00 PM 13.86 56.948 0.102 7.51 5.66 10.19
5/5/2021 8:30:00 PM 13.8 56.84 0.102 7.49 6.57 10.17
5/5/2021 8:45:00 PM 13.75 56.75 0.102 7.47 6.38 10.15
5/5/2021 9:00:00 PM 13.75 56.75 0.102 7.48 5.97 10.19
5/5/2021 9:15:00 PM 13.71 56.678 0.102 7.49 7.03 10.19
5/5/2021 9:30:00 PM 13.66 56.588 0.102 7.47 5.36 10.18
5/5/2021 9:45:00 PM 13.6 56.48 0.102 7.45 5.03 10.2
5/5/2021 10:00:00 PM 13.55 56.39 0.102 7.45 5.4 10.2
5/5/2021 10:15:00 PM 13.53 56.354 0.102 7.49 5.27 10.27
5/5/2021 10:30:00 PM 13.47 56.246 0.102 7.48 5.16 10.25
5/5/2021 10:45:00 PM 13.43 56.174 0.102 7.47 5.22 10.27
5/5/2021 11:00:00 PM 13.41 56.138 0.102 7.48 5.86 10.27
5/5/2021 11:15:00 PM 13.37 56.066 0.102 7.49 5.25 10.31
5/5/2021 11:30:00 PM 13.31 55.958 0.102 7.48 5.23 10.33
5/5/2021 11:45:00 PM 13.29 55.922 0.096 7.5 5.39 10.33
5/6/2021 12:00:00 AM 13.2 55.76 0.102 7.46 5.09 10.32
5/6/2021 12:15:00 AM 13.18 55.724 0.102 7.48 5.01 10.33
5/6/2021 12:30:00 AM 13.14 55.652 0.102 7.46 6.17 10.34
5/6/2021 12:45:00 AM 13.1 55.58 0.102 7.44 5.47 10.32
5/6/2021 1:00:00 AM 13.08 55.544 0.102 7.48 5.18 10.35
5/6/2021 1:15:00 AM 13 55.4 0.096 7.43 6.46 10.28
5/6/2021 1:30:00 AM 12.98 55.364 0.102 7.45 5.1 10.36
5/6/2021 1:45:00 AM 12.97 55.346 0.102 7.49 5.4 10.39
5/6/2021 2:00:00 AM 12.89 55.202 0.102 7.46 4.94 10.36
5/6/2021 2:15:00 AM 12.87 55.166 0.095 7.47 5.19 10.41
5/6/2021 2:30:00 AM 12.8 55.04 0.095 7.46 5.03 10.4
5/6/2021 2:45:00 AM 12.76 54.968 0.095 7.48 5.8 10.45
5/6/2021 3:00:00 AM 12.71 54.878 0.102 7.46 5.06 10.43
5/6/2021 3:15:00 AM 12.65 54.77 0.102 7.44 5.18 10.42
5/6/2021 3:30:00 AM 12.61 54.698 0.102 7.46 5.5 10.45
5/6/2021 3:45:00 AM 12.6 54.68 0.102 7.48 5.18 10.5
5/6/2021 4:00:00 AM 12.56 54.608 0.102 7.47 5.33 10.48
5/6/2021 4:15:00 AM 12.55 54.59 0.095 7.46 6.75 10.47
5/6/2021 4:30:00 AM 12.52 54.536 0.102 7.47 5.16 10.5
5/6/2021 4:45:00 AM 12.5 54.5 0.102 7.46 4.88 10.48
5/6/2021 5:00:00 AM 12.47 54.446 0.102 7.46 4.84 10.5
5/6/2021 5:15:00 AM 12.46 54.428 0.096 7.46 4.69 10.52
5/6/2021 5:30:00 AM 12.44 54.392 0.095 7.46 5.38 10.51
5/6/2021 5:45:00 AM 12.43 54.374 0.095 7.47 4.89 10.53
5/6/2021 6:00:00 AM 12.38 54.284 0.096 7.43 4.6 10.5
5/6/2021 6:15:00 AM 12.34 54.212 0.102 7.41 4.74 10.49
5/6/2021 6:30:00 AM 12.34 54.212 0.096 7.47 4.56 10.54
5/6/2021 6:45:00 AM 12.32 54.176 0.095 7.51 4.97 10.63
5/6/2021 7:00:00 AM 12.22 53.996 0.102 7.4 4.84 10.52
5/6/2021 7:15:00 AM 12.24 54.032 0.102 7.48 4.46 10.67
5/6/2021 7:30:00 AM 12.21 53.978 0.095 7.5 4.95 10.7
5/6/2021 7:45:00 AM 12.2 53.96 0.102 7.51 4.36 10.74
5/6/2021 8:00:00 AM 12.16 53.888 0.095 7.49 4.28 10.72
5/6/2021 8:15:00 AM 12.16 53.888 0.096 7.51 5.4 10.77
5/6/2021 8:30:00 AM 12.14 53.852 0.095 7.51 4.59 10.77
5/6/2021 8:45:00 AM 12.15 53.87 0.095 7.51 4.49 10.74
5/6/2021 9:00:00 AM 12.22 53.996 0.102 7.49 4.73 10.79
5/6/2021 9:15:00 AM 12.21 53.978 0.095 7.52 4.85 10.76
5/6/2021 9:30:00 AM 12.3 54.14 0.095 7.48 4.23 10.71
5/6/2021 9:45:00 AM 12.52 54.536 0.095 7.6 4.38 10.82
5/6/2021 10:00:00 AM 12.58 54.644 0.096 7.59 4.59 10.79
5/6/2021 10:15:00 AM 12.71 54.878 0.095 7.54 4.32 10.73
5/6/2021 10:30:00 AM 12.84 55.112 0.096 7.52 5.95 10.7
5/6/2021 10:45:00 AM 13.01 55.418 0.101 7.53 4.6 10.68
5/6/2021 11:00:00 AM 13.17 55.706 0.101 7.54 4.45 10.63
5/6/2021 11:15:00 AM 13.33 55.994 0.102 7.48 4.06 10.58
5/6/2021 11:30:00 AM 13.62 56.516 0.101 7.6 4.59 10.6
5/6/2021 11:45:00 AM 13.77 56.786 0.101 7.6 4.57 10.6
5/6/2021 12:00:00 PM 13.75 56.75 0.102 7.5 4.19 10.5
5/6/2021 12:15:00 PM 13.81 56.858 0.101 7.56 4.22 10.52
5/6/2021 12:30:00 PM 14.03 57.254 0.101 7.58 3.99 10.55
5/6/2021 12:45:00 PM 14.19 57.542 0.101 7.57 4.14 10.5
5/6/2021 1:00:00 PM 14.31 57.758 0.101 7.56 4.41 10.43
5/6/2021 1:15:00 PM 14.43 57.974 0.101 7.6 5.78 10.43
5/6/2021 1:30:00 PM 14.61 58.298 0.102 7.59 3.92 10.41
5/6/2021 1:45:00 PM 14.68 58.424 0.101 7.58 4.33 10.39
5/6/2021 2:00:00 PM 14.79 58.622 0.101 7.61 4.08 10.36
5/6/2021 2:15:00 PM 14.92 58.856 0.101 7.66 4.25 10.37
5/6/2021 2:30:00 PM 15.1 59.18 0.101 7.63 4.36 10.33
5/6/2021 2:45:00 PM 15.16 59.288 0.101 7.61 4.08 10.26
5/6/2021 3:00:00 PM 15.21 59.378 0.102 7.59 3.97 10.25
5/6/2021 3:15:00 PM 15.3 59.54 0.102 7.57 4.3 10.21
5/6/2021 3:30:00 PM 15.42 59.756 0.102 7.62 4.18 10.23
5/6/2021 3:45:00 PM 15.48 59.864 0.102 7.64 4.31 10.22
5/6/2021 4:00:00 PM 15.39 59.702 0.102 7.59 10.04 10.17
5/6/2021 4:15:00 PM 15.42 59.756 0.102 7.63 4.83 10.18
5/6/2021 4:30:00 PM 15.35 59.63 0.102 7.6 4.42 10.18
5/6/2021 4:45:00 PM 15.29 59.522 0.102 7.63 4.67 10.22
5/6/2021 5:00:00 PM 15.21 59.378 0.102 7.61 4.75 10.17
5/6/2021 5:15:00 PM 15.1 59.18 0.102 7.59 4.83 10.17
5/6/2021 5:30:00 PM 15 59 0.102 7.61 4.35 10.18
5/6/2021 5:45:00 PM 14.9 58.82 0.102 7.64 4.23 10.24
5/6/2021 6:00:00 PM 14.74 58.532 0.102 7.57 4.01 10.11
5/6/2021 6:15:00 PM 14.57 58.226 0.102 7.52 5.39 10.16
5/6/2021 6:30:00 PM 14.48 58.064 0.102 7.55 4 10.2
5/6/2021 6:45:00 PM 14.37 57.866 0.102 7.56 4.29 10.2
5/6/2021 7:00:00 PM 14.29 57.722 0.102 7.59 4.7 10.26
5/6/2021 7:15:00 PM 14.1 57.38 0.103 7.47 4.32 10.14
5/6/2021 7:30:00 PM 14.05 57.29 0.103 7.53 4.8 10.17
5/6/2021 7:45:00 PM 13.95 57.11 0.103 7.53 4.52 10.23
5/6/2021 8:00:00 PM 13.84 56.912 0.103 7.53 4.44 10.2
5/6/2021 8:15:00 PM 13.71 56.678 0.103 7.49 4.27 10.16
5/6/2021 8:30:00 PM 13.61 56.498 0.103 7.46 4.42 10.13
5/6/2021 8:45:00 PM 13.52 56.336 0.103 7.45 5.97 10.12
5/6/2021 9:00:00 PM 13.44 56.192 0.103 7.45 4.91 10.21
5/6/2021 9:15:00 PM 13.34 56.012 0.104 7.42 4.67 10.16
5/6/2021 9:30:00 PM 13.26 55.868 0.103 7.45 4.93 10.25
5/6/2021 9:45:00 PM 13.17 55.706 0.103 7.46 4.72 10.28
5/6/2021 10:00:00 PM 13.08 55.544 0.103 7.47 4.86 10.31
5/6/2021 10:15:00 PM 12.98 55.364 0.103 7.46 4.33 10.34
5/6/2021 10:30:00 PM 12.87 55.166 0.104 7.42 4.38 10.32
5/6/2021 10:45:00 PM 12.79 55.022 0.104 7.46 4.35 10.38
5/6/2021 11:00:00 PM 12.68 54.824 0.104 7.43 4.6 10.4
5/6/2021 11:15:00 PM 12.61 54.698 0.104 7.47 4.79 10.46
5/6/2021 11:30:00 PM 12.5 54.5 0.104 7.43 4.35 10.38
5/6/2021 11:45:00 PM 12.44 54.392 0.104 7.46 4.59 10.47
5/7/2021 12:00:00 AM 12.36 54.248 0.104 7.47 4.44 10.51
5/7/2021 12:15:00 AM 12.26 54.068 0.104 7.47 4.33 10.53
5/7/2021 12:30:00 AM 12.17 53.906 0.104 7.45 9.63 10.54
5/7/2021 12:45:00 AM 12.07 53.726 0.097 7.42 4.69 10.51
5/7/2021 1:00:00 AM 12 53.6 0.097 7.45 4.31 10.56
5/7/2021 1:15:00 AM 11.92 53.456 0.104 7.46 4.62 10.6
5/7/2021 1:30:00 AM 11.84 53.312 0.104 7.45 5.06 10.62
5/7/2021 1:45:00 AM 11.74 53.132 0.098 7.44 4.52 10.62
5/7/2021 2:00:00 AM 11.66 52.988 0.098 7.42 4.6 10.49
5/7/2021 2:15:00 AM 11.58 52.844 0.098 7.44 4.32 10.68
5/7/2021 2:30:00 AM 11.52 52.736 0.104 7.49 4.8 10.77
5/7/2021 2:45:00 AM 11.42 52.556 0.104 7.47 4.65 10.76
5/7/2021 3:00:00 AM 11.35 52.43 0.098 7.45 4.37 10.74
5/7/2021 3:15:00 AM 11.29 52.322 0.098 7.43 4.56 10.75
5/7/2021 3:30:00 AM 11.22 52.196 0.104 7.46 4.55 10.78
5/7/2021 3:45:00 AM 11.15 52.07 0.097 7.46 4.5 10.79
5/7/2021 4:00:00 AM 11.08 51.944 0.098 7.46 4.51 10.81
5/7/2021 4:15:00 AM 11 51.8 0.098 7.41 4.46 10.77
5/7/2021 4:30:00 AM 10.94 51.692 0.098 7.42 4.51 10.83
5/7/2021 4:45:00 AM 10.88 51.584 0.098 7.42 4.34 10.84
5/7/2021 5:00:00 AM 10.83 51.494 0.098 7.47 5.12 10.9
5/7/2021 5:15:00 AM 10.77 51.386 0.098 7.46 5.77 10.88
5/7/2021 5:30:00 AM 10.7 51.26 0.098 7.46 4.55 10.91
5/7/2021 5:45:00 AM 10.64 51.152 0.098 7.43 4.31 10.9
5/7/2021 6:00:00 AM 10.59 51.062 0.098 7.44 4.29 10.94
5/7/2021 6:15:00 AM 10.55 50.99 0.098 7.47 4.58 10.96
5/7/2021 6:30:00 AM 10.5 50.9 0.098 7.45 4.49 10.92
5/7/2021 6:45:00 AM 10.46 50.828 0.098 7.45 4.23 11.01
5/7/2021 7:00:00 AM 10.45 50.81 0.098 7.47 4.37 11.03
5/7/2021 7:15:00 AM 10.45 50.81 0.098 7.48 4.37 11.08
5/7/2021 7:30:00 AM 10.48 50.864 0.097 7.48 4.26 11.13
5/7/2021 7:45:00 AM 10.5 50.9 0.097 7.51 3.96 11.13
5/7/2021 8:00:00 AM 10.52 50.936 0.097 7.5 4.29 11.15
5/7/2021 8:15:00 AM 10.57 51.026 0.097 7.5 4.73 11.14
5/7/2021 8:30:00 AM 10.65 51.17 0.097 7.52 4.11 11.14
5/7/2021 8:45:00 AM 10.73 51.314 0.097 7.51 4.13 11.13
5/7/2021 9:00:00 AM 10.87 51.566 0.097 7.54 3.93 11.2
5/7/2021 9:15:00 AM 11 51.8 0.097 7.53 3.95 11.19
5/7/2021 9:30:00 AM 11.14 52.052 0.097 7.53 3.95 11.13
5/7/2021 9:45:00 AM 11.26 52.268 0.098 7.56 3.89 11.09
5/7/2021 10:00:00 AM 11.43 52.574 0.097 7.58 4.04 11.13
5/7/2021 10:15:00 AM 11.52 52.736 0.097 7.56 3.94 11.07
5/7/2021 10:30:00 AM 11.64 52.952 0.097 7.57 3.92 11.04
5/7/2021 10:45:00 AM 11.79 53.222 0.097 7.59 7.32 11.01
5/7/2021 11:00:00 AM 11.93 53.474 0.103 7.56 3.92 10.95
5/7/2021 11:15:00 AM 12.12 53.816 0.103 7.59 4.64 10.91
5/7/2021 11:30:00 AM 12.22 53.996 0.103 7.62 4.26 10.92
5/7/2021 11:45:00 AM 12.3 54.14 0.097 7.6 4.37 10.85
5/7/2021 12:00:00 PM 12.4 54.32 0.103 7.62 8.5 10.83
5/7/2021 12:15:00 PM 12.48 54.464 0.103 7.59 4.33 10.82
5/7/2021 12:30:00 PM 12.55 54.59 0.103 7.63 3.9 10.83
5/7/2021 12:45:00 PM 12.6 54.68 0.103 7.59 3.97 10.8
5/7/2021 1:00:00 PM 12.64 54.752 0.103 7.58 4 10.75
5/7/2021 1:15:00 PM 12.74 54.932 0.103 7.58 3.99 10.72
5/7/2021 1:30:00 PM 12.86 55.148 0.103 7.62 4.25 10.78
5/7/2021 1:45:00 PM 12.95 55.31 0.103 7.64 3.89 10.71
5/7/2021 2:00:00 PM 12.95 55.31 0.103 7.59 3.96 10.67
5/7/2021 2:15:00 PM 12.92 55.256 0.104 7.57 4.22 10.57
5/7/2021 2:30:00 PM 12.99 55.382 0.104 7.62 4.09 10.67
5/7/2021 2:45:00 PM 13 55.4 0.104 7.6 3.99 10.56
5/7/2021 3:00:00 PM 13 55.4 0.104 7.55 4.19 10.57
5/7/2021 3:15:00 PM 13.04 55.472 0.104 7.62 3.9 10.55
5/7/2021 3:30:00 PM 13.02 55.436 0.104 7.6 3.97 10.6
5/7/2021 3:45:00 PM 13.04 55.472 0.104 7.59 3.8 10.6
5/7/2021 4:00:00 PM 13.04 55.472 0.104 7.6 3.89 10.59
5/7/2021 4:15:00 PM 13.04 55.472 0.104 7.59 4.03 10.56
5/7/2021 4:30:00 PM 13.02 55.436 0.104 7.57 5.57 10.45
5/7/2021 4:45:00 PM 13 55.4 0.104 7.56 4.11 10.48
5/7/2021 5:00:00 PM 12.99 55.382 0.104 7.56 4.04 10.47
5/7/2021 5:15:00 PM 12.97 55.346 0.104 7.57 3.93 10.55
5/7/2021 5:30:00 PM 12.94 55.292 0.104 7.56 3.98 10.5
5/7/2021 5:45:00 PM 12.93 55.274 0.104 7.57 3.99 10.41
5/7/2021 6:00:00 PM 12.9 55.22 0.104 7.56 3.88 10.51
5/7/2021 6:15:00 PM 12.87 55.166 0.104 7.54 5.36 10.51
5/7/2021 6:30:00 PM 12.86 55.148 0.104 7.56 4.14 10.48
5/7/2021 6:45:00 PM 12.8 55.04 0.104 7.52 4.07 10.46
5/7/2021 7:00:00 PM 12.77 54.986 0.104 7.54 4.76 10.45
5/7/2021 7:15:00 PM 12.72 54.896 0.104 7.51 4.37 10.36
5/7/2021 7:30:00 PM 12.68 54.824 0.104 7.5 4.19 10.38
5/7/2021 7:45:00 PM 12.63 54.734 0.104 7.5 6.29 10.38
5/7/2021 8:00:00 PM 12.57 54.626 0.104 7.48 4.43 10.39
5/7/2021 8:15:00 PM 12.53 54.554 0.104 7.49 4.14 10.38
5/7/2021 8:30:00 PM 12.5 54.5 0.104 7.5 4.37 10.38
5/7/2021 8:45:00 PM 12.44 54.392 0.104 7.48 4.36 10.41
5/7/2021 9:00:00 PM 12.39 54.302 0.104 7.46 4.45 10.41
5/7/2021 9:15:00 PM 12.36 54.248 0.104 7.48 4.83 10.4
5/7/2021 9:30:00 PM 12.31 54.158 0.104 7.47 4.45 10.43
5/7/2021 9:45:00 PM 12.28 54.104 0.104 7.47 4.76 10.42
5/7/2021 10:00:00 PM 12.24 54.032 0.104 7.46 5.22 10.44
5/7/2021 10:15:00 PM 12.21 53.978 0.097 7.46 4.67 10.46
5/7/2021 10:30:00 PM 12.2 53.96 0.104 7.47 4.47 10.48
5/7/2021 10:45:00 PM 12.15 53.87 0.103 7.46 4.49 10.43
5/7/2021 11:00:00 PM 12.11 53.798 0.103 7.43 4.6 10.47
5/7/2021 11:15:00 PM 12.1 53.78 0.103 7.47 4.68 10.5
5/7/2021 11:30:00 PM 12.08 53.744 0.097 7.47 4.63 10.51
5/7/2021 11:45:00 PM 12.07 53.726 0.098 7.48 4.89 10.54
5/8/2021 12:00:00 AM 12.04 53.672 0.097 7.47 4.52 10.48
5/8/2021 12:15:00 AM 12.03 53.654 0.097 7.46 4.88 10.53
5/8/2021 12:30:00 AM 12 53.6 0.103 7.44 4.46 10.5
5/8/2021 12:45:00 AM 12 53.6 0.103 7.47 4.59 10.55
5/8/2021 1:00:00 AM 11.98 53.564 0.097 7.47 4.56 10.53
5/8/2021 1:15:00 AM 11.96 53.528 0.104 7.47 4.62 10.55
5/8/2021 1:30:00 AM 11.94 53.492 0.104 7.47 4.92 10.57
5/8/2021 1:45:00 AM 11.91 53.438 0.104 7.47 5.36 10.55
5/8/2021 2:00:00 AM 11.89 53.402 0.097 7.45 4.5 10.54
5/8/2021 2:15:00 AM 11.87 53.366 0.098 7.47 4.72 10.56
5/8/2021 2:30:00 AM 11.84 53.312 0.097 7.48 5.04 10.59
5/8/2021 2:45:00 AM 11.77 53.186 0.098 7.39 4.61 10.52
5/8/2021 3:00:00 AM 11.76 53.168 0.097 7.43 4.71 10.55
5/8/2021 3:15:00 AM 11.75 53.15 0.097 7.46 4.96 10.58
5/8/2021 3:30:00 AM 11.71 53.078 0.097 7.44 5.03 10.55
5/8/2021 3:45:00 AM 11.68 53.024 0.096 7.45 4.84 10.59
5/8/2021 4:00:00 AM 11.65 52.97 0.096 7.48 5.11 10.63
5/8/2021 4:15:00 AM 11.61 52.898 0.096 7.44 4.99 10.58
5/8/2021 4:30:00 AM 11.58 52.844 0.095 7.46 5.16 10.62
5/8/2021 4:45:00 AM 11.55 52.79 0.095 7.47 5.74 10.68
5/8/2021 5:00:00 AM 11.49 52.682 0.095 7.4 5.76 10.6
5/8/2021 5:15:00 AM 11.49 52.682 0.095 7.47 6.16 10.68
5/8/2021 5:30:00 AM 11.43 52.574 0.095 7.4 6.92 10.64
5/8/2021 5:45:00 AM 11.38 52.484 0.095 7.38 6.42 10.58
5/8/2021 6:00:00 AM 11.39 52.502 0.095 7.47 7.39 10.72
5/8/2021 6:15:00 AM 11.38 52.484 0.095 7.5 7.62 10.77
5/8/2021 6:30:00 AM 11.37 52.466 0.094 7.51 7.95 10.81
5/8/2021 6:45:00 AM 11.34 52.412 0.094 7.49 7.82 10.8
5/8/2021 7:00:00 AM 11.32 52.376 0.094 7.51 8.38 10.82
5/8/2021 7:15:00 AM 11.31 52.358 0.093 7.53 8.78 10.88
5/8/2021 7:30:00 AM 11.28 52.304 0.093 7.51 8.71 10.86
5/8/2021 7:45:00 AM 11.25 52.25 0.093 7.51 8.52 10.87
5/8/2021 8:00:00 AM 11.24 52.232 0.093 7.51 7.95 10.89
5/8/2021 8:15:00 AM 11.23 52.214 0.093 7.52 7.5 10.92
5/8/2021 8:30:00 AM 11.21 52.178 0.093 7.5 6.77 10.89
5/8/2021 8:45:00 AM 11.23 52.214 0.093 7.51 6.47 10.92
5/8/2021 9:00:00 AM 11.23 52.214 0.093 7.51 6.25 10.91
5/8/2021 9:15:00 AM 11.27 52.286 0.093 7.52 6.38 10.96
5/8/2021 9:30:00 AM 11.31 52.358 0.093 7.54 5.96 10.99
5/8/2021 9:45:00 AM 11.35 52.43 0.093 7.53 6.35 10.96
5/8/2021 10:00:00 AM 11.37 52.466 0.093 7.52 5.92 10.95
5/8/2021 10:15:00 AM 11.4 52.52 0.093 7.53 5.96 10.95
5/8/2021 10:30:00 AM 11.47 52.646 0.093 7.53 5.86 10.99
5/8/2021 10:45:00 AM 11.6 52.88 0.092 7.59 6 11.04
5/8/2021 11:00:00 AM 11.68 53.024 0.092 7.59 5.94 10.98
5/8/2021 11:15:00 AM 11.73 53.114 0.092 7.6 5.94 10.96
5/8/2021 11:30:00 AM 11.83 53.294 0.093 7.59 5.85 10.95
5/8/2021 11:45:00 AM 11.88 53.384 0.092 7.58 7.46 10.91
5/8/2021 12:00:00 PM 11.94 53.492 0.092 7.56 6.08 10.88
5/8/2021 12:15:00 PM 12 53.6 0.092 7.58 6.18 10.89
5/8/2021 12:30:00 PM 12.03 53.654 0.092 7.58 5.9 10.89
5/8/2021 12:45:00 PM 12.08 53.744 0.092 7.58 5.53 10.89
5/8/2021 1:00:00 PM 12.14 53.852 0.092 7.58 6.02 10.86
5/8/2021 1:15:00 PM 12.19 53.942 0.092 7.57 5.74 10.88
5/8/2021 1:30:00 PM 12.21 53.978 0.092 7.59 5.78 10.83
5/8/2021 1:45:00 PM 12.25 54.05 0.092 7.58 6.01 10.81
5/8/2021 2:00:00 PM 12.3 54.14 0.092 7.61 6.51 10.84
5/8/2021 2:15:00 PM 12.33 54.194 0.092 7.58 5.8 10.8
5/8/2021 2:30:00 PM 12.43 54.374 0.093 7.62 6.3 10.84
5/8/2021 2:45:00 PM 12.48 54.464 0.093 7.61 5.87 10.84
5/8/2021 3:00:00 PM 12.58 54.644 0.093 7.63 5.64 10.85
5/8/2021 3:15:00 PM 12.6 54.68 0.093 7.61 5.49 10.82
5/8/2021 3:30:00 PM 12.71 54.878 0.093 7.63 5.73 10.81
5/8/2021 3:45:00 PM 12.73 54.914 0.094 7.56 5.62 10.72
5/8/2021 4:00:00 PM 12.78 55.004 0.093 7.61 5.58 10.72
5/8/2021 4:15:00 PM 12.77 54.986 0.093 7.6 5.83 10.73
5/8/2021 4:30:00 PM 12.77 54.986 0.093 7.6 5.84 10.73
5/8/2021 4:45:00 PM 12.72 54.896 0.093 7.59 6.13 10.72
5/8/2021 5:00:00 PM 12.82 55.076 0.093 7.62 5.58 10.77
5/8/2021 5:15:00 PM 12.84 55.112 0.093 7.59 5.71 10.74
5/8/2021 5:30:00 PM 12.89 55.202 0.093 7.61 5.33 10.71
5/8/2021 5:45:00 PM 12.9 55.22 0.093 7.61 5.4 10.68
5/8/2021 6:00:00 PM 12.93 55.274 0.093 7.58 5.55 10.64
5/8/2021 6:15:00 PM 12.88 55.184 0.093 7.57 5.85 10.62
5/8/2021 6:30:00 PM 12.79 55.022 0.093 7.56 5.8 10.6
5/8/2021 6:45:00 PM 12.73 54.914 0.093 7.55 5.54 10.62
5/8/2021 7:00:00 PM 12.69 54.842 0.093 7.52 5.57 10.57
5/8/2021 7:15:00 PM 12.61 54.698 0.093 7.53 5.9 10.57
5/8/2021 7:30:00 PM 12.54 54.572 0.093 7.53 6.07 10.59
5/8/2021 7:45:00 PM 12.46 54.428 0.094 7.49 5.87 10.56
5/8/2021 8:00:00 PM 12.42 54.356 0.094 7.49 5.84 10.58
5/8/2021 8:15:00 PM 12.38 54.284 0.094 7.52 5.66 10.61
5/8/2021 8:30:00 PM 12.31 54.158 0.094 7.5 5.65 10.59
5/8/2021 8:45:00 PM 12.24 54.032 0.094 7.5 5.92 10.62
5/8/2021 9:00:00 PM 12.18 53.924 0.094 7.47 6.75 10.61
5/8/2021 9:15:00 PM 12.14 53.852 0.094 7.47 7.01 10.62
5/8/2021 9:30:00 PM 12.1 53.78 0.094 7.47 6 10.63
5/8/2021 9:45:00 PM 12.06 53.708 0.094 7.47 6.19 10.65
5/8/2021 10:00:00 PM 12.01 53.618 0.095 7.47 6.13 10.69
5/8/2021 10:15:00 PM 11.95 53.51 0.094 7.47 7.21 10.69
5/8/2021 10:30:00 PM 11.92 53.456 0.094 7.49 6.14 10.72
5/8/2021 10:45:00 PM 11.86 53.348 0.094 7.48 5.98 10.72
5/8/2021 11:00:00 PM 11.82 53.276 0.094 7.49 6.02 10.74
5/8/2021 11:15:00 PM 11.76 53.168 0.094 7.48 5.73 10.75
5/8/2021 11:30:00 PM 11.72 53.096 0.094 7.48 5.99 10.73
5/8/2021 11:45:00 PM 11.66 52.988 0.094 7.46 5.59 10.74
5/9/2021 12:00:00 AM 11.63 52.934 0.094 7.5 5.83 10.82
5/9/2021 12:15:00 AM 11.57 52.826 0.094 7.47 7.95 10.77
5/9/2021 12:30:00 AM 11.51 52.718 0.094 7.43 11.84 10.74
5/9/2021 12:45:00 AM 11.47 52.646 0.095 7.47 6.26 10.82
5/9/2021 1:00:00 AM 11.43 52.574 0.094 7.47 6.3 10.83
5/9/2021 1:15:00 AM 11.39 52.502 0.094 7.47 6.09 10.85
5/9/2021 1:30:00 AM 11.34 52.412 0.094 7.49 5.66 10.88
5/9/2021 1:45:00 AM 11.29 52.322 0.094 7.46 5.61 10.83
5/9/2021 2:00:00 AM 11.24 52.232 0.094 7.46 5.57 10.85
5/9/2021 2:15:00 AM 11.2 52.16 0.094 7.46 5.52 10.88
5/9/2021 2:30:00 AM 11.16 52.088 0.094 7.49 5.81 10.92
5/9/2021 2:45:00 AM 11.12 52.016 0.094 7.47 6.43 10.88
5/9/2021 3:00:00 AM 11.07 51.926 0.095 7.45 5.59 10.89
5/9/2021 3:15:00 AM 11.04 51.872 0.094 7.45 5.99 10.92
5/9/2021 3:30:00 AM 11 51.8 0.094 7.44 8.8 10.88
5/9/2021 3:45:00 AM 10.95 51.71 0.094 7.48 8.25 10.96
5/9/2021 4:00:00 AM 10.91 51.638 0.094 7.47 6.59 10.96
5/9/2021 4:15:00 AM 10.87 51.566 0.094 7.5 6.1 11.03
5/9/2021 4:30:00 AM 10.82 51.476 0.094 7.47 5.87 10.99
5/9/2021 4:45:00 AM 10.79 51.422 0.094 7.5 5.77 11.04
5/9/2021 5:00:00 AM 10.74 51.332 0.094 7.48 6.18 11.03
5/9/2021 5:15:00 AM 10.7 51.26 0.094 7.49 11.31 11.04
5/9/2021 5:30:00 AM 10.64 51.152 0.094 7.45 6.62 10.99
5/9/2021 5:45:00 AM 10.62 51.116 0.094 7.47 5.78 11.05
5/9/2021 6:00:00 AM 10.59 51.062 0.094 7.49 6.16 11.09
5/9/2021 6:15:00 AM 10.57 51.026 0.094 7.49 5.64 11.12
5/9/2021 6:30:00 AM 10.54 50.972 0.094 7.5 5.75 11.14
5/9/2021 6:45:00 AM 10.52 50.936 0.094 7.5 5.82 11.16
5/9/2021 7:00:00 AM 10.52 50.936 0.094 7.49 5.55 11.16
5/9/2021 7:15:00 AM 10.54 50.972 0.094 7.53 5.45 11.23
5/9/2021 7:30:00 AM 10.55 50.99 0.094 7.53 5.33 11.22
5/9/2021 7:45:00 AM 10.56 51.008 0.094 7.5 5.43 11.22
5/9/2021 8:00:00 AM 10.56 51.008 0.094 7.5 5.58 11.21
5/9/2021 8:15:00 AM 10.6 51.08 0.093 7.51 4.93 11.21
5/9/2021 8:30:00 AM 10.67 51.206 0.093 7.53 5.01 11.27
5/9/2021 8:45:00 AM 10.76 51.368 0.093 7.57 5.26 11.26
5/9/2021 9:00:00 AM 10.81 51.458 0.093 7.54 4.93 11.25
5/9/2021 9:15:00 AM 10.93 51.674 0.093 7.56 5.04 11.23
5/9/2021 9:30:00 AM 11.06 51.908 0.093 7.52 4.95 11.15
5/9/2021 9:45:00 AM 11.2 52.16 0.093 7.56 8.34 11.17
5/9/2021 10:00:00 AM 11.41 52.538 0.093 7.61 5.09 11.18
5/9/2021 10:15:00 AM 11.6 52.88 0.093 7.63 5.26 11.16
5/9/2021 10:30:00 AM 11.74 53.132 0.093 7.59 4.86 11.08
5/9/2021 10:45:00 AM 11.87 53.366 0.093 7.59 5.39 11.05
5/9/2021 11:00:00 AM 12.02 53.636 0.093 7.6 4.92 11.03
5/9/2021 11:15:00 AM 12.17 53.906 0.093 7.64 5.04 11.02
5/9/2021 11:30:00 AM 12.29 54.122 0.093 7.63 5.12 10.96
5/9/2021 11:45:00 AM 12.36 54.248 0.093 7.64 5.28 10.95
5/9/2021 12:00:00 PM 12.39 54.302 0.093 7.62 5.09 10.88
5/9/2021 12:15:00 PM 12.46 54.428 0.093 7.62 4.88 10.89
5/9/2021 12:30:00 PM 12.54 54.572 0.093 7.62 4.93 10.89
5/9/2021 12:45:00 PM 12.59 54.662 0.093 7.64 5.12 10.87
5/9/2021 1:00:00 PM 12.63 54.734 0.093 7.66 5.14 10.88
5/9/2021 1:15:00 PM 12.61 54.698 0.093 7.63 4.89 10.82
5/9/2021 1:30:00 PM 12.62 54.716 0.093 7.64 4.88 10.84
5/9/2021 1:45:00 PM 12.55 54.59 0.093 7.56 4.91 10.77
5/9/2021 2:00:00 PM 12.54 54.572 0.093 7.61 5.06 10.78
5/9/2021 2:15:00 PM 12.49 54.482 0.093 7.58 4.9 10.73
5/9/2021 2:30:00 PM 12.46 54.428 0.093 7.6 5.1 10.76
5/9/2021 2:45:00 PM 12.4 54.32 0.093 7.58 5.07 10.76
5/9/2021 3:00:00 PM 12.34 54.212 0.093 7.6 5.03 10.8
5/9/2021 3:15:00 PM 12.28 54.104 0.093 7.57 4.83 10.8
5/9/2021 3:30:00 PM 12.24 54.032 0.093 7.58 4.95 10.82
5/9/2021 3:45:00 PM 12.19 53.942 0.093 7.6 4.85 10.83
5/9/2021 4:00:00 PM 12.12 53.816 0.094 7.57 5.01 10.76
5/9/2021 4:15:00 PM 12.06 53.708 0.094 7.56 5.21 10.77
5/9/2021 4:30:00 PM 11.99 53.582 0.094 7.57 5.04 10.8
5/9/2021 4:45:00 PM 11.9 53.42 0.094 7.54 5.02 10.76
5/9/2021 5:00:00 PM 11.84 53.312 0.094 7.56 5.25 10.78
5/9/2021 5:15:00 PM 11.75 53.15 0.094 7.51 5.11 10.77
5/9/2021 5:30:00 PM 11.68 53.024 0.093 7.5 5.48 10.75
5/9/2021 5:45:00 PM 11.62 52.916 0.093 7.52 5.35 10.82
5/9/2021 6:00:00 PM 11.56 52.808 0.093 7.52 5.61 10.82
5/9/2021 6:15:00 PM 11.51 52.718 0.093 7.52 5.32 10.83
5/9/2021 6:30:00 PM 11.46 52.628 0.093 7.51 5.49 10.82
5/9/2021 6:45:00 PM 11.43 52.574 0.093 7.51 5.94 10.84
5/9/2021 7:00:00 PM 11.39 52.502 0.093 7.52 5.52 10.86
5/9/2021 7:15:00 PM 11.35 52.43 0.093 7.49 5.83 10.83
5/9/2021 7:30:00 PM 11.33 52.394 0.093 7.53 5.81 10.87
5/9/2021 7:45:00 PM 11.3 52.34 0.093 7.5 6 10.85
5/9/2021 8:00:00 PM 11.26 52.268 0.093 7.47 6.47 10.79
5/9/2021 8:15:00 PM 11.25 52.25 0.093 7.5 6.71 10.84
5/9/2021 8:30:00 PM 11.22 52.196 0.093 7.49 6.66 10.85
5/9/2021 8:45:00 PM 11.19 52.142 0.092 7.5 7.16 10.87
5/9/2021 9:00:00 PM 11.16 52.088 0.092 7.49 8.06 10.85
5/9/2021 9:15:00 PM 11.12 52.016 0.092 7.47 7.64 10.83
5/9/2021 9:30:00 PM 11.09 51.962 0.092 7.44 7.97 10.82
5/9/2021 9:45:00 PM 11.07 51.926 0.091 7.46 8.43 10.86
5/9/2021 10:00:00 PM 11.03 51.854 0.091 7.46 8.07 10.86
5/9/2021 10:15:00 PM 11.02 51.836 0.091 7.48 8.53 10.88
5/9/2021 10:30:00 PM 11 51.8 0.091 7.49 9.22 10.91
5/9/2021 10:45:00 PM 10.97 51.746 0.091 7.48 8.99 10.88
5/9/2021 11:00:00 PM 10.95 51.71 0.09 7.46 10.23 10.88
5/9/2021 11:15:00 PM 10.93 51.674 0.09 7.46 9.69 10.89
5/9/2021 11:30:00 PM 10.9 51.62 0.09 7.45 10.63 10.87
5/9/2021 11:45:00 PM 10.88 51.584 0.09 7.46 10.97 10.89
5/10/2021 12:00:00 AM 10.86 51.548 0.089 7.46 10.46 10.92
5/10/2021 12:15:00 AM 10.84 51.512 0.089 7.44 11.05 10.92
5/10/2021 12:30:00 AM 10.83 51.494 0.089 7.46 11.98 10.93
5/10/2021 12:45:00 AM 10.83 51.494 0.089 7.47 11.97 10.95
5/10/2021 1:00:00 AM 10.82 51.476 0.089 7.46 13.41 10.95
5/10/2021 1:15:00 AM 10.82 51.476 0.088 7.46 12.29 10.96
5/10/2021 1:30:00 AM 10.82 51.476 0.088 7.47 13 10.98
5/10/2021 1:45:00 AM 10.82 51.476 0.087 7.47 13.57 10.99
5/10/2021 2:00:00 AM 10.82 51.476 0.087 7.48 16.92 10.99
5/10/2021 2:15:00 AM 10.82 51.476 0.086 7.49 15.39 11.01
5/10/2021 2:30:00 AM 10.82 51.476 0.09 7.5 14.45 11.04
5/10/2021 2:45:00 AM 10.82 51.476 0.086 7.5 18.49 11.04
5/10/2021 3:00:00 AM 10.81 51.458 0.083 7.46 15.19 11.01
5/10/2021 3:15:00 AM 10.82 51.476 0.085 7.48 35.26 11.03
5/10/2021 3:30:00 AM 10.82 51.476 0.085 7.48 16.88 11.03
5/10/2021 3:45:00 AM 10.82 51.476 0.085 7.5 19.46 11.06
5/10/2021 4:00:00 AM 10.83 51.494 0.085 7.5 17.73 11.07
5/10/2021 4:15:00 AM 10.84 51.512 0.085 7.51 19.05 11.07
5/10/2021 4:30:00 AM 10.86 51.548 0.085 7.5 17.2 11.07
5/10/2021 4:45:00 AM 10.88 51.584 0.085 7.5 15.18 11.07
5/10/2021 5:00:00 AM 10.89 51.602 0.085 7.49 12.31 11.07
5/10/2021 5:15:00 AM 10.92 51.656 0.085 7.51 15.21 11.07
5/10/2021 5:30:00 AM 10.94 51.692 0.085 7.51 17.96 11.08
5/10/2021 5:45:00 AM 10.95 51.71 0.086 7.49 14.78 11.06
5/10/2021 6:00:00 AM 10.98 51.764 0.086 7.5 16.41 11.06
5/10/2021 6:15:00 AM 11 51.8 0.086 7.51 13.63 11.05
5/10/2021 6:30:00 AM 11.01 51.818 0.086 7.49 17.57 11.03
5/10/2021 6:45:00 AM 11.03 51.854 0.086 7.5 11.28 11.04
5/10/2021 7:00:00 AM 11.05 51.89 0.086 7.5 13.08 11.04
5/10/2021 7:15:00 AM 11.09 51.962 0.086 7.53 13.95 11.08
5/10/2021 7:30:00 AM 11.11 51.998 0.086 7.54 13.45 11.08
5/10/2021 7:45:00 AM 11.14 52.052 0.087 7.54 13.07 11.09
5/10/2021 8:00:00 AM 11.16 52.088 0.087 7.54 11.22 11.09
5/10/2021 8:15:00 AM 11.19 52.142 0.087 7.55 12.96 11.1
5/10/2021 8:30:00 AM 11.22 52.196 0.087 7.56 13.68 11.1
5/10/2021 8:45:00 AM 11.25 52.25 0.087 7.56 12.49 11.1
5/10/2021 9:00:00 AM 11.28 52.304 0.087 7.56 13.08 11.1
5/10/2021 9:15:00 AM 11.31 52.358 0.087 7.56 11.59 11.11
5/10/2021 9:30:00 AM 11.35 52.43 0.087 7.57 10.29 11.12
5/10/2021 9:45:00 AM 11.39 52.502 0.087 7.57 12.01 11.11
5/10/2021 10:00:00 AM 11.44 52.592 0.087 7.58 10.66 11.11
5/10/2021 10:15:00 AM 11.46 52.628 0.088 7.58 10.87 11.1
5/10/2021 10:30:00 AM 11.49 52.682 0.088 7.58 12.48 11.09
5/10/2021 10:45:00 AM 11.52 52.736 0.088 7.59 10.24 11.1
5/10/2021 11:00:00 AM 11.54 52.772 0.088 7.59 9.55 11.09
5/10/2021 11:15:00 AM 11.55 52.79 0.088 7.58 10.44 11.06
5/10/2021 11:30:00 AM 11.54 52.772 0.088 7.55 9.35 11.04
5/10/2021 11:45:00 AM 11.56 52.808 0.088 7.58 10.02 11.07
5/10/2021 12:00:00 PM 11.59 52.862 0.089 7.6 10.31 11.08
5/10/2021 12:15:00 PM 11.69 53.042 0.088 7.6 9.13 11.09
5/10/2021 12:30:00 PM 11.8 53.24 0.088 7.6 10 11.07
5/10/2021 12:45:00 PM 11.85 53.33 0.088 7.61 8.12 11.03
5/10/2021 1:00:00 PM 11.94 53.492 0.088 7.6 3128.47 11.02
5/10/2021 1:15:00 PM 12 53.6 0.089 8.06 172.05 11.01
5/10/2021 1:30:00 PM 12.16 53.888 0.088 7.61 9.24 11
5/10/2021 1:45:00 PM 12.34 54.212 0.088 7.6 8.91 10.94
5/10/2021 2:00:00 PM 12.48 54.464 0.088 7.62 8.21 10.9
5/10/2021 2:15:00 PM 12.55 54.59 0.088 7.62 8.47 10.88
5/10/2021 2:30:00 PM 12.87 55.166 0.088 7.62 7.92 10.83
5/10/2021 2:45:00 PM 12.93 55.274 0.088 7.62 7.82 10.79
5/10/2021 3:00:00 PM 12.88 55.184 0.088 7.6 8.03 10.76
5/10/2021 3:15:00 PM 12.99 55.382 0.088 7.62 8.29 10.73
5/10/2021 3:30:00 PM 13.13 55.634 0.088 7.62 7.33 10.69
5/10/2021 3:45:00 PM 13.13 55.634 0.088 7.6 7.99 10.68
5/10/2021 4:00:00 PM 13.21 55.778 0.088 7.6 8.03 10.68
5/10/2021 4:15:00 PM 13.26 55.868 0.088 7.62 7.9 10.69
5/10/2021 4:30:00 PM 13.31 55.958 0.088 7.62 7.91 10.66
5/10/2021 4:45:00 PM 13.27 55.886 0.088 7.6 8.64 10.64
5/10/2021 5:00:00 PM 13.18 55.724 0.088 7.6 7.9 10.65
5/10/2021 5:15:00 PM 13.17 55.706 0.089 7.57 8.53 10.62
5/10/2021 5:30:00 PM 13.11 55.598 0.089 7.57 7.65 10.63
5/10/2021 5:45:00 PM 13.01 55.418 0.089 7.57 7.16 10.64
5/10/2021 6:00:00 PM 12.93 55.274 0.089 7.59 7.46 10.67
5/10/2021 6:15:00 PM 12.86 55.148 0.089 7.55 7.26 10.67
5/10/2021 6:30:00 PM 12.82 55.076 0.089 7.58 7 10.69
5/10/2021 6:45:00 PM 12.78 55.004 0.089 7.57 6.97 10.68
5/10/2021 7:00:00 PM 12.73 54.914 0.089 7.55 6.96 10.68
5/10/2021 7:15:00 PM 12.7 54.86 0.089 7.57 8 10.7
5/10/2021 7:30:00 PM 12.62 54.716 0.089 7.53 8.46 10.68
5/10/2021 7:45:00 PM 12.55 54.59 0.089 7.51 6.62 10.66
5/10/2021 8:00:00 PM 12.47 54.446 0.089 7.5 7.08 10.67
5/10/2021 8:15:00 PM 12.41 54.338 0.089 7.52 6.99 10.7
5/10/2021 8:30:00 PM 12.32 54.176 0.09 7.5 6.85 10.7
5/10/2021 8:45:00 PM 12.24 54.032 0.089 7.48 7.62 10.71
5/10/2021 9:00:00 PM 12.18 53.924 0.089 7.5 7.35 10.76
5/10/2021 9:15:00 PM 12.12 53.816 0.089 7.48 7.62 10.77
5/10/2021 9:30:00 PM 12.05 53.69 0.089 7.46 7.32 10.76
5/10/2021 9:45:00 PM 12 53.6 0.089 7.48 6.71 10.8
5/10/2021 10:00:00 PM 11.95 53.51 0.089 7.48 8.74 10.81
5/10/2021 10:15:00 PM 11.89 53.402 0.089 7.46 15.19 10.8
5/10/2021 10:30:00 PM 11.83 53.294 0.089 7.47 6.9 10.81
5/10/2021 10:45:00 PM 11.78 53.204 0.089 7.5 7.41 10.85
5/10/2021 11:00:00 PM 11.72 53.096 0.089 7.48 7.46 10.86
5/10/2021 11:15:00 PM 11.68 53.024 0.089 7.49 6.93 10.89
5/10/2021 11:30:00 PM 11.62 52.916 0.089 7.46 6.63 10.86
5/10/2021 11:45:00 PM 11.6 52.88 0.089 7.49 7.28 10.91
5/11/2021 12:00:00 AM 11.56 52.808 0.089 7.49 6.69 10.92
5/11/2021 12:15:00 AM 11.52 52.736 0.089 7.49 6.59 10.93
5/11/2021 12:30:00 AM 11.48 52.664 0.089 7.47 7.04 10.93
5/11/2021 12:45:00 AM 11.43 52.574 0.089 7.47 7.34 10.93
5/11/2021 1:00:00 AM 11.39 52.502 0.09 7.45 7.39 10.95
5/11/2021 1:15:00 AM 11.36 52.448 0.09 7.47 6.35 10.96
5/11/2021 1:30:00 AM 11.32 52.376 0.09 7.46 6.75 10.96
5/11/2021 1:45:00 AM 11.28 52.304 0.09 7.45 6.28 10.97
5/11/2021 2:00:00 AM 11.25 52.25 0.09 7.46 6.78 10.98
5/11/2021 2:15:00 AM 11.21 52.178 0.09 7.46 9.93 10.98
5/11/2021 2:30:00 AM 11.19 52.142 0.09 7.47 7.36 11
5/11/2021 2:45:00 AM 11.16 52.088 0.09 7.48 6.88 11.02
5/11/2021 3:00:00 AM 11.13 52.034 0.09 7.48 6.82 11.02
5/11/2021 3:15:00 AM 11.1 51.98 0.09 7.47 6.73 11.03
5/11/2021 3:30:00 AM 11.06 51.908 0.09 7.46 6.49 11.02
5/11/2021 3:45:00 AM 11.04 51.872 0.09 7.47 6.25 11.03
5/11/2021 4:00:00 AM 11.01 51.818 0.09 7.48 8.1 11.06
5/11/2021 4:15:00 AM 10.99 51.782 0.09 7.48 5.93 11.05
5/11/2021 4:30:00 AM 10.96 51.728 0.09 7.47 6.27 11.07
5/11/2021 4:45:00 AM 10.93 51.674 0.09 7.48 6.43 11.09
5/11/2021 5:00:00 AM 10.89 51.602 0.09 7.48 6.48 11.09
5/11/2021 5:15:00 AM 10.86 51.548 0.09 7.49 6.43 11.12
5/11/2021 5:30:00 AM 10.81 51.458 0.09 7.48 6.64 11.12
5/11/2021 5:45:00 AM 10.77 51.386 0.09 7.48 6.02 11.12
5/11/2021 6:00:00 AM 10.73 51.314 0.09 7.47 6.57 11.14
5/11/2021 6:15:00 AM 10.7 51.26 0.09 7.48 6.81 11.17
5/11/2021 6:30:00 AM 10.67 51.206 0.09 7.48 6.28 11.18
5/11/2021 6:45:00 AM 10.65 51.17 0.09 7.48 11.9 11.19
5/11/2021 7:00:00 AM 10.64 51.152 0.09 7.48 6.79 11.19
5/11/2021 7:15:00 AM 10.64 51.152 0.09 7.5 7.32 11.22
5/11/2021 7:30:00 AM 10.63 51.134 0.09 7.48 6.09 11.19
5/11/2021 7:45:00 AM 10.65 51.17 0.09 7.49 5.87 11.22
5/11/2021 8:00:00 AM 10.68 51.224 0.09 7.51 6.62 11.25
5/11/2021 8:15:00 AM 10.73 51.314 0.09 7.51 5.4 11.24
5/11/2021 8:30:00 AM 10.8 51.44 0.09 7.53 5.49 11.24
5/11/2021 8:45:00 AM 10.88 51.584 0.09 7.54 5.75 11.23
5/11/2021 9:00:00 AM 10.97 51.746 0.09 7.54 5.4 11.21
5/11/2021 9:15:00 AM 11.07 51.926 0.089 7.54 5.6 11.17
5/11/2021 9:30:00 AM 11.2 52.16 0.09 7.56 5.25 11.17
5/11/2021 9:45:00 AM 11.33 52.394 0.089 7.55 5.16 11.14
5/11/2021 10:00:00 AM 11.49 52.682 0.089 7.58 5.81 11.13
5/11/2021 10:15:00 AM 11.63 52.934 0.089 7.58 5.91 11.08
5/11/2021 10:30:00 AM 11.76 53.168 0.089 7.56 6.38 11.03
5/11/2021 10:45:00 AM 11.92 53.456 0.089 7.58 5.95 11.02
5/11/2021 11:00:00 AM 12.09 53.762 0.089 7.59 5.37 11.01
5/11/2021 11:15:00 AM 12.14 53.852 0.09 7.58 5.25 10.96
5/11/2021 11:30:00 AM 12.13 53.834 0.089 7.59 5.91 10.96
5/11/2021 11:45:00 AM 12.13 53.834 0.089 7.58 5.52 10.93
5/11/2021 12:00:00 PM 12.11 53.798 0.089 7.55 5.67 10.89
5/11/2021 12:15:00 PM 12.07 53.726 0.089 7.58 6.35 10.94
5/11/2021 12:30:00 PM 11.99 53.582 0.09 7.56 5.65 10.93
5/11/2021 12:45:00 PM 11.93 53.474 0.09 7.56 5.7 10.95
5/11/2021 1:00:00 PM 11.93 53.474 0.089 7.58 5.66 10.98
5/11/2021 1:15:00 PM 12.02 53.636 0.09 7.59 5.54 11
5/11/2021 1:30:00 PM 12.09 53.762 0.09 7.58 5.32 10.99
5/11/2021 1:45:00 PM 12.11 53.798 0.09 7.6 5.34 10.97
5/11/2021 2:00:00 PM 12.2 53.96 0.09 7.61 5.56 10.98
5/11/2021 2:15:00 PM 12.28 54.104 0.09 7.61 5.5 10.94
5/11/2021 2:30:00 PM 12.33 54.194 0.09 7.6 5.77 10.91
5/11/2021 2:45:00 PM 12.36 54.248 0.09 7.6 5.86 10.89
5/11/2021 3:00:00 PM 12.4 54.32 0.09 7.6 5.47 10.87
5/11/2021 3:15:00 PM 12.43 54.374 0.09 7.59 5.48 10.84
5/11/2021 3:30:00 PM 12.39 54.302 0.09 7.55 5.38 10.79
5/11/2021 3:45:00 PM 12.35 54.23 0.09 7.55 6.26 10.79
5/11/2021 4:00:00 PM 12.32 54.176 0.09 7.56 8.71 10.84
5/11/2021 4:15:00 PM 12.32 54.176 0.09 7.6 7.04 10.86
5/11/2021 4:30:00 PM 12.27 54.086 0.09 7.58 5.72 10.86
5/11/2021 4:45:00 PM 12.25 54.05 0.09 7.58 5.3 10.88
5/11/2021 5:00:00 PM 12.2 53.96 0.09 7.58 7.48 10.86
5/11/2021 5:15:00 PM 12.18 53.924 0.09 7.57 7.17 10.88
5/11/2021 5:30:00 PM 12.17 53.906 0.09 7.56 5.71 10.89
5/11/2021 5:45:00 PM 12.15 53.87 0.09 7.59 6.3 10.91
5/11/2021 6:00:00 PM 12.14 53.852 0.09 7.55 5.53 10.88
5/11/2021 6:15:00 PM 12.12 53.816 0.091 7.56 5.51 10.88
5/11/2021 6:30:00 PM 12.05 53.69 0.09 7.55 5.81 10.88
5/11/2021 6:45:00 PM 11.99 53.582 0.09 7.52 8.02 10.85
5/11/2021 7:00:00 PM 11.92 53.456 0.09 7.54 6.15 10.87
5/11/2021 7:15:00 PM 11.86 53.348 0.09 7.53 6.18 10.87
5/11/2021 7:30:00 PM 11.79 53.222 0.09 7.5 6.97 10.87
5/11/2021 7:45:00 PM 11.73 53.114 0.09 7.53 6.77 10.88
5/11/2021 8:00:00 PM 11.63 52.934 0.09 7.5 7.29 10.87
5/11/2021 8:15:00 PM 11.54 52.772 0.09 7.47 12.35 10.86
5/11/2021 8:30:00 PM 11.5 52.7 0.09 7.5 8.14 10.92
5/11/2021 8:45:00 PM 11.42 52.556 0.091 7.48 7.6 10.91
5/11/2021 9:00:00 PM 11.37 52.466 0.09 7.49 8.85 10.95
5/11/2021 9:15:00 PM 11.3 52.34 0.09 7.48 6.82 10.96
5/11/2021 9:30:00 PM 11.23 52.214 0.09 7.44 6.54 10.94
5/11/2021 9:45:00 PM 11.18 52.124 0.09 7.48 5.63 10.98
5/11/2021 10:00:00 PM 11.12 52.016 0.091 7.48 6.32 11.01
5/11/2021 10:15:00 PM 11.08 51.944 0.09 7.49 5.57 11.03
5/11/2021 10:30:00 PM 11.02 51.836 0.09 7.47 5.7 11.02
5/11/2021 10:45:00 PM 10.97 51.746 0.09 7.47 6.33 11.05
5/11/2021 11:00:00 PM 10.93 51.674 0.091 7.49 5.87 11.08
5/11/2021 11:15:00 PM 10.87 51.566 0.091 7.48 5.74 11.09
5/11/2021 11:30:00 PM 10.81 51.458 0.091 7.44 5.21 11.07
5/11/2021 11:45:00 PM 10.76 51.368 0.09 7.47 6.71 11.12
5/12/2021 12:00:00 AM 10.7 51.26 0.091 7.45 5.72 11.1
5/12/2021 12:15:00 AM 10.67 51.206 0.091 7.47 5.22 11.14
5/12/2021 12:30:00 AM 10.6 51.08 0.091 7.46 5.43 11.14
5/12/2021 12:45:00 AM 10.56 51.008 0.091 7.46 5.05 11.15
5/12/2021 1:00:00 AM 10.5 50.9 0.091 7.46 5.06 11.14
5/12/2021 1:15:00 AM 10.47 50.846 0.091 7.45 5.22 11.16
5/12/2021 1:30:00 AM 10.42 50.756 0.091 7.44 4.96 11.13
5/12/2021 1:45:00 AM 10.38 50.684 0.091 7.42 5.45 11.18
5/12/2021 2:00:00 AM 10.34 50.612 0.091 7.45 6.11 11.19
5/12/2021 2:15:00 AM 10.3 50.54 0.091 7.46 5.09 11.2
5/12/2021 2:30:00 AM 10.26 50.468 0.091 7.47 7.88 11.22
5/12/2021 2:45:00 AM 10.22 50.396 0.091 7.46 5.8 11.23
5/12/2021 3:00:00 AM 10.18 50.324 0.091 7.47 6.16 11.24
5/12/2021 3:15:00 AM 10.15 50.27 0.091 7.48 5.28 11.28
5/12/2021 3:30:00 AM 10.11 50.198 0.091 7.48 6.21 11.29
5/12/2021 3:45:00 AM 10.06 50.108 0.091 7.45 5.18 11.25
5/12/2021 4:00:00 AM 10.03 50.054 0.091 7.46 5.59 11.29
5/12/2021 4:15:00 AM 10.01 50.018 0.091 7.47 5.14 11.31
5/12/2021 4:30:00 AM 9.98 49.964 0.091 7.46 5.07 11.29
5/12/2021 4:45:00 AM 9.97 49.946 0.091 7.44 5.58 11.28
5/12/2021 5:00:00 AM 9.99 49.982 0.091 7.48 4.89 11.31
5/12/2021 5:15:00 AM 10 50 0.091 7.48 5.36 11.31
5/12/2021 5:30:00 AM 10.01 50.018 0.091 7.45 7.07 11.28
5/12/2021 5:45:00 AM 10.03 50.054 0.091 7.47 9.66 11.28
5/12/2021 6:00:00 AM 10.03 50.054 0.091 7.46 5.2 11.3
5/12/2021 6:15:00 AM 10.05 50.09 0.091 7.45 6.49 11.28
5/12/2021 6:30:00 AM 10.06 50.108 0.091 7.48 5.04 11.33
5/12/2021 6:45:00 AM 10.08 50.144 0.091 7.46 4.86 11.31
5/12/2021 7:00:00 AM 10.09 50.162 0.091 7.46 5.09 11.31
5/12/2021 7:15:00 AM 10.12 50.216 0.091 7.48 4.95 11.35
5/12/2021 7:30:00 AM 10.15 50.27 0.091 7.5 4.81 11.37
5/12/2021 7:45:00 AM 10.2 50.36 0.091 7.52 5.05 11.4
5/12/2021 8:00:00 AM 10.24 50.432 0.09 7.52 4.46 11.4
5/12/2021 8:15:00 AM 10.29 50.522 0.09 7.54 5.46 11.41
5/12/2021 8:30:00 AM 10.35 50.63 0.09 7.45 4.6 11.33
5/12/2021 8:45:00 AM 10.42 50.756 0.09 7.51 4.59 11.35
5/12/2021 9:00:00 AM 10.51 50.918 0.09 7.57 4.71 11.4
5/12/2021 9:15:00 AM 10.58 51.044 0.091 7.53 4.33 11.31
5/12/2021 9:30:00 AM 10.66 51.188 0.09 7.5 5.58 11.3
5/12/2021 9:45:00 AM 10.77 51.386 0.09 7.53 4.46 11.3
5/12/2021 10:00:00 AM 10.9 51.62 0.09 7.54 4.53 11.26
5/12/2021 10:15:00 AM 11.06 51.908 0.09 7.54 4.58 11.22
5/12/2021 10:30:00 AM 11.24 52.232 0.09 7.53 4.41 11.19
5/12/2021 10:45:00 AM 11.45 52.61 0.09 7.56 4.69 11.17
5/12/2021 11:00:00 AM 11.64 52.952 0.09 7.53 4.55 11.09
5/12/2021 11:15:00 AM 11.82 53.276 0.09 7.49 4.63 11
5/12/2021 11:30:00 AM 12.04 53.672 0.09 7.55 4.35 11.02
5/12/2021 11:45:00 AM 12.23 54.014 0.091 7.53 4.43 10.97
5/12/2021 12:00:00 PM 12.43 54.374 0.09 7.56 4.75 10.93
5/12/2021 12:15:00 PM 12.61 54.698 0.09 7.55 4.59 10.89
5/12/2021 12:30:00 PM 12.81 55.058 0.09 7.57 5.11 10.86
5/12/2021 12:45:00 PM 12.8 55.04 0.09 7.53 4.44 10.79
5/12/2021 1:00:00 PM 12.96 55.328 0.09 7.54 4.79 10.8
5/12/2021 1:15:00 PM 12.95 55.31 0.091 7.53 4.65 10.72
5/12/2021 1:30:00 PM 13.15 55.67 0.091 7.54 4.56 10.73
5/12/2021 1:45:00 PM 13.32 55.976 0.091 7.56 4.58 10.72
5/12/2021 2:00:00 PM 13.3 55.94 0.091 7.55 4.53 10.71
5/12/2021 2:15:00 PM 13.42 56.156 0.091 7.54 4.66 10.69
5/12/2021 2:30:00 PM 13.28 55.904 0.091 7.57 4.53 10.68
5/12/2021 2:45:00 PM 13.21 55.778 0.091 7.48 5.7 10.57
5/12/2021 3:00:00 PM 13.41 56.138 0.091 7.54 4.61 10.65
5/12/2021 3:15:00 PM 13.47 56.246 0.091 7.51 4.54 10.61
5/12/2021 3:30:00 PM 13.56 56.408 0.091 7.53 4.58 10.58
5/12/2021 3:45:00 PM 13.58 56.444 0.091 7.53 4.56 10.54
5/12/2021 4:00:00 PM 13.74 56.732 0.091 7.57 4.63 10.6
5/12/2021 4:15:00 PM 13.75 56.75 0.091 7.54 4.66 10.49
5/12/2021 4:30:00 PM 13.84 56.912 0.091 7.56 4.33 10.54
5/12/2021 4:45:00 PM 13.81 56.858 0.092 7.58 4.61 10.54
5/12/2021 5:00:00 PM 13.76 56.768 0.091 7.57 4.42 10.53
5/12/2021 5:15:00 PM 13.71 56.678 0.091 7.53 4.26 10.5
5/12/2021 5:30:00 PM 13.56 56.408 0.091 7.51 4.39 10.5
5/12/2021 5:45:00 PM 13.49 56.282 0.091 7.56 4.75 10.59
5/12/2021 6:00:00 PM 13.46 56.228 0.092 7.53 4.37 10.58
5/12/2021 6:15:00 PM 13.37 56.066 0.091 7.5 4.6 10.56
5/12/2021 6:30:00 PM 13.27 55.886 0.091 7.53 4.35 10.55
5/12/2021 6:45:00 PM 13.1 55.58 0.092 7.51 4.41 10.56
5/12/2021 7:00:00 PM 12.97 55.346 0.092 7.51 4.48 10.54
5/12/2021 7:15:00 PM 12.82 55.076 0.092 7.48 4.54 10.57
5/12/2021 7:30:00 PM 12.7 54.86 0.092 7.51 4.5 10.63
5/12/2021 7:45:00 PM 12.59 54.662 0.092 7.5 4.42 10.64
5/12/2021 8:00:00 PM 12.47 54.446 0.092 7.47 4.44 10.62
5/12/2021 8:15:00 PM 12.38 54.284 0.092 7.49 5.17 10.67
5/12/2021 8:30:00 PM 12.27 54.086 0.092 7.49 5.57 10.69
5/12/2021 8:45:00 PM 12.17 53.906 0.092 7.46 5.63 10.67
5/12/2021 9:00:00 PM 12.07 53.726 0.092 7.48 5.14 10.75
5/12/2021 9:15:00 PM 11.99 53.582 0.092 7.47 5.44 10.76
5/12/2021 9:30:00 PM 11.89 53.402 0.092 7.46 5.22 10.77
5/12/2021 9:45:00 PM 11.81 53.258 0.092 7.48 5.17 10.81
5/12/2021 10:00:00 PM 11.73 53.114 0.092 7.49 5.17 10.85
5/12/2021 10:15:00 PM 11.63 52.934 0.092 7.43 4.42 10.78
5/12/2021 10:30:00 PM 11.56 52.808 0.093 7.45 5.04 10.82
5/12/2021 10:45:00 PM 11.49 52.682 0.092 7.49 5.17 10.93
5/12/2021 11:00:00 PM 11.41 52.538 0.093 7.46 4.74 10.89
5/12/2021 11:15:00 PM 11.31 52.358 0.092 7.46 4.73 10.93
5/12/2021 11:30:00 PM 11.24 52.232 0.092 7.48 4.54 10.98
5/12/2021 11:45:00 PM 11.17 52.106 0.092 7.46 4.61 10.96
5/13/2021 12:00:00 AM 11.1 51.98 0.092 7.45 4.69 10.97
5/13/2021 12:15:00 AM 11.02 51.836 0.092 7.47 4.53 11
5/13/2021 12:30:00 AM 10.96 51.728 0.092 7.48 4.58 11.04
5/13/2021 12:45:00 AM 10.88 51.584 0.092 7.5 4.46 11.11
5/13/2021 1:00:00 AM 10.81 51.458 0.092 7.45 4.61 11.04
5/13/2021 1:15:00 AM 10.73 51.314 0.093 7.49 4.73 11.14
5/13/2021 1:30:00 AM 10.66 51.188 0.092 7.46 4.32 11.12
5/13/2021 1:45:00 AM 10.58 51.044 0.092 7.46 4.58 11.12
5/13/2021 2:00:00 AM 10.52 50.936 0.092 7.47 4.4 11.15
5/13/2021 2:15:00 AM 10.46 50.828 0.092 7.5 4.41 11.22
5/13/2021 2:30:00 AM 10.39 50.702 0.092 7.48 4.72 11.19
5/13/2021 2:45:00 AM 10.34 50.612 0.092 7.47 4.32 11.2
5/13/2021 3:00:00 AM 10.27 50.486 0.092 7.46 4.62 11.22
5/13/2021 3:15:00 AM 10.22 50.396 0.092 7.48 4.78 11.26
5/13/2021 3:30:00 AM 10.16 50.288 0.092 7.45 4.58 11.24
5/13/2021 3:45:00 AM 10.12 50.216 0.092 7.47 4.32 11.29
5/13/2021 4:00:00 AM 10.06 50.108 0.092 7.46 4.55 11.26
5/13/2021 4:15:00 AM 10.01 50.018 0.092 7.46 4.32 11.28
5/13/2021 4:30:00 AM 9.97 49.946 0.092 7.48 4.3 11.35
5/13/2021 4:45:00 AM 9.92 49.856 0.092 7.45 5.16 11.28
5/13/2021 5:00:00 AM 9.88 49.784 0.092 7.49 4.16 11.35
5/13/2021 5:15:00 AM 9.83 49.694 0.092 7.48 4.66 11.36
5/13/2021 5:30:00 AM 9.79 49.622 0.093 7.49 4.32 11.39
5/13/2021 5:45:00 AM 9.75 49.55 0.092 7.45 4.71 11.32
5/13/2021 6:00:00 AM 9.71 49.478 0.092 7.45 4.53 11.35
5/13/2021 6:15:00 AM 9.68 49.424 0.092 7.47 4.56 11.36
5/13/2021 6:30:00 AM 9.65 49.37 0.092 7.46 4.26 11.4
5/13/2021 6:45:00 AM 9.63 49.334 0.092 7.47 4.58 11.39
5/13/2021 7:00:00 AM 9.62 49.316 0.093 7.48 4.67 11.47
5/13/2021 7:15:00 AM 9.62 49.316 0.093 7.51 4.48 11.51
5/13/2021 7:30:00 AM 9.64 49.352 0.092 7.47 4.23 11.44
5/13/2021 7:45:00 AM 9.67 49.406 0.092 7.49 4.57 11.5
5/13/2021 8:00:00 AM 9.72 49.496 0.092 7.49 4.11 11.51
5/13/2021 8:15:00 AM 9.79 49.622 0.092 7.5 4.27 11.51
5/13/2021 8:30:00 AM 9.88 49.784 0.092 7.49 4.05 11.49
5/13/2021 8:45:00 AM 10 50 0.092 7.54 4.1 11.51
5/13/2021 9:00:00 AM 10.11 50.198 0.092 7.54 4.07 11.49
5/13/2021 9:15:00 AM 10.23 50.414 0.092 7.51 4.15 11.4
5/13/2021 9:30:00 AM 10.39 50.702 0.092 7.55 4.12 11.44
5/13/2021 9:45:00 AM 10.55 50.99 0.092 7.52 4.28 11.31
5/13/2021 10:00:00 AM 10.74 51.332 0.092 7.49 3.8 11.29
5/13/2021 10:15:00 AM 10.97 51.746 0.092 7.54 3.92 11.25
5/13/2021 10:30:00 AM 11.22 52.196 0.092 7.57 3.97 11.24
5/13/2021 10:45:00 AM 11.46 52.628 0.092 7.56 4.3 11.2
5/13/2021 11:00:00 AM 11.74 53.132 0.092 7.57 4.47 11.13
5/13/2021 11:15:00 AM 12 53.6 0.095 7.59 5.96 11.09
5/13/2021 11:30:00 AM 12.26 54.068 0.092 7.6 3.9 11.03
5/13/2021 11:45:00 AM 12.54 54.572 0.092 7.63 3.99 10.99
5/13/2021 12:00:00 PM 12.75 54.95 0.092 7.59 4.38 10.89
5/13/2021 12:15:00 PM 12.68 54.824 0.092 7.58 4.19 10.83
5/13/2021 12:30:00 PM 12.94 55.292 0.092 7.6 3.93 10.85
5/13/2021 12:45:00 PM 12.89 55.202 0.092 7.62 4.09 10.83
5/13/2021 1:00:00 PM 13.32 55.976 0.092 7.61 4.01 10.76
5/13/2021 1:15:00 PM 13.23 55.814 0.092 7.61 4.02 10.77
5/13/2021 1:30:00 PM 13.17 55.706 0.092 7.59 4.14 10.72
5/13/2021 1:45:00 PM 13.3 55.94 0.093 7.61 4.09 10.77
5/13/2021 2:00:00 PM 13.3 55.94 0.092 7.62 4.11 10.77
5/13/2021 2:15:00 PM 13.31 55.958 0.092 7.61 4.08 10.73
5/13/2021 2:30:00 PM 13.3 55.94 0.092 7.6 3.89 10.72
5/13/2021 2:45:00 PM 13.44 56.192 0.092 7.65 4.24 10.77
5/13/2021 3:00:00 PM 13.5 56.3 0.092 7.62 4.4 10.73
5/13/2021 3:15:00 PM 13.65 56.57 0.092 7.62 4.58 10.68
5/13/2021 3:30:00 PM 13.74 56.732 0.092 7.59 4.18 10.56
5/13/2021 3:45:00 PM 13.86 56.948 0.093 7.54 5.15 10.59
5/13/2021 4:00:00 PM 13.87 56.966 0.092 7.57 4.25 10.52
5/13/2021 4:15:00 PM 13.87 56.966 0.092 7.59 3.88 10.53
5/13/2021 4:30:00 PM 13.96 57.128 0.092 7.61 4.47 10.55
5/13/2021 4:45:00 PM 13.92 57.056 0.099 7.57 4.56 10.53
5/13/2021 5:00:00 PM 13.91 57.038 0.092 7.58 4.08 10.55
5/13/2021 5:15:00 PM 13.91 57.038 0.093 7.59 4 10.52
5/13/2021 5:30:00 PM 13.99 57.182 0.099 7.62 4.15 10.55
5/13/2021 5:45:00 PM 14.03 57.254 0.099 7.59 3.95 10.48
5/13/2021 6:00:00 PM 13.98 57.164 0.093 7.56 3.9 10.45
5/13/2021 6:15:00 PM 13.9 57.02 0.099 7.57 4.24 10.43
5/13/2021 6:30:00 PM 13.78 56.804 0.099 7.55 4.91 10.43
5/13/2021 6:45:00 PM 13.69 56.642 0.099 7.55 4.59 10.43
5/13/2021 7:00:00 PM 13.56 56.408 0.094 7.53 4.18 10.42
5/13/2021 7:15:00 PM 13.45 56.21 0.093 7.52 3.99 10.45
5/13/2021 7:30:00 PM 13.38 56.084 0.094 7.55 4.14 10.48
5/13/2021 7:45:00 PM 13.28 55.904 0.093 7.54 3.99 10.48
5/13/2021 8:00:00 PM 13.14 55.652 0.1 7.49 4.29 10.44
5/13/2021 8:15:00 PM 13.03 55.454 0.093 7.5 4.16 10.47
5/13/2021 8:30:00 PM 12.91 55.238 0.094 7.49 3.98 10.49
5/13/2021 8:45:00 PM 12.8 55.04 0.094 7.5 5.31 10.51
5/13/2021 9:00:00 PM 12.69 54.842 0.094 7.47 4.54 10.51
5/13/2021 9:15:00 PM 12.59 54.662 0.094 7.48 4.12 10.55
5/13/2021 9:30:00 PM 12.49 54.482 0.094 7.46 4.14 10.55
5/13/2021 9:45:00 PM 12.41 54.338 0.094 7.48 4.01 10.6
5/13/2021 10:00:00 PM 12.33 54.194 0.094 7.48 4.1 10.64
5/13/2021 10:15:00 PM 12.24 54.032 0.094 7.46 4.27 10.61
5/13/2021 10:30:00 PM 12.15 53.87 0.094 7.45 4.2 10.63
5/13/2021 10:45:00 PM 12.09 53.762 0.095 7.47 3.97 10.69
5/13/2021 11:00:00 PM 12 53.6 0.095 7.47 3.96 10.71
5/13/2021 11:15:00 PM 11.92 53.456 0.094 7.47 4.51 10.71
5/13/2021 11:30:00 PM 11.85 53.33 0.094 7.44 4.18 10.73
5/13/2021 11:45:00 PM 11.77 53.186 0.094 7.43 4.2 10.69
5/14/2021 12:00:00 AM 11.69 53.042 0.094 7.47 4.77 10.78
5/14/2021 12:15:00 AM 11.62 52.916 0.094 7.44 4.28 10.76
5/14/2021 12:30:00 AM 11.55 52.79 0.094 7.45 4.07 10.81
5/14/2021 12:45:00 AM 11.49 52.682 0.094 7.47 3.94 10.85
5/14/2021 1:00:00 AM 11.4 52.52 0.094 7.45 4.07 10.85
5/14/2021 1:15:00 AM 11.34 52.412 0.094 7.45 8.2 10.86
5/14/2021 1:30:00 AM 11.27 52.286 0.094 7.45 3.9 10.86
5/14/2021 1:45:00 AM 11.2 52.16 0.094 7.47 4 10.91
5/14/2021 2:00:00 AM 11.13 52.034 0.094 7.45 4.2 10.9
5/14/2021 2:15:00 AM 11.06 51.908 0.094 7.45 4.03 10.92
5/14/2021 2:30:00 AM 11 51.8 0.094 7.47 4.44 10.99
5/14/2021 2:45:00 AM 10.93 51.674 0.094 7.45 4.03 10.97
5/14/2021 3:00:00 AM 10.87 51.566 0.094 7.48 4 11.04
5/14/2021 3:15:00 AM 10.81 51.458 0.094 7.46 4.23 11.04
5/14/2021 3:30:00 AM 10.75 51.35 0.094 7.46 4.06 11.03
5/14/2021 3:45:00 AM 10.69 51.242 0.094 7.46 3.94 11
5/14/2021 4:00:00 AM 10.63 51.134 0.094 7.45 4.02 11.07
5/14/2021 4:15:00 AM 10.58 51.044 0.094 7.48 3.88 11.12
5/14/2021 4:30:00 AM 10.51 50.918 0.094 7.46 4.13 11.07
5/14/2021 4:45:00 AM 10.46 50.828 0.094 7.47 4.18 11.12
5/14/2021 5:00:00 AM 10.41 50.738 0.094 7.46 3.91 11.12
5/14/2021 5:15:00 AM 10.36 50.648 0.094 7.46 3.93 11.14
5/14/2021 5:30:00 AM 10.31 50.558 0.094 7.45 4.12 11.15
5/14/2021 5:45:00 AM 10.25 50.45 0.094 7.46 3.97 11.2
5/14/2021 6:00:00 AM 10.22 50.396 0.094 7.47 4.41 11.21
5/14/2021 6:15:00 AM 10.19 50.342 0.094 7.49 5.78 11.24
5/14/2021 6:30:00 AM 10.14 50.252 0.094 7.46 3.82 11.25
5/14/2021 6:45:00 AM 10.12 50.216 0.094 7.46 3.92 11.25
5/14/2021 7:00:00 AM 10.11 50.198 0.094 7.48 4.32 11.26
5/14/2021 7:15:00 AM 10.12 50.216 0.094 7.48 4.1 11.31
5/14/2021 7:30:00 AM 10.11 50.198 0.094 7.44 4.05 11.28
5/14/2021 7:45:00 AM 10.15 50.27 0.094 7.52 3.76 11.4
5/14/2021 8:00:00 AM 10.18 50.324 0.094 7.49 3.87 11.33
5/14/2021 8:15:00 AM 10.24 50.432 0.094 7.49 4.53 11.34
5/14/2021 8:30:00 AM 10.31 50.558 0.094 7.5 3.74 11.33
5/14/2021 8:45:00 AM 10.42 50.756 0.094 7.52 4.14 11.35
5/14/2021 9:00:00 AM 10.54 50.972 0.094 7.54 3.96 11.36
5/14/2021 9:15:00 AM 10.66 51.188 0.094 7.52 3.77 11.3
5/14/2021 9:30:00 AM 10.81 51.458 0.094 7.53 3.54 11.29
5/14/2021 9:45:00 AM 10.98 51.764 0.093 7.54 4.26 11.23
5/14/2021 10:00:00 AM 11.19 52.142 0.093 7.56 3.98 11.2
5/14/2021 10:15:00 AM 11.42 52.556 0.094 7.57 3.97 11.18
5/14/2021 10:30:00 AM 11.63 52.934 0.093 7.56 4.91 11.1
5/14/2021 10:45:00 AM 11.87 53.366 0.093 7.55 3.87 11.04
5/14/2021 11:00:00 AM 12.19 53.942 0.093 7.61 3.5 11.04
5/14/2021 11:15:00 AM 12.43 54.374 0.093 7.57 3.49 10.92
5/14/2021 11:30:00 AM 12.73 54.914 0.094 7.6 3.91 10.91
5/14/2021 11:45:00 AM 13.01 55.418 0.093 7.6 3.74 10.84
5/14/2021 12:00:00 PM 13.26 55.868 0.093 7.61 3.65 10.8
5/14/2021 12:15:00 PM 13.54 56.372 0.093 7.62 3.75 10.74
5/14/2021 12:30:00 PM 13.83 56.894 0.099 7.65 3.9 10.69
5/14/2021 12:45:00 PM 14.04 57.272 0.099 7.62 3.85 10.64
5/14/2021 1:00:00 PM 14.32 57.776 0.099 7.63 3.76 10.6
5/14/2021 1:15:00 PM 14.42 57.956 0.1 7.59 3.58 10.47
5/14/2021 1:30:00 PM 14.29 57.722 0.099 7.62 3.62 10.47
5/14/2021 1:45:00 PM 14.3 57.74 0.099 7.63 3.67 10.5
5/14/2021 2:00:00 PM 14.36 57.848 0.099 7.6 3.68 10.43
5/14/2021 2:15:00 PM 14.45 58.01 0.099 7.6 3.66 10.43
5/14/2021 2:30:00 PM 14.77 58.586 0.099 7.62 3.86 10.44
5/14/2021 2:45:00 PM 14.75 58.55 0.1 7.63 3.97 10.39
5/14/2021 3:00:00 PM 14.77 58.586 0.1 7.62 4.13 10.35
5/14/2021 3:15:00 PM 14.69 58.442 0.1 7.6 4.43 10.31
5/14/2021 3:30:00 PM 14.69 58.442 0.1 7.59 3.82 10.3
5/14/2021 3:45:00 PM 14.68 58.424 0.1 7.6 3.52 10.36
5/14/2021 4:00:00 PM 14.69 58.442 0.1 7.6 3.81 10.38
5/14/2021 4:15:00 PM 14.74 58.532 0.1 7.64 4.37 10.34
5/14/2021 4:30:00 PM 14.69 58.442 0.1 7.6 4.31 10.32
5/14/2021 4:45:00 PM 14.7 58.46 0.1 7.62 3.95 10.34
5/14/2021 5:00:00 PM 14.8 58.64 0.1 7.62 4.42 10.34
5/14/2021 5:15:00 PM 14.74 58.532 0.1 7.58 3.79 10.34
5/14/2021 5:30:00 PM 14.74 58.532 0.1 7.59 3.6 10.31
5/14/2021 5:45:00 PM 14.64 58.352 0.1 7.56 4.37 10.19
5/14/2021 6:00:00 PM 14.62 58.316 0.101 7.57 4.04 10.22
5/14/2021 6:15:00 PM 14.6 58.28 0.101 7.56 3.86 10.24
5/14/2021 6:30:00 PM 14.5 58.1 0.101 7.54 4.24 10.21
5/14/2021 6:45:00 PM 14.34 57.812 0.101 7.53 3.84 10.21
5/14/2021 7:00:00 PM 14.23 57.614 0.101 7.54 3.81 10.24
5/14/2021 7:15:00 PM 14.11 57.398 0.101 7.5 3.7 10.22
5/14/2021 7:30:00 PM 14.09 57.362 0.101 7.55 4.23 10.29
5/14/2021 7:45:00 PM 13.97 57.146 0.101 7.53 4.24 10.29
5/14/2021 8:00:00 PM 13.81 56.858 0.101 7.49 3.82 10.25
5/14/2021 8:15:00 PM 13.73 56.714 0.101 7.51 4.27 10.28
5/14/2021 8:30:00 PM 13.63 56.534 0.102 7.51 3.94 10.28
5/14/2021 8:45:00 PM 13.51 56.318 0.102 7.51 4.44 10.32
5/14/2021 9:00:00 PM 13.38 56.084 0.102 7.47 4.6 10.32
5/14/2021 9:15:00 PM 13.3 55.94 0.102 7.48 4.5 10.34
5/14/2021 9:30:00 PM 13.2 55.76 0.102 7.49 4.09 10.38
5/14/2021 9:45:00 PM 13.1 55.58 0.102 7.49 4.01 10.41
5/14/2021 10:00:00 PM 12.99 55.382 0.102 7.46 3.83 10.39
5/14/2021 10:15:00 PM 12.93 55.274 0.102 7.5 5.05 10.44
5/14/2021 10:30:00 PM 12.81 55.058 0.102 7.48 4.01 10.47
5/14/2021 10:45:00 PM 12.74 54.932 0.102 7.5 4.08 10.53
5/14/2021 11:00:00 PM 12.64 54.752 0.102 7.49 4.25 10.53
5/14/2021 11:15:00 PM 12.53 54.554 0.096 7.47 3.92 10.49
5/14/2021 11:30:00 PM 12.46 54.428 0.096 7.49 4.58 10.56
5/14/2021 11:45:00 PM 12.37 54.266 0.096 7.47 4.13 10.56
5/15/2021 12:00:00 AM 12.29 54.122 0.096 7.49 4.18 10.62
5/15/2021 12:15:00 AM 12.21 53.978 0.096 7.49 5.9 10.65
5/15/2021 12:30:00 AM 12.12 53.816 0.096 7.49 4.02 10.7
5/15/2021 12:45:00 AM 12 53.6 0.096 7.46 4.19 10.65
5/15/2021 1:00:00 AM 11.94 53.492 0.095 7.48 4.39 10.71
5/15/2021 1:15:00 AM 11.86 53.348 0.096 7.47 4.77 10.69
5/15/2021 1:30:00 AM 11.79 53.222 0.096 7.49 4.02 10.75
5/15/2021 1:45:00 AM 11.72 53.096 0.096 7.49 3.96 10.79
5/15/2021 2:00:00 AM 11.65 52.97 0.096 7.49 4.12 10.82
5/15/2021 2:15:00 AM 11.57 52.826 0.096 7.48 4.05 10.82
5/15/2021 2:30:00 AM 11.51 52.718 0.096 7.47 3.81 10.83
5/15/2021 2:45:00 AM 11.44 52.592 0.096 7.47 5.14 10.84
5/15/2021 3:00:00 AM 11.37 52.466 0.096 7.46 6.29 10.85
5/15/2021 3:15:00 AM 11.31 52.358 0.096 7.48 4.23 10.82
5/15/2021 3:30:00 AM 11.24 52.232 0.096 7.46 4 10.85
5/15/2021 3:45:00 AM 11.19 52.142 0.096 7.46 4.06 10.91
5/15/2021 4:00:00 AM 11.13 52.034 0.096 7.47 4.09 10.94
5/15/2021 4:15:00 AM 11.08 51.944 0.095 7.47 4.31 10.93
5/15/2021 4:30:00 AM 11.01 51.818 0.096 7.47 4.31 10.94
5/15/2021 4:45:00 AM 10.96 51.728 0.096 7.48 5.06 10.99
5/15/2021 5:00:00 AM 10.91 51.638 0.096 7.48 4.6 10.98
5/15/2021 5:15:00 AM 10.86 51.548 0.096 7.47 4.44 11.01
5/15/2021 5:30:00 AM 10.8 51.44 0.095 7.46 3.98 11.01
5/15/2021 5:45:00 AM 10.75 51.35 0.096 7.47 3.9 11.03
5/15/2021 6:00:00 AM 10.69 51.242 0.096 7.47 4.03 11.06
5/15/2021 6:15:00 AM 10.66 51.188 0.096 7.47 4 11.09
5/15/2021 6:30:00 AM 10.62 51.116 0.096 7.49 6.09 11.12
5/15/2021 6:45:00 AM 10.59 51.062 0.096 7.49 4.34 11.15
5/15/2021 7:00:00 AM 10.59 51.062 0.095 7.51 3.81 11.19
5/15/2021 7:15:00 AM 10.58 51.044 0.096 7.51 3.85 11.19
5/15/2021 7:30:00 AM 10.6 51.08 0.095 7.52 4.04 11.22
5/15/2021 7:45:00 AM 10.61 51.098 0.095 7.51 3.96 11.23
5/15/2021 8:00:00 AM 10.67 51.206 0.095 7.53 3.73 11.27
5/15/2021 8:15:00 AM 10.71 51.278 0.095 7.52 4.09 11.26
5/15/2021 8:30:00 AM 10.79 51.422 0.095 7.54 3.72 11.28
5/15/2021 8:45:00 AM 10.89 51.602 0.096 7.54 3.43 11.27
5/15/2021 9:00:00 AM 11.01 51.818 0.095 7.55 3.51 11.23
5/15/2021 9:15:00 AM 11.15 52.07 0.095 7.57 3.68 11.23
5/15/2021 9:30:00 AM 11.29 52.322 0.096 7.56 4.08 11.18
5/15/2021 9:45:00 AM 11.45 52.61 0.095 7.56 4.25 11.15
5/15/2021 10:00:00 AM 11.64 52.952 0.095 7.58 3.63 11.12
5/15/2021 10:15:00 AM 11.86 53.348 0.095 7.59 3.35 11.08
5/15/2021 10:30:00 AM 12.1 53.78 0.095 7.6 3.61 11.04
5/15/2021 10:45:00 AM 12.34 54.212 0.095 7.59 3.38 10.97
5/15/2021 11:00:00 AM 12.62 54.716 0.095 7.63 3.91 10.95
5/15/2021 11:15:00 AM 12.88 55.184 0.095 7.63 3.32 10.88
5/15/2021 11:30:00 AM 13.13 55.634 0.101 7.61 4.66 10.82
5/15/2021 11:45:00 AM 13.39 56.102 0.101 7.62 3.85 10.78
5/15/2021 12:00:00 PM 13.68 56.624 0.101 7.64 4.07 10.73
5/15/2021 12:15:00 PM 13.71 56.678 0.101 7.65 4.08 10.67
5/15/2021 12:30:00 PM 13.68 56.624 0.101 7.61 3.64 10.61
5/15/2021 12:45:00 PM 13.71 56.678 0.101 7.63 5.16 10.6
5/15/2021 1:00:00 PM 13.72 56.696 0.101 7.64 4.51 10.61
5/15/2021 1:15:00 PM 13.69 56.642 0.101 7.62 4.37 10.58
5/15/2021 1:30:00 PM 13.68 56.624 0.101 7.6 4.4 10.56
5/15/2021 1:45:00 PM 13.62 56.516 0.101 7.57 3.8 10.54
5/15/2021 2:00:00 PM 13.65 56.57 0.101 7.61 4.01 10.58
5/15/2021 2:15:00 PM 13.65 56.57 0.101 7.63 5.26 10.61
5/15/2021 2:30:00 PM 13.66 56.588 0.101 7.63 4.5 10.62
5/15/2021 2:45:00 PM 13.75 56.75 0.101 7.61 3.75 10.65
5/15/2021 3:00:00 PM 13.82 56.876 0.101 7.66 4.16 10.67
5/15/2021 3:15:00 PM 13.88 56.984 0.101 7.65 4 10.67
5/15/2021 3:30:00 PM 13.94 57.092 0.101 7.67 3.66 10.66
5/15/2021 3:45:00 PM 14.03 57.254 0.101 7.64 3.74 10.63
5/15/2021 4:00:00 PM 14.1 57.38 0.101 7.69 4.81 10.62
5/15/2021 4:15:00 PM 14.21 57.578 0.101 7.67 3.93 10.57
5/15/2021 4:30:00 PM 14.2 57.56 0.101 7.66 4.09 10.52
5/15/2021 4:45:00 PM 14.25 57.65 0.101 7.65 4.24 10.48
5/15/2021 5:00:00 PM 14.32 57.776 0.101 7.67 7.45 10.51
5/15/2021 5:15:00 PM 14.35 57.83 0.101 7.63 3.8 10.48
5/15/2021 5:30:00 PM 14.36 57.848 0.102 7.65 3.54 10.49
5/15/2021 5:45:00 PM 14.35 57.83 0.102 7.63 13.8 10.45
5/15/2021 6:00:00 PM 14.37 57.866 0.102 7.62 4.74 10.41
5/15/2021 6:15:00 PM 14.4 57.92 0.102 7.61 4.1 10.37
5/15/2021 6:30:00 PM 14.43 57.974 0.102 7.6 3.53 10.34
5/15/2021 6:45:00 PM 14.43 57.974 0.102 7.57 3.51 10.31
5/15/2021 7:00:00 PM 14.37 57.866 0.102 7.57 4.26 10.32
5/15/2021 7:15:00 PM 14.27 57.686 0.102 7.55 3.86 10.27
5/15/2021 7:30:00 PM 14.18 57.524 0.102 7.55 4.78 10.25
5/15/2021 7:45:00 PM 14.12 57.416 0.103 7.54 3.62 10.26
5/15/2021 8:00:00 PM 14.05 57.29 0.102 7.53 3.63 10.26
5/15/2021 8:15:00 PM 13.99 57.182 0.103 7.53 6.05 10.27
5/15/2021 8:30:00 PM 13.92 57.056 0.103 7.52 4.1 10.24
5/15/2021 8:45:00 PM 13.82 56.876 0.103 7.5 4 10.24
5/15/2021 9:00:00 PM 13.73 56.714 0.103 7.5 3.53 10.27
5/15/2021 9:15:00 PM 13.64 56.552 0.103 7.48 4.77 10.27
5/15/2021 9:30:00 PM 13.54 56.372 0.103 7.48 4.55 10.29
5/15/2021 9:45:00 PM 13.44 56.192 0.103 7.48 6.43 10.31
5/15/2021 10:00:00 PM 13.37 56.066 0.104 7.49 7.3 10.36
5/15/2021 10:15:00 PM 13.28 55.904 0.103 7.5 3.69 10.38
5/15/2021 10:30:00 PM 13.17 55.706 0.104 7.45 4.77 10.36
5/15/2021 10:45:00 PM 13.13 55.634 0.104 7.5 3.81 10.43
5/15/2021 11:00:00 PM 13.06 55.508 0.104 7.49 3.82 10.41
5/15/2021 11:15:00 PM 13 55.4 0.104 7.48 4.03 10.42
5/15/2021 11:30:00 PM 12.95 55.31 0.104 7.49 3.67 10.45
5/15/2021 11:45:00 PM 12.91 55.238 0.104 7.49 4.16 10.47
5/16/2021 12:00:00 AM 12.86 55.148 0.104 7.49 3.43 10.48
5/16/2021 12:15:00 AM 12.83 55.094 0.104 7.5 3.56 10.5
5/16/2021 12:30:00 AM 12.77 54.986 0.104 7.48 3.58 10.49
5/16/2021 12:45:00 AM 12.73 54.914 0.104 7.48 3.36 10.5
5/16/2021 1:00:00 AM 12.7 54.86 0.104 7.48 3.58 10.51
5/16/2021 1:15:00 AM 12.68 54.824 0.104 7.48 3.52 10.52
5/16/2021 1:30:00 AM 12.61 54.698 0.104 7.46 3.54 10.52
5/16/2021 1:45:00 AM 12.6 54.68 0.104 7.47 3.23 10.53
5/16/2021 2:00:00 AM 12.59 54.662 0.104 7.5 3.61 10.56
5/16/2021 2:15:00 AM 12.56 54.608 0.104 7.5 3.39 10.57
5/16/2021 2:30:00 AM 12.51 54.518 0.104 7.49 3.18 10.56
5/16/2021 2:45:00 AM 12.48 54.464 0.104 7.48 4.48 10.58
5/16/2021 3:00:00 AM 12.44 54.392 0.104 7.49 4.57 10.57
5/16/2021 3:15:00 AM 12.4 54.32 0.104 7.49 4.85 10.58
5/16/2021 3:30:00 AM 12.35 54.23 0.104 7.48 3.7 10.6
5/16/2021 3:45:00 AM 12.31 54.158 0.098 7.48 3.59 10.59
5/16/2021 4:00:00 AM 12.29 54.122 0.104 7.48 3.65 10.62
5/16/2021 4:15:00 AM 12.25 54.05 0.104 7.49 3.61 10.63
5/16/2021 4:30:00 AM 12.17 53.906 0.104 7.46 3.54 10.63
5/16/2021 4:45:00 AM 12.14 53.852 0.104 7.48 3.32 10.65
5/16/2021 5:00:00 AM 12.08 53.744 0.104 7.47 3.74 10.67
5/16/2021 5:15:00 AM 12.02 53.636 0.098 7.46 4.35 10.64
5/16/2021 5:30:00 AM 12 53.6 0.104 7.5 3.63 10.72
5/16/2021 5:45:00 AM 11.94 53.492 0.104 7.49 4.04 10.69
5/16/2021 6:00:00 AM 11.87 53.366 0.104 7.47 3.47 10.63
5/16/2021 6:15:00 AM 11.83 53.294 0.104 7.49 3.97 10.78
5/16/2021 6:30:00 AM 11.79 53.222 0.104 7.51 3.9 10.8
5/16/2021 6:45:00 AM 11.74 53.132 0.098 7.5 3.48 10.82
5/16/2021 7:00:00 AM 11.73 53.114 0.098 7.53 4.27 10.88
5/16/2021 7:15:00 AM 11.72 53.096 0.097 7.52 3.63 10.88
5/16/2021 7:30:00 AM 11.76 53.168 0.097 7.54 3.59 10.92
5/16/2021 7:45:00 AM 11.79 53.222 0.104 7.52 3.29 10.94
5/16/2021 8:00:00 AM 11.84 53.312 0.104 7.56 3.7 11.02
5/16/2021 8:15:00 AM 11.91 53.438 0.104 7.58 3.19 11.02
5/16/2021 8:30:00 AM 11.95 53.51 0.097 7.56 3.16 11
5/16/2021 8:45:00 AM 12.05 53.69 0.097 7.58 3.02 11.03
5/16/2021 9:00:00 AM 12.17 53.906 0.097 7.59 3.05 11.03
5/16/2021 9:15:00 AM 12.24 54.032 0.103 7.54 3.17 10.98
5/16/2021 9:30:00 AM 12.38 54.284 0.103 7.63 3.18 11.01
5/16/2021 9:45:00 AM 12.5 54.5 0.103 7.63 3.28 11
5/16/2021 10:00:00 AM 12.59 54.662 0.103 7.6 3.2 10.95
5/16/2021 10:15:00 AM 12.72 54.896 0.097 7.63 3.11 10.96
5/16/2021 10:30:00 AM 12.82 55.076 0.103 7.64 3.25 10.92
5/16/2021 10:45:00 AM 12.88 55.184 0.103 7.61 3.31 10.87
5/16/2021 11:00:00 AM 12.93 55.274 0.103 7.63 3.22 10.86
5/16/2021 11:15:00 AM 13.01 55.418 0.103 7.6 3.58 10.83
5/16/2021 11:30:00 AM 13.2 55.76 0.103 7.66 3.19 10.87
5/16/2021 11:45:00 AM 13.35 56.03 0.103 7.65 3.18 10.84
5/16/2021 12:00:00 PM 13.5 56.3 0.103 7.73 3.38 10.87
5/16/2021 12:15:00 PM 13.62 56.516 0.103 7.7 3.39 10.81
5/16/2021 12:30:00 PM 13.75 56.75 0.103 7.69 3.19 10.76
5/16/2021 12:45:00 PM 13.8 56.84 0.103 7.65 3.64 10.72
5/16/2021 1:00:00 PM 13.99 57.182 0.103 7.74 3.48 10.74
5/16/2021 1:15:00 PM 14.21 57.578 0.103 7.69 3.25 10.67
5/16/2021 1:30:00 PM 14.46 58.028 0.102 7.75 3.54 10.65
5/16/2021 1:45:00 PM 14.53 58.154 0.102 7.71 3.07 10.6
5/16/2021 2:00:00 PM 14.67 58.406 0.102 7.71 3.91 10.56
5/16/2021 2:15:00 PM 14.78 58.604 0.102 7.71 4.62 10.53
5/16/2021 2:30:00 PM 14.88 58.784 0.102 7.68 3.62 10.47
5/16/2021 2:45:00 PM 14.97 58.946 0.102 7.68 3.14 10.44
5/16/2021 3:00:00 PM 15.02 59.036 0.102 7.73 3.51 10.42
5/16/2021 3:15:00 PM 14.94 58.892 0.102 7.69 5.72 10.31
5/16/2021 3:30:00 PM 14.86 58.748 0.103 7.62 5.03 10.25
5/16/2021 3:45:00 PM 14.79 58.622 0.103 7.6 4.8 10.18
5/16/2021 4:00:00 PM 14.7 58.46 0.103 7.6 3.52 10.22
5/16/2021 4:15:00 PM 14.58 58.244 0.103 7.56 3.91 10.25
5/16/2021 4:30:00 PM 14.54 58.172 0.103 7.59 5.06 10.33
5/16/2021 4:45:00 PM 14.5 58.1 0.103 7.63 4.88 10.4
5/16/2021 5:00:00 PM 14.4 57.92 0.103 7.62 3.39 10.38
5/16/2021 5:15:00 PM 14.3 57.74 0.103 7.58 3.16 10.35
5/16/2021 5:30:00 PM 14.28 57.704 0.103 7.61 3.75 10.36
5/16/2021 5:45:00 PM 14.19 57.542 0.103 7.57 4.12 10.29
5/16/2021 6:00:00 PM 14.15 57.47 0.103 7.57 3.68 10.3
5/16/2021 6:15:00 PM 14.08 57.344 0.103 7.55 4.87 10.29
5/16/2021 6:30:00 PM 14 57.2 0.104 7.52 3.99 10.26
5/16/2021 6:45:00 PM 13.92 57.056 0.104 7.51 3.57 10.25
5/16/2021 7:00:00 PM 13.9 57.02 0.104 7.54 3.55 10.28
5/16/2021 7:15:00 PM 13.81 56.858 0.104 7.51 3.6 10.27
5/16/2021 7:30:00 PM 13.81 56.858 0.104 7.54 3.82 10.29
5/16/2021 7:45:00 PM 13.75 56.75 0.104 7.52 3.83 10.28
5/16/2021 8:00:00 PM 13.71 56.678 0.104 7.51 4.18 10.25
5/16/2021 8:15:00 PM 13.65 56.57 0.104 7.5 3.39 10.25
5/16/2021 8:30:00 PM 13.6 56.48 0.104 7.5 4.45 10.26
5/16/2021 8:45:00 PM 13.58 56.444 0.105 7.51 3.99 10.3
5/16/2021 9:00:00 PM 13.47 56.246 0.105 7.46 4.51 10.25
5/16/2021 9:15:00 PM 13.46 56.228 0.105 7.49 3.38 10.29
5/16/2021 9:30:00 PM 13.4 56.12 0.105 7.49 3.02 10.26
5/16/2021 9:45:00 PM 13.36 56.048 0.105 7.47 6.26 10.32
5/16/2021 10:00:00 PM 13.28 55.904 0.105 7.48 4.87 10.32
5/16/2021 10:15:00 PM 13.25 55.85 0.105 7.52 4.58 10.39
5/16/2021 10:30:00 PM 13.15 55.67 0.105 7.48 4.19 10.33
5/16/2021 10:45:00 PM 13.11 55.598 0.105 7.5 3.93 10.38
5/16/2021 11:00:00 PM 13.05 55.49 0.105 7.5 4.28 10.41
5/16/2021 11:15:00 PM 12.93 55.274 0.105 7.45 3.89 10.38
5/16/2021 11:30:00 PM 12.87 55.166 0.105 7.48 3.8 10.42
5/16/2021 11:45:00 PM 12.8 55.04 0.105 7.48 3.33 10.46
5/17/2021 12:00:00 AM 12.72 54.896 0.105 7.47 3.46 10.45
5/17/2021 12:15:00 AM 12.65 54.77 0.106 7.46 3.72 10.45
5/17/2021 12:30:00 AM 12.61 54.698 0.105 7.49 3.57 10.51
5/17/2021 12:45:00 AM 12.56 54.608 0.106 7.5 4.8 10.51
5/17/2021 1:00:00 AM 12.49 54.482 0.106 7.48 3.87 10.52
5/17/2021 1:15:00 AM 12.44 54.392 0.106 7.5 4.05 10.55
5/17/2021 1:30:00 AM 12.38 54.284 0.106 7.5 4.51 10.58
5/17/2021 1:45:00 AM 12.29 54.122 0.106 7.47 3.62 10.57
5/17/2021 2:00:00 AM 12.22 53.996 0.106 7.48 3.6 10.58
5/17/2021 2:15:00 AM 12.17 53.906 0.106 7.46 3.42 10.6
5/17/2021 2:30:00 AM 12.11 53.798 0.106 7.48 3.88 10.64
5/17/2021 2:45:00 AM 12.03 53.654 0.106 7.48 3.69 10.64
5/17/2021 3:00:00 AM 11.97 53.546 0.106 7.47 3.64 10.65
5/17/2021 3:15:00 AM 11.91 53.438 0.106 7.49 3.75 10.69
5/17/2021 3:30:00 AM 11.82 53.276 0.106 7.45 5.24 10.65
5/17/2021 3:45:00 AM 11.79 53.222 0.106 7.48 4.2 10.7
5/17/2021 4:00:00 AM 11.72 53.096 0.106 7.47 4.36 10.72
5/17/2021 4:15:00 AM 11.65 52.97 0.106 7.48 3.61 10.67
5/17/2021 4:30:00 AM 11.6 52.88 0.106 7.48 3.82 10.73
5/17/2021 4:45:00 AM 11.53 52.754 0.106 7.47 4.08 10.76
5/17/2021 5:00:00 AM 11.48 52.664 0.106 7.45 3.92 10.73
5/17/2021 5:15:00 AM 11.47 52.646 0.106 7.51 5.52 10.86
5/17/2021 5:30:00 AM 11.41 52.538 0.099 7.49 3.67 10.83
5/17/2021 5:45:00 AM 11.36 52.448 0.099 7.48 3.89 10.82
5/17/2021 6:00:00 AM 11.3 52.34 0.099 7.5 14.1 10.88
5/17/2021 6:15:00 AM 11.25 52.25 0.099 7.48 3.39 10.88
5/17/2021 6:30:00 AM 11.21 52.178 0.106 7.48 3.48 10.91
5/17/2021 6:45:00 AM 11.18 52.124 0.099 7.48 3.41 10.92
5/17/2021 7:00:00 AM 11.17 52.106 0.099 7.5 3.91 10.98
5/17/2021 7:15:00 AM 11.17 52.106 0.106 7.52 6.98 11.03
5/17/2021 7:30:00 AM 11.19 52.142 0.099 7.53 3.54 11.05
5/17/2021 7:45:00 AM 11.19 52.142 0.106 7.52 3.81 11.1
5/17/2021 8:00:00 AM 11.21 52.178 0.105 7.55 3.77 11.13
5/17/2021 8:15:00 AM 11.23 52.214 0.099 7.54 3.69 11.16
5/17/2021 8:30:00 AM 11.27 52.286 0.099 7.56 3.58 11.19
5/17/2021 8:45:00 AM 11.32 52.376 0.105 7.55 3.81 11.21
5/17/2021 9:00:00 AM 11.37 52.466 0.098 7.56 3.64 11.13
5/17/2021 9:15:00 AM 11.51 52.718 0.098 7.55 3.22 11.13
5/17/2021 9:30:00 AM 11.67 53.006 0.099 7.58 3.19 11.11
5/17/2021 9:45:00 AM 11.81 53.258 0.105 7.56 3.36 11.08
5/17/2021 10:00:00 AM 11.98 53.564 0.105 7.53 3.28 11.06
5/17/2021 10:15:00 AM 12.2 53.96 0.105 7.62 4.42 11.07
5/17/2021 10:30:00 AM 12.39 54.302 0.105 7.59 4.17 10.98
5/17/2021 10:45:00 AM 12.63 54.734 0.105 7.62 3.9 10.97
5/17/2021 11:00:00 AM 12.87 55.166 0.104 7.61 6.24 10.9
5/17/2021 11:15:00 AM 13.11 55.598 0.104 7.6 5.75 10.84
5/17/2021 11:30:00 AM 13.39 56.102 0.104 7.62 3.88 10.81
5/17/2021 11:45:00 AM 13.71 56.678 0.104 7.66 3.7 10.78
5/17/2021 12:00:00 PM 14 57.2 0.104 7.65 3.3 10.71
5/17/2021 12:15:00 PM 14.27 57.686 0.104 7.69 4.36 10.68
5/17/2021 12:30:00 PM 14.49 58.082 0.104 7.64 4.89 10.56
5/17/2021 12:45:00 PM 14.77 58.586 0.104 7.65 3.58 10.54
5/17/2021 1:00:00 PM 14.98 58.964 0.104 7.7 4.76 10.5
5/17/2021 1:15:00 PM 15.16 59.288 0.104 7.66 5.6 10.4
5/17/2021 1:30:00 PM 15.34 59.612 0.104 7.62 3.5 10.37
5/17/2021 1:45:00 PM 15.11 59.198 0.104 7.64 4.31 10.32
5/17/2021 2:00:00 PM 15.48 59.864 0.104 7.71 7.74 10.39
5/17/2021 2:15:00 PM 15.76 60.368 0.104 7.7 7.64 10.33
5/17/2021 2:30:00 PM 15.92 60.656 0.104 7.66 3.3 10.26
5/17/2021 2:45:00 PM 16.14 61.052 0.104 7.71 4.58 10.27
5/17/2021 3:00:00 PM 16.29 61.322 0.104 7.73 5.15 10.23
5/17/2021 3:15:00 PM 16.37 61.466 0.104 7.63 3.65 10.14
5/17/2021 3:30:00 PM 16.27 61.286 0.104 7.65 4.25 10.11
5/17/2021 3:45:00 PM 16.43 61.574 0.104 7.7 3.46 10.15
5/17/2021 4:00:00 PM 16.27 61.286 0.104 7.64 3.8 10.07
5/17/2021 4:15:00 PM 16.27 61.286 0.104 7.69 3.4 10.09
5/17/2021 4:30:00 PM 16.07 60.926 0.105 7.62 3.42 9.98
5/17/2021 4:45:00 PM 16.16 61.088 0.104 7.62 3.5 10.03
5/17/2021 5:00:00 PM 16.2 61.16 0.105 7.56 3.17 10.04
5/17/2021 5:15:00 PM 16.15 61.07 0.104 7.61 3.46 10.02
5/17/2021 5:30:00 PM 16.01 60.818 0.105 7.58 3.28 10.02
5/17/2021 5:45:00 PM 15.99 60.782 0.105 7.57 3.48 9.99
5/17/2021 6:00:00 PM 15.92 60.656 0.105 7.59 3.98 10
5/17/2021 6:15:00 PM 15.88 60.584 0.105 7.62 3.85 10.03
5/17/2021 6:30:00 PM 15.8 60.44 0.105 7.59 3.95 9.99
5/17/2021 6:45:00 PM 15.69 60.242 0.105 7.52 3.77 9.91
5/17/2021 7:00:00 PM 15.65 60.17 0.105 7.54 4.07 9.93
5/17/2021 7:15:00 PM 15.6 60.08 0.105 7.56 3.6 9.97
5/17/2021 7:30:00 PM 15.52 59.936 0.105 7.57 3.85 9.97
5/17/2021 7:45:00 PM 15.39 59.702 0.106 7.55 3.29 9.95
5/17/2021 8:00:00 PM 15.23 59.414 0.105 7.51 4.35 9.94
5/17/2021 8:15:00 PM 15.05 59.09 0.106 7.45 3.59 9.84
5/17/2021 8:30:00 PM 14.98 58.964 0.106 7.5 4.36 9.91
5/17/2021 8:45:00 PM 14.87 58.766 0.106 7.52 4.28 9.96
5/17/2021 9:00:00 PM 14.67 58.406 0.106 7.45 3.76 9.91
5/17/2021 9:15:00 PM 14.58 58.244 0.106 7.47 4.16 9.95
5/17/2021 9:30:00 PM 14.54 58.172 0.106 7.52 5.02 10.05
5/17/2021 9:45:00 PM 14.42 57.956 0.107 7.5 4.69 10.03
5/17/2021 10:00:00 PM 14.28 57.704 0.107 7.49 4.32 10.04
5/17/2021 10:15:00 PM 14.06 57.308 0.107 7.41 3.7 9.97
5/17/2021 10:30:00 PM 14.05 57.29 0.107 7.47 3.51 10.09
5/17/2021 10:45:00 PM 14 57.2 0.107 7.5 3.67 10.16
5/17/2021 11:00:00 PM 13.82 56.876 0.107 7.45 3.5 10.1
5/17/2021 11:15:00 PM 13.77 56.786 0.107 7.47 3.57 10.14
5/17/2021 11:30:00 PM 13.71 56.678 0.107 7.49 3.71 10.17
5/17/2021 11:45:00 PM 13.61 56.498 0.108 7.47 3.93 10.19
5/18/2021 12:00:00 AM 13.54 56.372 0.107 7.47 3.88 10.2
5/18/2021 12:15:00 AM 13.46 56.228 0.107 7.49 3.9 10.28
5/18/2021 12:30:00 AM 13.35 56.03 0.107 7.46 5.83 10.25
5/18/2021 12:45:00 AM 13.28 55.904 0.108 7.49 3.75 10.32
5/18/2021 1:00:00 AM 13.18 55.724 0.108 7.48 3.33 10.32
5/18/2021 1:15:00 AM 13.06 55.508 0.108 7.44 3.68 10.29
5/18/2021 1:30:00 AM 12.97 55.346 0.108 7.44 3.48 10.31
5/18/2021 1:45:00 AM 12.91 55.238 0.108 7.46 4.02 10.38
5/18/2021 2:00:00 AM 12.84 55.112 0.108 7.47 3.83 10.4
5/18/2021 2:15:00 AM 12.77 54.986 0.108 7.46 3.26 10.4
5/18/2021 2:30:00 AM 12.73 54.914 0.108 7.49 3.71 10.46
5/18/2021 2:45:00 AM 12.61 54.698 0.108 7.45 3.13 10.4
5/18/2021 3:00:00 AM 12.54 54.572 0.108 7.45 3.33 10.4
5/18/2021 3:15:00 AM 12.53 54.554 0.108 7.48 3.59 10.5
5/18/2021 3:30:00 AM 12.46 54.428 0.108 7.48 3.31 10.5
5/18/2021 3:45:00 AM 12.38 54.284 0.108 7.47 3.24 10.5
5/18/2021 4:00:00 AM 12.33 54.194 0.108 7.47 3.62 10.51
5/18/2021 4:15:00 AM 12.24 54.032 0.108 7.45 3.11 10.51
5/18/2021 4:30:00 AM 12.21 53.978 0.108 7.46 4.21 10.52
5/18/2021 4:45:00 AM 12.15 53.87 0.108 7.47 3.72 10.57
5/18/2021 5:00:00 AM 12.08 53.744 0.108 7.47 3.53 10.6
5/18/2021 5:15:00 AM 12.03 53.654 0.108 7.47 5.94 10.61
5/18/2021 5:30:00 AM 11.98 53.564 0.108 7.46 4.09 10.61
5/18/2021 5:45:00 AM 11.93 53.474 0.108 7.47 6.19 10.62
5/18/2021 6:00:00 AM 11.89 53.402 0.108 7.48 3.69 10.67
5/18/2021 6:15:00 AM 11.85 53.33 0.108 7.48 3.85 10.55
5/18/2021 6:30:00 AM 11.82 53.276 0.108 7.5 3.36 10.72
5/18/2021 6:45:00 AM 11.78 53.204 0.108 7.5 4.21 10.78
5/18/2021 7:00:00 AM 11.73 53.114 0.108 7.48 3.37 10.77
5/18/2021 7:15:00 AM 11.75 53.15 0.108 7.5 4.21 10.84
5/18/2021 7:30:00 AM 11.77 53.186 0.108 7.5 3.32 10.83
5/18/2021 7:45:00 AM 11.8 53.24 0.108 7.54 3.06 10.9
5/18/2021 8:00:00 AM 11.87 53.366 0.108 7.56 3.04 10.94
5/18/2021 8:15:00 AM 11.9 53.42 0.108 7.53 2.8 10.9
5/18/2021 8:30:00 AM 11.96 53.528 0.107 7.52 3.11 10.91
5/18/2021 8:45:00 AM 12.1 53.78 0.108 7.57 3.03 10.96
5/18/2021 9:00:00 AM 12.25 54.05 0.107 7.62 4.39 10.99
5/18/2021 9:15:00 AM 12.34 54.212 0.107 7.57 3.15 10.93
5/18/2021 9:30:00 AM 12.49 54.482 0.107 7.59 3.02 10.94
5/18/2021 9:45:00 AM 12.65 54.77 0.107 7.61 3.1 10.9
5/18/2021 10:00:00 AM 12.8 55.04 0.107 7.6 3 10.85
5/18/2021 10:15:00 AM 12.96 55.328 0.107 7.58 3.08 10.84
5/18/2021 10:30:00 AM 13.19 55.742 0.107 7.61 3.02 10.81
5/18/2021 10:45:00 AM 13.46 56.228 0.107 7.66 2.95 10.81
5/18/2021 11:00:00 AM 13.69 56.642 0.107 7.65 3.15 10.74
5/18/2021 11:15:00 AM 13.93 57.074 0.107 7.64 3.01 10.68
5/18/2021 11:30:00 AM 14.21 57.578 0.107 7.65 3.09 10.66
5/18/2021 11:45:00 AM 14.47 58.046 0.106 7.67 3.04 10.6
5/18/2021 12:00:00 PM 14.78 58.604 0.107 7.7 3.54 10.58
5/18/2021 12:15:00 PM 15.02 59.036 0.107 7.68 3.14 10.49
5/18/2021 12:30:00 PM 15.31 59.558 0.107 7.74 3.27 10.49
5/18/2021 12:45:00 PM 15.56 60.008 0.107 7.73 3.19 10.43
5/18/2021 1:00:00 PM 15.85 60.53 0.107 7.75 3.08 10.4
5/18/2021 1:15:00 PM 16 60.8 0.106 7.74 3.87 10.32
5/18/2021 1:30:00 PM 16.26 61.268 0.107 7.74 3.97 10.29
5/18/2021 1:45:00 PM 16.48 61.664 0.107 7.76 3.53 10.26
5/18/2021 2:00:00 PM 16.46 61.628 0.106 7.71 3.46 10.18
5/18/2021 2:15:00 PM 16.54 61.772 0.107 7.74 3.55 10.17
5/18/2021 2:30:00 PM 16.66 61.988 0.107 7.72 3.39 10.12
5/18/2021 2:45:00 PM 16.77 62.186 0.107 7.69 3.84 10.08
5/18/2021 3:00:00 PM 16.92 62.456 0.107 7.75 3.47 10.1
5/18/2021 3:15:00 PM 16.95 62.51 0.107 7.72 3.2 10.04
5/18/2021 3:30:00 PM 16.88 62.384 0.107 7.6 3.22 9.96
5/18/2021 3:45:00 PM 17.1 62.78 0.107 7.75 3.79 10.03
5/18/2021 4:00:00 PM 17.16 62.888 0.107 7.71 3.63 9.98
5/18/2021 4:15:00 PM 17.23 63.014 0.107 7.74 3.49 9.98
5/18/2021 4:30:00 PM 17.28 63.104 0.107 7.71 3.02 9.96
5/18/2021 4:45:00 PM 17.26 63.068 0.107 7.63 3.5 9.86
5/18/2021 5:00:00 PM 17.35 63.23 0.107 7.7 4.15 9.89
5/18/2021 5:15:00 PM 17.33 63.194 0.107 7.69 3.3 9.85
5/18/2021 5:30:00 PM 17.28 63.104 0.107 7.65 3.52 9.82
5/18/2021 5:45:00 PM 17.27 63.086 0.107 7.67 3.83 9.81
5/18/2021 6:00:00 PM 17.17 62.906 0.107 7.63 3.37 9.79
5/18/2021 6:15:00 PM 17.14 62.852 0.107 7.67 3.35 9.78
5/18/2021 6:30:00 PM 17.04 62.672 0.107 7.65 3.1 9.73
5/18/2021 6:45:00 PM 16.92 62.456 0.107 7.61 3.53 9.7
5/18/2021 7:00:00 PM 16.78 62.204 0.107 7.57 3.3 9.66
5/18/2021 7:15:00 PM 16.77 62.186 0.108 7.6 3.27 9.71
5/18/2021 7:30:00 PM 16.64 61.952 0.108 7.58 3.22 9.71
5/18/2021 7:45:00 PM 16.46 61.628 0.108 7.53 3.2 9.64
5/18/2021 8:00:00 PM 16.29 61.322 0.108 7.51 3.23 9.62
5/18/2021 8:15:00 PM 16.1 60.98 0.108 7.48 3.09 9.61
5/18/2021 8:30:00 PM 16.01 60.818 0.109 7.54 3.3 9.72
5/18/2021 8:45:00 PM 15.81 60.458 0.109 7.49 3.25 9.65
5/18/2021 9:00:00 PM 15.7 60.26 0.109 7.51 3.56 9.69
5/18/2021 9:15:00 PM 15.61 60.098 0.109 7.53 3.56 9.78
5/18/2021 9:30:00 PM 15.39 59.702 0.109 7.45 3.54 9.7
5/18/2021 9:45:00 PM 15.34 59.612 0.109 7.5 3.58 9.81
5/18/2021 10:00:00 PM 15.25 59.45 0.109 7.51 4 9.84
5/18/2021 10:15:00 PM 15.14 59.252 0.109 7.49 3.4 9.84
5/18/2021 10:30:00 PM 14.99 58.982 0.109 7.47 3.73 9.82
5/18/2021 10:45:00 PM 14.96 58.928 0.11 7.51 3.6 9.89
5/18/2021 11:00:00 PM 14.82 58.676 0.11 7.47 3.21 9.85
5/18/2021 11:15:00 PM 14.79 58.622 0.11 7.51 3.82 9.97
5/18/2021 11:30:00 PM 14.69 58.442 0.11 7.5 3.79 9.99
5/18/2021 11:45:00 PM 14.6 58.28 0.11 7.5 3.48 9.99
5/19/2021 12:00:00 AM 14.52 58.136 0.11 7.51 3.76 10.02
5/19/2021 12:15:00 AM 14.43 57.974 0.11 7.49 3.34 10.02
5/19/2021 12:30:00 AM 14.34 57.812 0.11 7.49 3.84 10.04
5/19/2021 12:45:00 AM 14.28 57.704 0.11 7.52 3.41 10.09
5/19/2021 1:00:00 AM 14.15 57.47 0.11 7.47 3.51 9.97
5/19/2021 1:15:00 AM 14.13 57.434 0.11 7.53 3.4 10.14
5/19/2021 1:30:00 AM 14.04 57.272 0.111 7.52 3.74 10.17
5/19/2021 1:45:00 AM 13.95 57.11 0.111 7.5 3.46 10.16
5/19/2021 2:00:00 AM 13.89 57.002 0.111 7.51 3.22 10.18
5/19/2021 2:15:00 AM 13.78 56.804 0.111 7.48 3.15 10.17
5/19/2021 2:30:00 AM 13.71 56.678 0.111 7.49 3.33 10.17
5/19/2021 2:45:00 AM 13.64 56.552 0.111 7.48 3.47 10.18
5/19/2021 3:00:00 AM 13.59 56.462 0.111 7.5 3.52 10.24
5/19/2021 3:15:00 AM 13.53 56.354 0.111 7.5 3.22 10.26
5/19/2021 3:30:00 AM 13.48 56.264 0.111 7.53 3.62 10.31
5/19/2021 3:45:00 AM 13.42 56.156 0.111 7.53 3.4 10.32
5/19/2021 4:00:00 AM 13.34 56.012 0.111 7.52 3.39 10.31
5/19/2021 4:15:00 AM 13.29 55.922 0.112 7.54 3.37 10.38
5/19/2021 4:30:00 AM 13.22 55.796 0.112 7.53 4.09 10.36
5/19/2021 4:45:00 AM 13.14 55.652 0.112 7.53 3.58 10.37
5/19/2021 5:00:00 AM 13.09 55.562 0.112 7.53 3.63 10.4
5/19/2021 5:15:00 AM 12.99 55.382 0.112 7.49 3.58 10.34
5/19/2021 5:30:00 AM 12.97 55.346 0.112 7.52 3.39 10.42
5/19/2021 5:45:00 AM 12.91 55.238 0.112 7.52 3.16 10.45
5/19/2021 6:00:00 AM 12.87 55.166 0.112 7.53 3.52 10.47
5/19/2021 6:15:00 AM 12.81 55.058 0.112 7.52 3.56 10.49
5/19/2021 6:30:00 AM 12.78 55.004 0.112 7.55 3.9 10.56
5/19/2021 6:45:00 AM 12.76 54.968 0.112 7.57 3.46 10.61
5/19/2021 7:00:00 AM 12.71 54.878 0.112 7.54 3.1 10.6
5/19/2021 7:15:00 AM 12.74 54.932 0.112 7.59 3.17 10.67
5/19/2021 7:30:00 AM 12.74 54.932 0.112 7.59 3.25 10.7
5/19/2021 7:45:00 AM 12.75 54.95 0.111 7.59 3.18 10.71
5/19/2021 8:00:00 AM 12.78 55.004 0.111 7.59 3.22 10.74
5/19/2021 8:15:00 AM 12.85 55.13 0.111 7.62 3.16 10.77
5/19/2021 8:30:00 AM 12.91 55.238 0.111 7.59 3.22 10.71
5/19/2021 8:45:00 AM 13.04 55.472 0.111 7.64 3.31 10.75
5/19/2021 9:00:00 AM 13.18 55.724 0.111 7.66 3.27 10.8
5/19/2021 9:15:00 AM 13.27 55.886 0.111 7.62 3.27 10.75
5/19/2021 9:30:00 AM 13.45 56.21 0.111 7.68 3.12 10.79
5/19/2021 9:45:00 AM 13.59 56.462 0.111 7.68 3.07 10.75
5/19/2021 10:00:00 AM 13.74 56.732 0.111 7.67 3.04 10.7
5/19/2021 10:15:00 AM 13.97 57.146 0.11 7.71 3.24 10.72
5/19/2021 10:30:00 AM 14.11 57.398 0.11 7.65 3.2 10.65
5/19/2021 10:45:00 AM 14.37 57.866 0.11 7.71 3.1 10.65
5/19/2021 11:00:00 AM 14.63 58.334 0.11 7.74 3.03 10.62
5/19/2021 11:15:00 AM 14.84 58.712 0.11 7.72 3.41 10.55
5/19/2021 11:30:00 AM 15.11 59.198 0.11 7.74 3.08 10.49
5/19/2021 11:45:00 AM 15.34 59.612 0.11 7.73 3.18 10.42
5/19/2021 12:00:00 PM 15.63 60.134 0.11 7.78 3.53 10.43
5/19/2021 12:15:00 PM 15.85 60.53 0.11 7.76 3.37 10.37
5/19/2021 12:30:00 PM 16.08 60.944 0.11 7.71 3.17 10.22
5/19/2021 12:45:00 PM 16.35 61.43 0.11 7.78 3.17 10.28
5/19/2021 1:00:00 PM 16.61 61.898 0.11 7.8 3.23 10.24
5/19/2021 1:15:00 PM 16.85 62.33 0.11 7.81 3.54 10.22
5/19/2021 1:30:00 PM 17 62.6 0.11 7.75 3.21 10.1
5/19/2021 1:45:00 PM 17.18 62.924 0.11 7.76 3.15 10.02
5/19/2021 2:00:00 PM 17.35 63.23 0.11 7.78 3.38 10
5/19/2021 2:15:00 PM 17.52 63.536 0.11 7.79 3.58 9.96
5/19/2021 2:30:00 PM 17.66 63.788 0.11 7.8 3.26 9.91
5/19/2021 2:45:00 PM 17.69 63.842 0.11 7.71 3.79 9.88
5/19/2021 3:00:00 PM 17.84 64.112 0.11 7.77 3.77 9.91
5/19/2021 3:15:00 PM 17.99 64.382 0.11 7.83 3.61 9.87
5/19/2021 3:30:00 PM 18.1 64.58 0.11 7.82 4.09 9.81
5/19/2021 3:45:00 PM 18.17 64.706 0.11 7.78 3.64 9.84
5/19/2021 4:00:00 PM 18.16 64.688 0.11 7.76 3.59 9.79
5/19/2021 4:15:00 PM 18.22 64.796 0.11 7.78 3.45 9.77
5/19/2021 4:30:00 PM 18.33 64.994 0.11 7.78 3.79 9.76
5/19/2021 4:45:00 PM 18.32 64.976 0.11 7.75 5.51 9.68
5/19/2021 5:00:00 PM 18.43 65.174 0.11 7.78 3.3 9.73
5/19/2021 5:15:00 PM 18.45 65.21 0.11 7.8 3.13 9.72
5/19/2021 5:30:00 PM 18.37 65.066 0.11 7.76 3.3 9.66
5/19/2021 5:45:00 PM 18.28 64.904 0.11 7.72 3.3 9.63
5/19/2021 6:00:00 PM 18.22 64.796 0.11 7.71 3.35 9.6
5/19/2021 6:15:00 PM 18.16 64.688 0.11 7.67 3.53 9.65
5/19/2021 6:30:00 PM 18.14 64.652 0.111 7.71 3.36 9.65
5/19/2021 6:45:00 PM 18.11 64.598 0.111 7.7 3.66 9.64
5/19/2021 7:00:00 PM 18.01 64.418 0.111 7.67 3.7 9.61
5/19/2021 7:15:00 PM 17.96 64.328 0.111 7.68 3.71 9.6
5/19/2021 7:30:00 PM 17.77 63.986 0.111 7.6 3.19 9.52
5/19/2021 7:45:00 PM 17.68 63.824 0.111 7.61 5.21 9.49
5/19/2021 8:00:00 PM 17.56 63.608 0.111 7.6 3.41 9.47
5/19/2021 8:15:00 PM 17.39 63.302 0.112 7.58 3.2 9.45
5/19/2021 8:30:00 PM 17.26 63.068 0.112 7.57 4.16 9.43
5/19/2021 8:45:00 PM 17.11 62.798 0.112 7.57 4.06 9.48
5/19/2021 9:00:00 PM 16.94 62.492 0.112 7.54 3.46 9.39
5/19/2021 9:15:00 PM 16.84 62.312 0.112 7.56 3.66 9.53
5/19/2021 9:30:00 PM 16.7 62.06 0.112 7.55 3.87 9.52
5/19/2021 9:45:00 PM 16.59 61.862 0.112 7.55 3.7 9.58
5/19/2021 10:00:00 PM 16.48 61.664 0.113 7.55 3.67 9.6
5/19/2021 10:15:00 PM 16.39 61.502 0.113 7.55 3.69 9.63
5/19/2021 10:30:00 PM 16.29 61.322 0.113 7.55 3.56 9.64
5/19/2021 10:45:00 PM 16.19 61.142 0.113 7.54 3.9 9.65
5/19/2021 11:00:00 PM 16.09 60.962 0.113 7.53 3.35 9.67
5/19/2021 11:15:00 PM 16 60.8 0.113 7.53 3.6 9.69
5/19/2021 11:30:00 PM 15.91 60.638 0.113 7.52 3.9 9.71
5/19/2021 11:45:00 PM 15.86 60.548 0.113 7.56 3.33 9.75
5/20/2021 12:00:00 AM 15.76 60.368 0.113 7.54 3.74 9.77
5/20/2021 12:15:00 AM 15.68 60.224 0.113 7.55 3.4 9.79
5/20/2021 12:30:00 AM 15.6 60.08 0.113 7.55 3.41 9.81
5/20/2021 12:45:00 AM 15.52 59.936 0.113 7.55 3.56 9.81
5/20/2021 1:00:00 AM 15.42 59.756 0.113 7.54 3.23 9.83
5/20/2021 1:15:00 AM 15.36 59.648 0.113 7.56 3.43 9.87
5/20/2021 1:30:00 AM 15.27 59.486 0.113 7.55 3.61 9.89
5/20/2021 1:45:00 AM 15.18 59.324 0.113 7.54 3.58 9.84
5/20/2021 2:00:00 AM 15.13 59.234 0.114 7.55 3.67 9.92
5/20/2021 2:15:00 AM 15.05 59.09 0.114 7.55 3.29 9.93
5/20/2021 2:30:00 AM 14.97 58.946 0.114 7.54 3.52 9.88
5/20/2021 2:45:00 AM 14.9 58.82 0.114 7.54 3.82 9.92
5/20/2021 3:00:00 AM 14.84 58.712 0.114 7.54 3.23 10
5/20/2021 3:15:00 AM 14.76 58.568 0.114 7.53 3.46 9.99
5/20/2021 3:30:00 AM 14.71 58.478 0.114 7.54 3.57 9.99
5/20/2021 3:45:00 AM 14.66 58.388 0.114 7.54 9.97 9.98
5/20/2021 4:00:00 AM 14.61 58.298 0.114 7.54 4.29 10.03
5/20/2021 4:15:00 AM 14.56 58.208 0.114 7.54 4.16 10.06
5/20/2021 4:30:00 AM 14.51 58.118 0.114 7.54 3.34 10.09
5/20/2021 4:45:00 AM 14.48 58.064 0.114 7.55 3.59 10.11
5/20/2021 5:00:00 AM 14.43 57.974 0.115 7.54 3.5 10.1
5/20/2021 5:15:00 AM 14.38 57.884 0.115 7.53 3.46 10.1
5/20/2021 5:30:00 AM 14.36 57.848 0.115 7.54 3.52 10.12
5/20/2021 5:45:00 AM 14.32 57.776 0.115 7.54 3.36 10.14
5/20/2021 6:00:00 AM 14.28 57.704 0.115 7.55 4.02 10.16
5/20/2021 6:15:00 AM 14.24 57.632 0.115 7.55 3.27 10.18
5/20/2021 6:30:00 AM 14.2 57.56 0.115 7.55 3.22 10.22
5/20/2021 6:45:00 AM 14.17 57.506 0.115 7.57 3.64 10.25
5/20/2021 7:00:00 AM 14.15 57.47 0.115 7.58 3.55 10.3
5/20/2021 7:15:00 AM 14.15 57.47 0.115 7.59 3.09 10.35
5/20/2021 7:30:00 AM 14.18 57.524 0.115 7.61 3.1 10.42
5/20/2021 7:45:00 AM 14.22 57.596 0.115 7.63 3.94 10.44
5/20/2021 8:00:00 AM 14.25 57.65 0.115 7.63 3.54 10.46
5/20/2021 8:15:00 AM 14.29 57.722 0.115 7.65 3.37 10.47
5/20/2021 8:30:00 AM 14.35 57.83 0.115 7.65 3.03 10.48
5/20/2021 8:45:00 AM 14.47 58.046 0.115 7.68 2.97 10.53
5/20/2021 9:00:00 AM 14.58 58.244 0.115 7.69 3.03 10.54
5/20/2021 9:15:00 AM 14.72 58.496 0.115 7.7 3.12 10.31
5/20/2021 9:30:00 AM 14.84 58.712 0.114 7.7 3.07 10.52
5/20/2021 9:45:00 AM 15 59 0.114 7.71 3.66 10.49
5/20/2021 10:00:00 AM 15.12 59.216 0.115 7.7 8.69 10.48
5/20/2021 10:15:00 AM 15.28 59.504 0.114 7.75 3.23 10.51
5/20/2021 10:30:00 AM 15.48 59.864 0.114 7.77 2.96 10.5
5/20/2021 10:45:00 AM 15.68 60.224 0.114 7.78 2.82 10.46
5/20/2021 11:00:00 AM 15.89 60.602 0.114 7.77 3.07 10.42
5/20/2021 11:15:00 AM 16.09 60.962 0.114 7.75 3.15 10.36
5/20/2021 11:30:00 AM 16.36 61.448 0.114 7.78 2.92 10.34
5/20/2021 11:45:00 AM 16.58 61.844 0.114 7.79 2.97 10.3
5/20/2021 12:00:00 PM 16.78 62.204 0.114 7.78 3.14 10.25
5/20/2021 12:15:00 PM 16.99 62.582 0.114 7.82 3.18 10.23
5/20/2021 12:30:00 PM 17.18 62.924 0.114 7.83 3.03 10.2
5/20/2021 12:45:00 PM 17.42 63.356 0.114 7.83 3.17 10.16
5/20/2021 1:00:00 PM 17.67 63.806 0.114 7.87 2.98 10.13
5/20/2021 1:15:00 PM 17.89 64.202 0.114 7.89 2.89 10.09
5/20/2021 1:30:00 PM 17.99 64.382 0.114 7.8 3.2 10
5/20/2021 1:45:00 PM 18.21 64.778 0.114 7.88 3.47 10.01
5/20/2021 2:00:00 PM 18.34 65.012 0.114 7.84 3.22 9.93
5/20/2021 2:15:00 PM 18.43 65.174 0.114 7.79 3.06 9.87
5/20/2021 2:30:00 PM 18.6 65.48 0.115 7.87 4.08 9.89
5/20/2021 2:45:00 PM 18.65 65.57 0.114 7.82 3.7 9.84
5/20/2021 3:00:00 PM 18.72 65.696 0.114 7.84 3.2 9.84
5/20/2021 3:15:00 PM 18.76 65.768 0.114 7.82 3.29 9.78
5/20/2021 3:30:00 PM 18.85 65.93 0.115 7.82 3.23 9.77
5/20/2021 3:45:00 PM 19 66.2 0.114 7.85 3.25 9.78
5/20/2021 4:00:00 PM 19.04 66.272 0.115 7.84 3.02 9.74
5/20/2021 4:15:00 PM 19.14 66.452 0.115 7.84 6.47 9.72
5/20/2021 4:30:00 PM 19.05 66.29 0.114 7.75 3.25 9.65
5/20/2021 4:45:00 PM 19.18 66.524 0.115 7.77 4.06 9.65
5/20/2021 5:00:00 PM 19.18 66.524 0.115 7.77 3 9.61
5/20/2021 5:15:00 PM 19.24 66.632 0.115 7.78 3.73 9.61
5/20/2021 5:30:00 PM 19.19 66.542 0.115 7.75 3.18 9.52
5/20/2021 5:45:00 PM 19.2 66.56 0.115 7.8 3.93 9.51
5/20/2021 6:00:00 PM 19.11 66.398 0.115 7.74 3.18 9.48
5/20/2021 6:15:00 PM 19.12 66.416 0.115 7.75 3.32 9.51
5/20/2021 6:30:00 PM 19.09 66.362 0.115 7.75 3.67 9.48
5/20/2021 6:45:00 PM 18.95 66.11 0.116 7.66 3.76 9.36
5/20/2021 7:00:00 PM 18.89 66.002 0.116 7.67 3.25 9.34
5/20/2021 7:15:00 PM 18.69 65.642 0.116 7.61 4.05 9.29
5/20/2021 7:30:00 PM 18.66 65.588 0.116 7.65 2.97 9.33
5/20/2021 7:45:00 PM 18.54 65.372 0.116 7.63 4.51 9.29
5/20/2021 8:00:00 PM 18.39 65.102 0.116 7.62 6.7 9.32
5/20/2021 8:15:00 PM 18.21 64.778 0.117 7.59 3.24 9.27
5/20/2021 8:30:00 PM 18.06 64.508 0.117 7.58 3.3 9.3
5/20/2021 8:45:00 PM 17.92 64.256 0.117 7.57 3.51 9.3
5/20/2021 9:00:00 PM 17.75 63.95 0.117 7.55 3.25 9.29
5/20/2021 9:15:00 PM 17.62 63.716 0.117 7.55 5.78 9.31
5/20/2021 9:30:00 PM 17.51 63.518 0.117 7.57 5.73 9.37
5/20/2021 9:45:00 PM 17.35 63.23 0.117 7.55 11.03 9.4
5/20/2021 10:00:00 PM 17.26 63.068 0.117 7.57 118.13 9.37
5/20/2021 10:15:00 PM 17.15 62.87 0.117 7.58 3.9 9.47
5/20/2021 10:30:00 PM 17 62.6 0.117 7.56 3.23 9.47
5/20/2021 10:45:00 PM 16.93 62.474 0.117 7.58 3.4 9.53
5/20/2021 11:00:00 PM 16.81 62.258 0.117 7.56 3.34 9.53
5/20/2021 11:15:00 PM 16.7 62.06 0.117 7.56 3.78 9.57
5/20/2021 11:30:00 PM 16.6 61.88 0.117 7.56 4.26 9.58
5/20/2021 11:45:00 PM 16.52 61.736 0.118 7.57 3.69 9.59
5/21/2021 12:00:00 AM 16.42 61.556 0.118 7.57 3.52 9.63
5/21/2021 12:15:00 AM 16.33 61.394 0.118 7.56 3.34 9.63
5/21/2021 12:30:00 AM 16.25 61.25 0.118 7.56 3.25 9.66
5/21/2021 12:45:00 AM 16.17 61.106 0.118 7.57 3.35 9.68
5/21/2021 1:00:00 AM 16.07 60.926 0.117 7.55 3.46 9.68
5/21/2021 1:15:00 AM 16.01 60.818 0.118 7.56 3.29 9.73
5/21/2021 1:30:00 AM 15.95 60.71 0.118 7.57 3.45 9.75
5/21/2021 1:45:00 AM 15.88 60.584 0.118 7.56 3.41 9.77
5/21/2021 2:00:00 AM 15.82 60.476 0.118 7.56 3.68 9.77
5/21/2021 2:15:00 AM 15.76 60.368 0.118 7.57 3.37 9.79
5/21/2021 2:30:00 AM 15.66 60.188 0.118 7.55 3.4 9.77
5/21/2021 2:45:00 AM 15.62 60.116 0.118 7.56 3.38 9.8
5/21/2021 3:00:00 AM 15.56 60.008 0.118 7.56 7.26 9.83
5/21/2021 3:15:00 AM 15.48 59.864 0.118 7.56 3.32 9.84
5/21/2021 3:30:00 AM 15.41 59.738 0.118 7.56 3.63 9.88
5/21/2021 3:45:00 AM 15.31 59.558 0.118 7.54 3.14 9.86
5/21/2021 4:00:00 AM 15.25 59.45 0.118 7.56 22.4 9.89
5/21/2021 4:15:00 AM 15.16 59.288 0.118 7.54 3.53 9.88
5/21/2021 4:30:00 AM 15.12 59.216 0.118 7.57 3.18 9.93
5/21/2021 4:45:00 AM 15.05 59.09 0.118 7.56 3.35 9.93
5/21/2021 5:00:00 AM 14.98 58.964 0.118 7.55 4.35 9.92
5/21/2021 5:15:00 AM 14.9 58.82 0.118 7.56 4.6 9.97
5/21/2021 5:30:00 AM 14.83 58.694 0.118 7.55 3.68 9.98
5/21/2021 5:45:00 AM 14.78 58.604 0.119 7.56 3.36 10
5/21/2021 6:00:00 AM 14.71 58.478 0.119 7.56 3.44 9.91
5/21/2021 6:15:00 AM 14.66 58.388 0.119 7.57 3.34 10.08
5/21/2021 6:30:00 AM 14.61 58.298 0.119 7.58 3.47 10.13
5/21/2021 6:45:00 AM 14.57 58.226 0.119 7.59 4.7 10.16
5/21/2021 7:00:00 AM 14.56 58.208 0.119 7.61 8.51 10.17
5/21/2021 7:15:00 AM 14.53 58.154 0.119 7.61 3.38 10.23
5/21/2021 7:30:00 AM 14.54 58.172 0.119 7.63 3 10.28
5/21/2021 7:45:00 AM 14.54 58.172 0.119 7.63 3.07 10.31
5/21/2021 8:00:00 AM 14.6 58.28 0.119 7.66 2.98 10.37
5/21/2021 8:15:00 AM 14.62 58.316 0.119 7.66 3.11 10.37
5/21/2021 8:30:00 AM 14.7 58.46 0.119 7.69 3.1 10.42
5/21/2021 8:45:00 AM 14.78 58.604 0.119 7.7 3.09 10.43
5/21/2021 9:00:00 AM 14.88 58.784 0.119 7.71 3.2 10.44
5/21/2021 9:15:00 AM 15.01 59.018 0.119 7.74 2.94 10.46
5/21/2021 9:30:00 AM 15.12 59.216 0.119 7.74 3.26 10.43
5/21/2021 9:45:00 AM 15.29 59.522 0.119 7.77 3.15 10.47
5/21/2021 10:00:00 AM 15.42 59.756 0.118 7.78 3.01 10.45
5/21/2021 10:15:00 AM 15.57 60.026 0.118 7.77 3.11 10.42
5/21/2021 10:30:00 AM 15.74 60.332 0.118 7.79 3.25 10.39
5/21/2021 10:45:00 AM 15.93 60.674 0.118 7.82 2.98 10.43
5/21/2021 11:00:00 AM 16.11 60.998 0.118 7.81 3.27 10.41
5/21/2021 11:15:00 AM 16.31 61.358 0.118 7.8 3.18 10.35
5/21/2021 11:30:00 AM 16.52 61.736 0.118 7.79 2.98 10.31
5/21/2021 11:45:00 AM 16.77 62.186 0.118 7.78 3.63 10.27
5/21/2021 12:00:00 PM 17.01 62.618 0.118 7.82 3.63 10.23
5/21/2021 12:15:00 PM 17.2 62.96 0.118 7.81 3.21 10.19
5/21/2021 12:30:00 PM 17.45 63.41 0.118 7.85 2.88 10.17
5/21/2021 12:45:00 PM 17.73 63.914 0.118 7.91 2.99 10.16
5/21/2021 1:00:00 PM 17.82 64.076 0.118 7.83 3.02 10.06
5/21/2021 1:15:00 PM 18.08 64.544 0.118 7.9 3.13 10.1
5/21/2021 1:30:00 PM 18.2 64.76 0.118 7.84 3.07 9.99
5/21/2021 1:45:00 PM 18.44 65.192 0.118 7.89 3.06 9.98
5/21/2021 2:00:00 PM 18.46 65.228 0.117 7.81 4.5 9.88
5/21/2021 2:15:00 PM 18.65 65.57 0.118 7.86 2.97 9.89
5/21/2021 2:30:00 PM 18.75 65.75 0.118 7.86 3.07 9.85
5/21/2021 2:45:00 PM 18.87 65.966 0.118 7.91 3.31 9.87
5/21/2021 3:00:00 PM 18.96 66.128 0.118 7.9 2.97 9.84
5/21/2021 3:15:00 PM 19.01 66.218 0.118 7.88 4.04 9.8
5/21/2021 3:30:00 PM 19.02 66.236 0.118 7.87 3.36 9.74
5/21/2021 3:45:00 PM 18.85 65.93 0.118 7.77 3.36 9.61
5/21/2021 4:00:00 PM 18.97 66.146 0.118 7.85 3.15 9.65
5/21/2021 4:15:00 PM 18.96 66.128 0.118 7.76 3.1 9.62
5/21/2021 4:30:00 PM 19.14 66.452 0.118 7.83 3.07 9.68
5/21/2021 4:45:00 PM 19.16 66.488 0.118 7.82 3.08 9.66
5/21/2021 5:00:00 PM 19.25 66.65 0.118 7.86 3.02 9.68
5/21/2021 5:15:00 PM 19.26 66.668 0.118 7.84 3.05 9.63
5/21/2021 5:30:00 PM 19.09 66.362 0.118 7.71 3.15 9.48
5/21/2021 5:45:00 PM 19.11 66.398 0.118 7.74 4.61 9.47
5/21/2021 6:00:00 PM 19.06 66.308 0.118 7.7 3.23 9.46
5/21/2021 6:15:00 PM 19.06 66.308 0.118 7.77 3.07 9.48
5/21/2021 6:30:00 PM 18.93 66.074 0.118 7.69 3.1 9.38
5/21/2021 6:45:00 PM 18.81 65.858 0.118 7.63 2.99 9.31
5/21/2021 7:00:00 PM 18.87 65.966 0.119 7.69 3.06 9.35
5/21/2021 7:15:00 PM 18.77 65.786 0.119 7.65 3.38 9.3
5/21/2021 7:30:00 PM 18.75 65.75 0.119 7.66 3.16 9.33
5/21/2021 7:45:00 PM 18.63 65.534 0.119 7.61 3.19 9.23
5/21/2021 8:00:00 PM 18.62 65.516 0.119 7.64 3.01 9.27
5/21/2021 8:15:00 PM 18.55 65.39 0.12 7.63 3.11 9.26
5/21/2021 8:30:00 PM 18.4 65.12 0.12 7.6 3.07 9.18
5/21/2021 8:45:00 PM 18.21 64.778 0.12 7.57 3.97 9.16
5/21/2021 9:00:00 PM 18.14 64.652 0.12 7.59 3.7 9.24
5/21/2021 9:15:00 PM 18.01 64.418 0.12 7.6 3.67 9.24
5/21/2021 9:30:00 PM 17.85 64.13 0.12 7.58 3.54 9.27
5/21/2021 9:45:00 PM 17.7 63.86 0.12 7.58 3.58 9.28
5/21/2021 10:00:00 PM 17.59 63.662 0.12 7.58 3.54 9.33
5/21/2021 10:15:00 PM 17.44 63.392 0.121 7.56 3.42 9.35
5/21/2021 10:30:00 PM 17.3 63.14 0.121 7.55 3.58 9.35
5/21/2021 10:45:00 PM 17.23 63.014 0.121 7.57 3.55 9.4
5/21/2021 11:00:00 PM 17.13 62.834 0.121 7.57 3.36 9.42
5/21/2021 11:15:00 PM 17.05 62.69 0.121 7.57 3.4 9.43
5/21/2021 11:30:00 PM 16.95 62.51 0.121 7.56 3.36 9.42
5/21/2021 11:45:00 PM 16.89 62.402 0.121 7.57 3.43 9.46
5/22/2021 12:00:00 AM 16.79 62.222 0.121 7.55 3.54 9.47
5/22/2021 12:15:00 AM 16.74 62.132 0.121 7.57 4.1 9.52
5/22/2021 12:30:00 AM 16.67 62.006 0.121 7.57 3.69 9.52
5/22/2021 12:45:00 AM 16.6 61.88 0.121 7.56 3.32 9.53
5/22/2021 1:00:00 AM 16.55 61.79 0.121 7.58 3.57 9.56
5/22/2021 1:15:00 AM 16.43 61.574 0.121 7.53 3.26 9.53
5/22/2021 1:30:00 AM 16.39 61.502 0.121 7.55 3.46 9.55
5/22/2021 1:45:00 AM 16.35 61.43 0.121 7.57 3.53 9.59
5/22/2021 2:00:00 AM 16.29 61.322 0.121 7.56 3.16 9.59
5/22/2021 2:15:00 AM 16.21 61.178 0.121 7.55 3.32 9.61
5/22/2021 2:30:00 AM 16.15 61.07 0.121 7.55 3.27 9.63
5/22/2021 2:45:00 AM 16.11 60.998 0.121 7.56 5.19 9.63
5/22/2021 3:00:00 AM 16.06 60.908 0.121 7.55 3.2 9.65
5/22/2021 3:15:00 AM 16.02 60.836 0.12 7.55 3.37 9.66
5/22/2021 3:30:00 AM 16 60.8 0.121 7.56 3.45 9.69
5/22/2021 3:45:00 AM 15.94 60.692 0.121 7.55 3.5 9.66
5/22/2021 4:00:00 AM 15.92 60.656 0.121 7.56 3.44 9.69
5/22/2021 4:15:00 AM 15.88 60.584 0.121 7.54 3.5 9.69
5/22/2021 4:30:00 AM 15.86 60.548 0.121 7.56 3.54 9.71
5/22/2021 4:45:00 AM 15.81 60.458 0.121 7.55 3.48 9.7
5/22/2021 5:00:00 AM 15.78 60.404 0.121 7.55 4.88 9.69
5/22/2021 5:15:00 AM 15.72 60.296 0.121 7.54 3.81 9.71
5/22/2021 5:30:00 AM 15.64 60.152 0.121 7.52 3.41 9.69
5/22/2021 5:45:00 AM 15.62 60.116 0.121 7.53 3.71 9.72
5/22/2021 6:00:00 AM 15.58 60.044 0.121 7.54 3.42 9.75
5/22/2021 6:15:00 AM 15.52 59.936 0.121 7.53 3.41 9.78
5/22/2021 6:30:00 AM 15.48 59.864 0.121 7.54 3.25 9.8
5/22/2021 6:45:00 AM 15.47 59.846 0.121 7.56 3.51 9.87
5/22/2021 7:00:00 AM 15.48 59.864 0.121 7.6 3.46 9.94
5/22/2021 7:15:00 AM 15.45 59.81 0.121 7.59 3.4 9.96
5/22/2021 7:30:00 AM 15.45 59.81 0.121 7.61 3.29 10.03
5/22/2021 7:45:00 AM 15.5 59.9 0.121 7.65 3.15 10.13
5/22/2021 8:00:00 AM 15.51 59.918 0.121 7.66 2.95 10.13
5/22/2021 8:15:00 AM 15.54 59.972 0.121 7.67 3.3 10.19
5/22/2021 8:30:00 AM 15.54 59.972 0.121 7.66 2.95 10.14
5/22/2021 8:45:00 AM 15.63 60.134 0.121 7.72 2.97 10.29
5/22/2021 9:00:00 AM 15.61 60.098 0.121 7.69 3.14 10.23
5/22/2021 9:15:00 AM 15.7 60.26 0.121 7.71 3.37 10.25
5/22/2021 9:30:00 AM 15.79 60.422 0.121 7.73 3 10.31
5/22/2021 9:45:00 AM 15.9 60.62 0.121 7.77 3.07 10.33
5/22/2021 10:00:00 AM 15.93 60.674 0.121 7.73 3.13 10.3
5/22/2021 10:15:00 AM 16.04 60.872 0.121 7.79 3.18 10.35
5/22/2021 10:30:00 AM 16.14 61.052 0.121 7.75 2.96 10.3
5/22/2021 10:45:00 AM 16.28 61.304 0.121 7.8 3.25 10.31
5/22/2021 11:00:00 AM 16.3 61.34 0.12 7.75 2.91 10.26
5/22/2021 11:15:00 AM 16.42 61.556 0.12 7.8 3.24 10.26
5/22/2021 11:30:00 AM 16.51 61.718 0.12 7.84 2.98 10.28
5/22/2021 11:45:00 AM 16.54 61.772 0.12 7.82 2.95 10.25
5/22/2021 12:00:00 PM 16.59 61.862 0.12 7.81 3.15 10.23
5/22/2021 12:15:00 PM 16.74 62.132 0.12 7.84 3.1 10.23
5/22/2021 12:30:00 PM 16.99 62.582 0.12 7.87 3.41 10.23
5/22/2021 12:45:00 PM 17.13 62.834 0.12 7.8 2.96 10.09
5/22/2021 1:00:00 PM 17.42 63.356 0.12 7.86 3.12 10.16
5/22/2021 1:15:00 PM 17.48 63.464 0.12 7.92 3.03 10.12
5/22/2021 1:30:00 PM 17.51 63.518 0.12 7.93 3.04 10.13
5/22/2021 1:45:00 PM 17.52 63.536 0.12 7.89 3.03 10.06
5/22/2021 2:00:00 PM 17.61 63.698 0.119 7.87 3.19 10.03
5/22/2021 2:15:00 PM 17.79 64.022 0.119 7.9 3.17 10.02
5/22/2021 2:30:00 PM 17.87 64.166 0.12 7.85 3.02 10
5/22/2021 2:45:00 PM 17.94 64.292 0.119 7.84 3.25 9.95
5/22/2021 3:00:00 PM 18.03 64.454 0.12 7.88 3.09 9.96
5/22/2021 3:15:00 PM 18.04 64.472 0.119 7.88 3.13 9.91
5/22/2021 3:30:00 PM 18.15 64.67 0.12 7.9 3.25 9.92
5/22/2021 3:45:00 PM 18.21 64.778 0.12 7.92 3.57 9.89
5/22/2021 4:00:00 PM 18.24 64.832 0.12 7.95 3.27 9.86
5/22/2021 4:15:00 PM 18.17 64.706 0.12 7.81 5.7 9.76
5/22/2021 4:30:00 PM 18.23 64.814 0.12 7.84 3.21 9.77
5/22/2021 4:45:00 PM 18.3 64.94 0.12 7.87 3.26 9.77
5/22/2021 5:00:00 PM 18.33 64.994 0.12 7.86 3.41 9.74
5/22/2021 5:15:00 PM 18.32 64.976 0.12 7.83 3.03 9.7
5/22/2021 5:30:00 PM 18.35 65.03 0.12 7.84 3.74 9.7
5/22/2021 5:45:00 PM 18.4 65.12 0.12 7.88 3.58 9.72
5/22/2021 6:00:00 PM 18.33 64.994 0.12 7.83 3.64 9.63
5/22/2021 6:15:00 PM 18.28 64.904 0.121 7.81 3.43 9.58
5/22/2021 6:30:00 PM 18.23 64.814 0.121 7.78 3.44 9.51
5/22/2021 6:45:00 PM 18.18 64.724 0.121 7.74 3.37 9.5
5/22/2021 7:00:00 PM 18.14 64.652 0.121 7.72 3.22 9.45
5/22/2021 7:15:00 PM 18.03 64.454 0.121 7.67 3.43 9.39
5/22/2021 7:30:00 PM 18.01 64.418 0.121 7.66 4.42 9.35
5/22/2021 7:45:00 PM 17.99 64.382 0.121 7.67 3.85 9.24
5/22/2021 8:00:00 PM 17.95 64.31 0.122 7.65 3.42 9.28
5/22/2021 8:15:00 PM 17.84 64.112 0.122 7.61 3.36 9.21
5/22/2021 8:30:00 PM 17.79 64.022 0.122 7.58 3.41 9.19
5/22/2021 8:45:00 PM 17.71 63.878 0.122 7.56 4.19 9.17
5/22/2021 9:00:00 PM 17.65 63.77 0.122 7.56 3.55 9.02
5/22/2021 9:15:00 PM 17.57 63.626 0.123 7.55 3.27 9.18
5/22/2021 9:30:00 PM 17.54 63.572 0.122 7.57 3.34 9.21
5/22/2021 9:45:00 PM 17.43 63.374 0.123 7.55 3.38 9.19
5/22/2021 10:00:00 PM 17.37 63.266 0.123 7.55 3.68 9.23
5/22/2021 10:15:00 PM 17.32 63.176 0.123 7.57 3.61 9.27
5/22/2021 10:30:00 PM 17.26 63.068 0.123 7.57 3.67 9.29
5/22/2021 10:45:00 PM 17.21 62.978 0.123 7.57 3.64 9.28
5/22/2021 11:00:00 PM 17.17 62.906 0.123 7.58 4.44 9.31
5/22/2021 11:15:00 PM 17.11 62.798 0.123 7.57 4.37 9.31
5/22/2021 11:30:00 PM 17.06 62.708 0.123 7.56 3.35 9.29
5/22/2021 11:45:00 PM 17.03 62.654 0.123 7.57 3.57 9.31
5/23/2021 12:00:00 AM 16.97 62.546 0.123 7.55 4.59 9.26
5/23/2021 12:15:00 AM 16.88 62.384 0.123 7.52 3.73 9.13
5/23/2021 12:30:00 AM 16.87 62.366 0.123 7.53 3.66 9.32
5/23/2021 12:45:00 AM 16.86 62.348 0.123 7.55 3.48 9.29
5/23/2021 1:00:00 AM 16.78 62.204 0.123 7.52 3.64 9.24
5/23/2021 1:15:00 AM 16.77 62.186 0.124 7.53 3.58 9.33
5/23/2021 1:30:00 AM 16.75 62.15 0.123 7.54 3.51 9.34
5/23/2021 1:45:00 AM 16.65 61.97 0.124 7.51 3.53 9.31
5/23/2021 2:00:00 AM 16.62 61.916 0.123 7.52 6.8 9.27
5/23/2021 2:15:00 AM 16.62 61.916 0.124 7.53 3.57 9.35
5/23/2021 2:30:00 AM 16.57 61.826 0.123 7.52 3.6 9.29
5/23/2021 2:45:00 AM 16.55 61.79 0.124 7.52 3.44 9.38
5/23/2021 3:00:00 AM 16.52 61.736 0.124 7.52 4.12 9.37
5/23/2021 3:15:00 AM 16.47 61.646 0.124 7.5 3.46 9.38
5/23/2021 3:30:00 AM 16.4 61.52 0.123 7.49 3.25 9.34
5/23/2021 3:45:00 AM 16.41 61.538 0.124 7.53 3.43 9.39
5/23/2021 4:00:00 AM 16.31 61.358 0.124 7.51 5.49 9.24
5/23/2021 4:15:00 AM 16.29 61.322 0.125 7.54 3.9 9.46
5/23/2021 4:30:00 AM 16.23 61.214 0.124 7.53 3.8 9.45
5/23/2021 4:45:00 AM 16.2 61.16 0.124 7.54 3.45 9.48
5/23/2021 5:00:00 AM 16.17 61.106 0.124 7.55 4.11 9.49
5/23/2021 5:15:00 AM 16.11 60.998 0.124 7.53 3.71 9.48
5/23/2021 5:30:00 AM 16.09 60.962 0.124 7.54 3.6 9.51
5/23/2021 5:45:00 AM 16.03 60.854 0.124 7.54 3.41 9.51
5/23/2021 6:00:00 AM 16.01 60.818 0.124 7.56 3.82 9.55
5/23/2021 6:15:00 AM 15.98 60.764 0.124 7.57 3.46 9.62
5/23/2021 6:30:00 AM 15.96 60.728 0.124 7.57 3.19 9.63
5/23/2021 6:45:00 AM 15.98 60.764 0.124 7.58 3.51 9.63
5/23/2021 7:00:00 AM 15.94 60.692 0.124 7.57 3.51 9.63
5/23/2021 7:15:00 AM 15.99 60.782 0.124 7.61 3.6 9.74
5/23/2021 7:30:00 AM 16 60.8 0.124 7.62 3.41 9.81
5/23/2021 7:45:00 AM 16 60.8 0.124 7.63 3.48 9.81
5/23/2021 8:00:00 AM 16.06 60.908 0.124 7.66 3.4 9.87
5/23/2021 8:15:00 AM 16.06 60.908 0.124 7.65 5.66 9.9
5/23/2021 8:30:00 AM 16.08 60.944 0.123 7.64 3.27 9.9
5/23/2021 8:45:00 AM 16.2 61.16 0.123 7.71 3.1 9.97
5/23/2021 9:00:00 AM 16.3 61.34 0.123 7.71 3.41 9.93
5/23/2021 9:15:00 AM 16.38 61.484 0.123 7.67 3.28 9.89
5/23/2021 9:30:00 AM 16.58 61.844 0.123 7.72 3.33 9.93
5/23/2021 9:45:00 AM 16.72 62.096 0.123 7.74 3.02 9.95
5/23/2021 10:00:00 AM 16.84 62.312 0.123 7.73 2.95 9.92
5/23/2021 10:15:00 AM 16.96 62.528 0.123 7.74 3.56 9.9
5/23/2021 10:30:00 AM 17.16 62.888 0.123 7.78 3.14 9.9
5/23/2021 10:45:00 AM 17.37 63.266 0.122 7.74 3.02 9.72
5/23/2021 11:00:00 AM 17.32 63.176 0.122 7.66 3.33 9.73
5/23/2021 11:15:00 AM 17.77 63.986 0.123 7.83 3.15 9.86
5/23/2021 11:30:00 AM 17.89 64.202 0.122 7.76 3.09 9.81
5/23/2021 11:45:00 AM 18.04 64.472 0.123 7.86 3.06 9.87
5/23/2021 12:00:00 PM 18.03 64.454 0.122 7.83 3.11 9.85
5/23/2021 12:15:00 PM 18.15 64.67 0.122 7.78 3.02 9.79
5/23/2021 12:30:00 PM 18.31 64.958 0.122 7.84 3.13 9.8
5/23/2021 12:45:00 PM 18.37 65.066 0.122 7.83 3.59 9.67
5/23/2021 1:00:00 PM 18.51 65.318 0.122 7.87 3.31 9.74
5/23/2021 1:15:00 PM 18.53 65.354 0.122 7.82 3.17 9.69
5/23/2021 1:30:00 PM 18.54 65.372 0.122 7.81 3.29 9.67
5/23/2021 1:45:00 PM 18.54 65.372 0.122 7.86 3.15 9.61
5/23/2021 2:00:00 PM 18.68 65.624 0.122 7.81 3.54 9.63
5/23/2021 2:15:00 PM 18.97 66.146 0.122 7.83 3.27 9.63
5/23/2021 2:30:00 PM 19.08 66.344 0.122 7.79 3.45 9.61
5/23/2021 2:45:00 PM 19.28 66.704 0.122 7.86 3.66 9.6
5/23/2021 3:00:00 PM 19.35 66.83 0.122 7.84 3.67 9.54
5/23/2021 3:15:00 PM 19.36 66.848 0.122 7.83 3.45 9.5
5/23/2021 3:30:00 PM 19.48 67.064 0.122 7.89 3.06 9.55
5/23/2021 3:45:00 PM 19.36 66.848 0.122 7.74 3.13 9.45
5/23/2021 4:00:00 PM 19.42 66.956 0.122 7.78 3.21 9.43
5/23/2021 4:15:00 PM 19.48 67.064 0.121 7.79 3.13 9.39
5/23/2021 4:30:00 PM 19.57 67.226 0.122 7.85 3.41 9.36
5/23/2021 4:45:00 PM 19.48 67.064 0.122 7.76 3.31 9.38
5/23/2021 5:00:00 PM 19.55 67.19 0.122 7.78 3.15 9.26
5/23/2021 5:15:00 PM 19.44 66.992 0.122 7.73 3.4 9.23
5/23/2021 5:30:00 PM 19.53 67.154 0.122 7.77 3.25 9.31
5/23/2021 5:45:00 PM 19.57 67.226 0.122 7.77 3.39 9.22
5/23/2021 6:00:00 PM 19.51 67.118 0.123 7.74 3.84 9.17
5/23/2021 6:15:00 PM 19.42 66.956 0.123 7.73 3.29 9.12
5/23/2021 6:30:00 PM 19.27 66.686 0.123 7.67 3.49 9.01
5/23/2021 6:45:00 PM 19.1 66.38 0.123 7.61 3.49 8.91
5/23/2021 7:00:00 PM 19.11 66.398 0.124 7.64 3.23 8.92
5/23/2021 7:15:00 PM 19.03 66.254 0.123 7.64 3.45 8.92
5/23/2021 7:30:00 PM 18.81 65.858 0.123 7.54 3.35 8.76
5/23/2021 7:45:00 PM 18.79 65.82201 0.124 7.61 3.45 8.87
5/23/2021 8:00:00 PM 18.7 65.66 0.124 7.61 3.35 8.97
5/23/2021 8:15:00 PM 18.41 65.138 0.124 7.57 3.21 8.9
5/23/2021 8:30:00 PM 18.29 64.922 0.124 7.55 3.88 8.88
5/23/2021 8:45:00 PM 18.3 64.94 0.124 7.62 4.27 9.03
5/23/2021 9:00:00 PM 18.14 64.652 0.125 7.59 3.66 9
5/23/2021 9:15:00 PM 17.97 64.346 0.125 7.55 4.32 8.98
5/23/2021 9:30:00 PM 17.91 64.238 0.125 7.58 3.58 9.01
5/23/2021 9:45:00 PM 17.72 63.896 0.125 7.55 3.76 9.02
5/23/2021 10:00:00 PM 17.63 63.734 0.125 7.58 3.78 9.02
5/23/2021 10:15:00 PM 17.56 63.608 0.125 7.61 9.62 9.19
5/23/2021 10:30:00 PM 17.36 63.248 0.125 7.56 3.53 9.13
5/23/2021 10:45:00 PM 17.31 63.158 0.125 7.61 3.61 9.25
5/23/2021 11:00:00 PM 17.2 62.96 0.125 7.61 3.37 9.26
5/23/2021 11:15:00 PM 17.08 62.744 0.125 7.61 3.72 9.27
5/23/2021 11:30:00 PM 16.97 62.546 0.125 7.6 3.4 9.3
5/23/2021 11:45:00 PM 16.84 62.312 0.125 7.58 4.24 9.3
5/24/2021 12:00:00 AM 16.77 62.186 0.125 7.59 3.66 9.36
5/24/2021 12:15:00 AM 16.67 62.006 0.125 7.59 3.87 9.36
5/24/2021 12:30:00 AM 16.6 61.88 0.125 7.61 3.82 9.41
5/24/2021 12:45:00 AM 16.51 61.718 0.126 7.61 4.8 9.34
5/24/2021 1:00:00 AM 16.41 61.538 0.126 7.59 3.6 9.39
5/24/2021 1:15:00 AM 16.29 61.322 0.126 7.58 3.64 9.42
5/24/2021 1:30:00 AM 16.2 61.16 0.125 7.58 3.55 9.44
5/24/2021 1:45:00 AM 16.12 61.016 0.126 7.59 3.61 9.5
5/24/2021 2:00:00 AM 16.03 60.854 0.126 7.6 3.65 9.53
5/24/2021 2:15:00 AM 15.94 60.692 0.126 7.6 3.37 9.56
5/24/2021 2:30:00 AM 15.85 60.53 0.126 7.6 3.45 9.57
5/24/2021 2:45:00 AM 15.74 60.332 0.126 7.57 3.5 9.52
5/24/2021 3:00:00 AM 15.72 60.296 0.126 7.62 3.56 9.62
5/24/2021 3:15:00 AM 15.64 60.152 0.126 7.6 6.38 9.62
5/24/2021 3:30:00 AM 15.57 60.026 0.126 7.6 4.03 9.63
5/24/2021 3:45:00 AM 15.49 59.882 0.126 7.59 3.67 9.63
5/24/2021 4:00:00 AM 15.44 59.792 0.126 7.59 3.5 9.65
5/24/2021 4:15:00 AM 15.34 59.612 0.126 7.55 3.36 9.63
5/24/2021 4:30:00 AM 15.32 59.576 0.126 7.59 3.62 9.7
5/24/2021 4:45:00 AM 15.23 59.414 0.126 7.56 3.66 9.66
5/24/2021 5:00:00 AM 15.21 59.378 0.126 7.61 3.8 9.74
5/24/2021 5:15:00 AM 15.1 59.18 0.126 7.56 3.62 9.67
5/24/2021 5:30:00 AM 15.09 59.162 0.126 7.59 3.47 9.74
5/24/2021 5:45:00 AM 15.05 59.09 0.126 7.59 3.41 9.74
5/24/2021 6:00:00 AM 14.99 58.982 0.126 7.59 3.46 9.76
5/24/2021 6:15:00 AM 14.91 58.838 0.126 7.57 3.89 9.76
5/24/2021 6:30:00 AM 14.91 58.838 0.126 7.61 3.35 9.88
5/24/2021 6:45:00 AM 14.88 58.784 0.126 7.62 3.29 9.95
5/24/2021 7:00:00 AM 14.83 58.694 0.126 7.61 3.29 9.99
5/24/2021 7:15:00 AM 14.87 58.766 0.126 7.67 3.2 10.12
5/24/2021 7:30:00 AM 14.85 58.73 0.125 7.65 3.32 10.09
5/24/2021 7:45:00 AM 14.86 58.748 0.126 7.69 3.17 10.16
5/24/2021 8:00:00 AM 14.83 58.694 0.125 7.66 3.08 10.16
5/24/2021 8:15:00 AM 14.85 58.73 0.125 7.66 3.32 10.17
5/24/2021 8:30:00 AM 14.87 58.766 0.125 7.66 3.24 10.2
5/24/2021 8:45:00 AM 14.98 58.964 0.125 7.73 3.1 10.29
5/24/2021 9:00:00 AM 15.03 59.054 0.125 7.71 3.11 10.24
5/24/2021 9:15:00 AM 15.09 59.162 0.125 7.7 3.26 10.28
5/24/2021 9:30:00 AM 15.28 59.504 0.125 7.73 3.38 10.31
5/24/2021 9:45:00 AM 15.39 59.702 0.125 7.74 3.23 10.28
5/24/2021 10:00:00 AM 15.55 59.99 0.125 7.78 3.6 10.33
5/24/2021 10:15:00 AM 15.59 60.062 0.125 7.75 3.23 10.31
5/24/2021 10:30:00 AM 15.61 60.098 0.125 7.72 3.65 10.28
5/24/2021 10:45:00 AM 15.74 60.332 0.124 7.77 3.35 10.3
5/24/2021 11:00:00 AM 16 60.8 0.124 7.84 3.26 10.36
5/24/2021 11:15:00 AM 16.11 60.998 0.124 7.83 3.1 10.36
5/24/2021 11:30:00 AM 16.08 60.944 0.124 7.74 3.27 10.2
5/24/2021 11:45:00 AM 16.3 61.34 0.124 7.77 3.24 10.27
5/24/2021 12:00:00 PM 16.64 61.952 0.124 7.86 3.18 10.29
5/24/2021 12:15:00 PM 16.63 61.934 0.124 7.76 3.2 10.2
5/24/2021 12:30:00 PM 16.67 62.006 0.124 7.83 3.6 10.21
5/24/2021 12:45:00 PM 16.71 62.078 0.124 7.86 3.21 10.22
5/24/2021 1:00:00 PM 16.73 62.114 0.124 7.87 3.31 10.22
5/24/2021 1:15:00 PM 16.72 62.096 0.123 7.88 3.14 10.21
5/24/2021 1:30:00 PM 16.7 62.06 0.124 7.86 3.24 10.15
5/24/2021 1:45:00 PM 16.66 61.988 0.124 7.88 3.36 10.13
5/24/2021 2:00:00 PM 16.6 61.88 0.124 7.83 3.19 10.11
5/24/2021 2:15:00 PM 16.49 61.682 0.123 7.76 3.37 9.96
5/24/2021 2:30:00 PM 16.44 61.592 0.124 7.73 3.24 9.9
5/24/2021 2:45:00 PM 16.4 61.52 0.124 7.73 3.39 9.99
5/24/2021 3:00:00 PM 16.41 61.538 0.124 7.72 3.14 9.96
5/24/2021 3:15:00 PM 16.44 61.592 0.124 7.76 3.06 10.04
5/24/2021 3:30:00 PM 16.36 61.448 0.124 7.71 3.21 9.84
5/24/2021 3:45:00 PM 16.38 61.484 0.125 7.77 3.17 9.92
5/24/2021 4:00:00 PM 16.34 61.412 0.125 7.75 3.49 9.75
5/24/2021 4:15:00 PM 16.28 61.304 0.125 7.74 3.18 9.91
5/24/2021 4:30:00 PM 16.16 61.088 0.124 7.66 3.2 9.87
5/24/2021 4:45:00 PM 16.16 61.088 0.125 7.71 3.39 9.88
5/24/2021 5:00:00 PM 16.11 60.998 0.125 7.69 3.26 9.82
5/24/2021 5:15:00 PM 15.96 60.728 0.125 7.62 3.64 9.73
5/24/2021 5:30:00 PM 16 60.8 0.126 7.65 3.21 9.77
5/24/2021 5:45:00 PM 15.94 60.692 0.126 7.66 3.27 9.68
5/24/2021 6:00:00 PM 15.88 60.584 0.126 7.62 3.66 9.63
5/24/2021 6:15:00 PM 15.81 60.458 0.126 7.62 3.79 9.61
5/24/2021 6:30:00 PM 15.85 60.53 0.126 7.68 3.29 9.77
5/24/2021 6:45:00 PM 15.73 60.314 0.126 7.6 3.89 9.66
5/24/2021 7:00:00 PM 15.67 60.206 0.126 7.59 3.26 9.64
5/24/2021 7:15:00 PM 15.69 60.242 0.127 7.63 4.3 9.68
5/24/2021 7:30:00 PM 15.61 60.098 0.127 7.6 3.25 9.62
5/24/2021 7:45:00 PM 15.62 60.116 0.127 7.63 3.19 9.69
5/24/2021 8:00:00 PM 15.5 59.9 0.127 7.57 3.15 9.46
5/24/2021 8:15:00 PM 15.52 59.936 0.128 7.62 3.19 9.67
5/24/2021 8:30:00 PM 15.45 59.81 0.127 7.59 3.27 9.59
5/24/2021 8:45:00 PM 15.38 59.684 0.128 7.56 3.29 9.46
5/24/2021 9:00:00 PM 15.39 59.702 0.128 7.6 3.52 9.62
5/24/2021 9:15:00 PM 15.27 59.486 0.128 7.56 3.35 9.57
5/24/2021 9:30:00 PM 15.28 59.504 0.128 7.59 3.37 9.61
5/24/2021 9:45:00 PM 15.27 59.486 0.128 7.61 3.5 9.68
5/24/2021 10:00:00 PM 15.22 59.396 0.128 7.6 3.48 9.68
5/24/2021 10:15:00 PM 15.17 59.306 0.129 7.59 3.52 9.69
5/24/2021 10:30:00 PM 15.14 59.252 0.129 7.59 3.42 9.68
5/24/2021 10:45:00 PM 15.1 59.18 0.129 7.6 3.29 9.45
5/24/2021 11:00:00 PM 15.06 59.108 0.129 7.59 3.64 9.69
5/24/2021 11:15:00 PM 14.97 58.946 0.129 7.57 3.31 9.56
5/24/2021 11:30:00 PM 14.97 58.946 0.129 7.58 3.37 9.48
5/24/2021 11:45:00 PM 14.95 58.91 0.129 7.61 3.21 9.75
5/25/2021 12:00:00 AM 14.89 58.802 0.129 7.58 3.28 9.74
5/25/2021 12:15:00 AM 14.86 58.748 0.129 7.58 5.14 9.78
5/25/2021 12:30:00 AM 14.84 58.712 0.129 7.58 3.6 9.75
5/25/2021 12:45:00 AM 14.77 58.586 0.129 7.56 3.54 9.61
5/25/2021 1:00:00 AM 14.76 58.568 0.129 7.58 3.96 9.74
5/25/2021 1:15:00 AM 14.68 58.424 0.129 7.54 4.21 9.71
5/25/2021 1:30:00 AM 14.66 58.388 0.129 7.57 3.73 9.78
5/25/2021 1:45:00 AM 14.65 58.37 0.129 7.58 3.87 9.79
5/25/2021 2:00:00 AM 14.59 58.262 0.129 7.56 3.38 9.77
5/25/2021 2:15:00 AM 14.6 58.28 0.129 7.59 3.53 9.85
5/25/2021 2:30:00 AM 14.58 58.244 0.13 7.6 3.65 9.77
5/25/2021 2:45:00 AM 14.55 58.19 0.13 7.59 3.47 9.83
5/25/2021 3:00:00 AM 14.47 58.046 0.129 7.56 3.68 9.79
5/25/2021 3:15:00 AM 14.49 58.082 0.13 7.6 3.47 9.87
5/25/2021 3:30:00 AM 14.47 58.046 0.13 7.6 3.52 9.88
5/25/2021 3:45:00 AM 14.42 57.956 0.129 7.58 3.24 9.85
5/25/2021 4:00:00 AM 14.39 57.902 0.13 7.58 3.45 9.82
5/25/2021 4:15:00 AM 14.34 57.812 0.129 7.57 3.71 9.67
5/25/2021 4:30:00 AM 14.34 57.812 0.13 7.58 3.42 9.86
5/25/2021 4:45:00 AM 14.34 57.812 0.13 7.6 5.93 9.88
5/25/2021 5:00:00 AM 14.29 57.722 0.13 7.58 3.37 9.85
5/25/2021 5:15:00 AM 14.28 57.704 0.13 7.58 4.11 9.89
5/25/2021 5:30:00 AM 14.26 57.668 0.13 7.59 3.36 9.81
5/25/2021 5:45:00 AM 14.23 57.614 0.13 7.58 3.47 9.7
5/25/2021 6:00:00 AM 14.23 57.614 0.13 7.6 3.35 9.94
5/25/2021 6:15:00 AM 14.22 57.596 0.13 7.6 3.37 9.95
5/25/2021 6:30:00 AM 14.2 57.56 0.13 7.6 3.23 9.98
5/25/2021 6:45:00 AM 14.17 57.506 0.13 7.58 3.49 9.96
5/25/2021 7:00:00 AM 14.2 57.56 0.13 7.62 2.99 10.05
5/25/2021 7:15:00 AM 14.18 57.524 0.13 7.61 3.02 10.03
5/25/2021 7:30:00 AM 14.16 57.488 0.129 7.61 3.15 10.12
5/25/2021 7:45:00 AM 14.2 57.56 0.13 7.65 3.03 10.2
5/25/2021 8:00:00 AM 14.2 57.56 0.129 7.64 3.01 10.2
5/25/2021 8:15:00 AM 14.27 57.686 0.129 7.71 2.96 10.37
5/25/2021 8:30:00 AM 14.28 57.704 0.129 7.71 3.21 10.35
5/25/2021 8:45:00 AM 14.32 57.776 0.129 7.69 3.08 10.37
5/25/2021 9:00:00 AM 14.36 57.848 0.129 7.72 3.09 10.42
5/25/2021 9:15:00 AM 14.43 57.974 0.129 7.75 3.63 10.42
5/25/2021 9:30:00 AM 14.47 58.046 0.129 7.76 2.98 10.5
5/25/2021 9:45:00 AM 14.56 58.208 0.129 7.79 3.08 10.42
5/25/2021 10:00:00 AM 14.57 58.226 0.128 7.73 3.09 10.43
5/25/2021 10:15:00 AM 14.79 58.622 0.129 7.76 3.07 10.49
5/25/2021 10:30:00 AM 14.95 58.91 0.128 7.7 3.07 10.42
5/25/2021 10:45:00 AM 15.25 59.45 0.128 7.78 3.13 10.43
5/25/2021 11:00:00 AM 15.35 59.63 0.128 7.7 3.06 10.37
5/25/2021 11:15:00 AM 15.63 60.134 0.128 7.74 3.04 10.32
5/25/2021 11:30:00 AM 15.93 60.674 0.127 7.78 4.94 10.31
5/25/2021 11:45:00 AM 16.12 61.016 0.128 7.77 3.44 10.26
5/25/2021 12:00:00 PM 16.16 61.088 0.128 7.77 3.14 10.27
5/25/2021 12:15:00 PM 16.34 61.412 0.127 7.83 3.34 10.27
5/25/2021 12:30:00 PM 16.53 61.754 0.127 7.82 3.02 10.19
5/25/2021 12:45:00 PM 16.71 62.078 0.127 7.77 3.07 10.13
5/25/2021 1:00:00 PM 17.02 62.636 0.127 7.84 3.22 10.17
5/25/2021 1:15:00 PM 17.27 63.086 0.127 7.83 3.08 10.09
5/25/2021 1:30:00 PM 17.44 63.392 0.127 7.84 3.42 10.1
5/25/2021 1:45:00 PM 17.72 63.896 0.127 7.88 3.79 9.83
5/25/2021 2:00:00 PM 17.8 64.04 0.127 7.84 4.23 9.84
5/25/2021 2:15:00 PM 17.86 64.148 0.127 7.82 3.5 9.93
5/25/2021 2:30:00 PM 18.11 64.598 0.127 7.9 3.19 9.99
5/25/2021 2:45:00 PM 18.21 64.778 0.127 7.87 3.02 9.92
5/25/2021 3:00:00 PM 18.25 64.85 0.127 7.85 2.99 9.87
5/25/2021 3:15:00 PM 18.25 64.85 0.127 7.85 4.38 9.81
5/25/2021 3:30:00 PM 18.3 64.94 0.127 7.86 3.17 9.79
5/25/2021 3:45:00 PM 18.36 65.048 0.127 7.87 3.11 9.79
5/25/2021 4:00:00 PM 18.38 65.084 0.127 7.87 3.1 9.78
5/25/2021 4:15:00 PM 18.3 64.94 0.127 7.77 3.11 9.7
5/25/2021 4:30:00 PM 18.38 65.084 0.127 7.81 3 9.69
5/25/2021 4:45:00 PM 18.44 65.192 0.127 7.81 3.04 9.69
5/25/2021 5:00:00 PM 18.5 65.3 0.128 7.88 3.01 9.74
5/25/2021 5:15:00 PM 18.43 65.174 0.127 7.79 3.13 9.6
5/25/2021 5:30:00 PM 18.43 65.174 0.127 7.8 3.36 9.58
5/25/2021 5:45:00 PM 18.45 65.21 0.128 7.81 3.2 9.58
5/25/2021 6:00:00 PM 18.39 65.102 0.128 7.76 3.46 9.51
5/25/2021 6:15:00 PM 18.32 64.976 0.128 7.76 3.14 9.43
5/25/2021 6:30:00 PM 18.36 65.048 0.128 7.75 3.17 9.44
5/25/2021 6:45:00 PM 18.27 64.886 0.128 7.73 3.66 9.41
5/25/2021 7:00:00 PM 18.11 64.598 0.129 7.65 3.48 9.3
5/25/2021 7:15:00 PM 18.11 64.598 0.129 7.66 3.62 9.23
5/25/2021 7:30:00 PM 18.08 64.544 0.129 7.67 3.17 9.23
5/25/2021 7:45:00 PM 17.94 64.292 0.129 7.61 3.58 9.09
5/25/2021 8:00:00 PM 18.02 64.436 0.129 7.64 3.34 9.2
5/25/2021 8:15:00 PM 17.94 64.292 0.13 7.63 3.28 9.12
5/25/2021 8:30:00 PM 17.75 63.95 0.13 7.53 3.7 8.82
5/25/2021 8:45:00 PM 17.77 63.986 0.13 7.58 3.47 8.96
5/25/2021 9:00:00 PM 17.68 63.824 0.13 7.56 3.57 9.01
5/25/2021 9:15:00 PM 17.65 63.77 0.13 7.58 3.46 9
5/25/2021 9:30:00 PM 17.52 63.536 0.131 7.54 3.85 8.94
5/25/2021 9:45:00 PM 17.49 63.482 0.131 7.54 6.88 8.95
5/25/2021 10:00:00 PM 17.43 63.374 0.131 7.55 4.04 9.02
5/25/2021 10:15:00 PM 17.38 63.284 0.131 7.56 3.73 9.04
5/25/2021 10:30:00 PM 17.29 63.122 0.132 7.56 3.39 9.03
5/25/2021 10:45:00 PM 17.22 62.996 0.132 7.56 3.82 9.06
5/25/2021 11:00:00 PM 17.16 62.888 0.132 7.57 3.7 9.09
5/25/2021 11:15:00 PM 17.06 62.708 0.132 7.55 3.72 9.11
5/25/2021 11:30:00 PM 16.97 62.546 0.132 7.54 4.15 9.09
5/25/2021 11:45:00 PM 16.87 62.366 0.132 7.54 3.68 9.07
5/26/2021 12:00:00 AM 16.72 62.096 0.132 7.5 3.82 9.07
5/26/2021 12:15:00 AM 16.71 62.078 0.132 7.52 4.23 9.14
5/26/2021 12:30:00 AM 16.65 61.97 0.132 7.52 4.15 9.14
5/26/2021 12:45:00 AM 16.55 61.79 0.133 7.53 3.66 9.2
5/26/2021 1:00:00 AM 16.52 61.736 0.133 7.53 7.24 9.22
5/26/2021 1:15:00 AM 16.44 61.592 0.133 7.51 4.33 9.22
5/26/2021 1:30:00 AM 16.41 61.538 0.133 7.55 3.87 9.29
5/26/2021 1:45:00 AM 16.32 61.376 0.133 7.53 3.48 9.28
5/26/2021 2:00:00 AM 16.24 61.232 0.133 7.53 3.61 9.27
5/26/2021 2:15:00 AM 16.2 61.16 0.133 7.53 3.58 9.32
5/26/2021 2:30:00 AM 16.09 60.962 0.133 7.52 3.64 9.29
5/26/2021 2:45:00 AM 16 60.8 0.133 7.49 3.58 9.21
5/26/2021 3:00:00 AM 16.01 60.818 0.133 7.54 3.58 9.34
5/26/2021 3:15:00 AM 15.94 60.692 0.133 7.53 3.52 9.35
5/26/2021 3:30:00 AM 15.89 60.602 0.133 7.53 3.52 9.33
5/26/2021 3:45:00 AM 15.84 60.512 0.133 7.55 5.61 9.37
5/26/2021 4:00:00 AM 15.76 60.368 0.133 7.53 3.29 9.37
5/26/2021 4:15:00 AM 15.68 60.224 0.133 7.51 4.2 9.29
5/26/2021 4:30:00 AM 15.65 60.17 0.133 7.54 3.65 9.42
5/26/2021 4:45:00 AM 15.56 60.008 0.133 7.51 3.6 9.37
5/26/2021 5:00:00 AM 15.53 59.954 0.133 7.54 3.69 9.38
5/26/2021 5:15:00 AM 15.47 59.846 0.134 7.53 4.13 9.43
5/26/2021 5:30:00 AM 15.43 59.774 0.134 7.55 3.66 9.5
5/26/2021 5:45:00 AM 15.3 59.54 0.133 7.5 6.42 9.26
5/26/2021 6:00:00 AM 15.3 59.54 0.133 7.54 4.31 9.5
5/26/2021 6:15:00 AM 15.28 59.504 0.133 7.53 3.84 9.46
5/26/2021 6:30:00 AM 15.24 59.432 0.133 7.54 4.35 9.57
5/26/2021 6:45:00 AM 15.21 59.378 0.133 7.53 3.37 9.62
5/26/2021 7:00:00 AM 15.21 59.378 0.133 7.55 5.54 9.49
5/26/2021 7:15:00 AM 15.22 59.396 0.133 7.58 3.86 9.75
5/26/2021 7:30:00 AM 15.25 59.45 0.133 7.6 3.43 9.81
5/26/2021 7:45:00 AM 15.26 59.468 0.133 7.59 3.24 9.66
5/26/2021 8:00:00 AM 15.3 59.54 0.133 7.61 3.3 9.87
5/26/2021 8:15:00 AM 15.33 59.594 0.133 7.61 3.16 9.83
5/26/2021 8:30:00 AM 15.43 59.774 0.132 7.66 3.26 10.02
5/26/2021 8:45:00 AM 15.51 59.918 0.132 7.65 3.06 9.97
5/26/2021 9:00:00 AM 15.61 60.098 0.133 7.66 3.18 10.02
5/26/2021 9:15:00 AM 15.77 60.386 0.132 7.67 3.14 10.03
5/26/2021 9:30:00 AM 15.96 60.728 0.132 7.7 3.22 10.05
5/26/2021 9:45:00 AM 16.18 61.124 0.129 7.72 4.49 10.08
5/26/2021 10:00:00 AM 16.31 61.358 0.132 7.76 3.67 10.1
5/26/2021 10:15:00 AM 16.35 61.43 0.132 7.77 3.25 10.07
5/26/2021 10:30:00 AM 16.38 61.484 0.131 7.79 3.28 10.08
5/26/2021 10:45:00 AM 16.45 61.61 0.132 7.76 3.18 10.06
5/26/2021 11:00:00 AM 16.43 61.574 0.131 7.72 3.66 9.97
5/26/2021 11:15:00 AM 16.61 61.898 0.131 7.73 3.65 10.03
5/26/2021 11:30:00 AM 16.96 62.528 0.131 7.8 3.14 10.03
5/26/2021 11:45:00 AM 17.24 63.032 0.131 7.73 3.21 9.86
5/26/2021 12:00:00 PM 17.7 63.86 0.131 7.86 3.16 9.95
5/26/2021 12:15:00 PM 18.04 64.472 0.131 7.89 3.02 9.96
5/26/2021 12:30:00 PM 18.24 64.832 0.131 7.86 3.18 9.89
5/26/2021 12:45:00 PM 18.46 65.228 0.13 7.88 3.21 9.78
5/26/2021 1:00:00 PM 18.68 65.624 0.131 7.84 3.29 9.57
5/26/2021 1:15:00 PM 18.99 66.182 0.129 7.93 3.2 9.72
5/26/2021 1:30:00 PM 19.17 66.506 0.13 7.92 3.25 9.65
5/26/2021 1:45:00 PM 19.4 66.92 0.13 7.95 3.17 9.67
5/26/2021 2:00:00 PM 19.54 67.172 0.13 7.94 3.46 9.6
5/26/2021 2:15:00 PM 19.51 67.118 0.13 7.89 3.16 9.49
5/26/2021 2:30:00 PM 19.63 67.334 0.13 7.91 3.18 9.51
5/26/2021 2:45:00 PM 19.76 67.568 0.13 7.94 7.03 9.4
5/26/2021 3:00:00 PM 19.7 67.46 0.13 7.87 3.48 9.13
5/26/2021 3:15:00 PM 19.74 67.532 0.13 7.9 3.09 9.36
5/26/2021 3:30:00 PM 19.83 67.694 0.131 7.91 3.43 9.31
5/26/2021 3:45:00 PM 19.79 67.622 0.13 7.93 3.32 9.3
5/26/2021 4:00:00 PM 19.69 67.442 0.13 7.85 3.25 9.26
5/26/2021 4:15:00 PM 19.62 67.316 0.13 7.85 3.28 9.25
5/26/2021 4:30:00 PM 19.46 67.028 0.13 7.78 3.21 9.05
5/26/2021 4:45:00 PM 19.28 66.704 0.131 7.72 3.7 8.95
5/26/2021 5:00:00 PM 19.37 66.866 0.131 7.74 3.43 9.08
5/26/2021 5:15:00 PM 19.34 66.812 0.131 7.76 4.22 9.15
5/26/2021 5:30:00 PM 19.36 66.848 0.131 7.79 3.21 9.19
5/26/2021 5:45:00 PM 19.41 66.938 0.131 7.79 3.36 9.22
5/26/2021 6:00:00 PM 19.34 66.812 0.131 7.77 3.53 9.18
5/26/2021 6:15:00 PM 19.34 66.812 0.129 7.77 3.77 9.19
5/26/2021 6:30:00 PM 19.14 66.452 0.131 7.69 3.34 9.03
5/26/2021 6:45:00 PM 19.04 66.272 0.132 7.67 3.5 8.93
5/26/2021 7:00:00 PM 19.2 66.56 0.127 7.67 10.02 8.8
5/26/2021 7:15:00 PM 19.19 66.542 0.126 7.6 17.51 8.71
5/26/2021 7:30:00 PM 18.96 66.128 0.128 7.57 10.51 8.68
5/26/2021 7:45:00 PM 18.84 65.912 0.129 7.6 8.01 8.74
5/26/2021 8:00:00 PM 18.69 65.642 0.129 7.58 11.45 8.77
5/26/2021 8:15:00 PM 18.66 65.588 0.128 7.61 6.94 8.82
5/26/2021 8:30:00 PM 18.51 65.318 0.128 7.56 5.23 8.73
5/26/2021 8:45:00 PM 18.46 65.228 0.128 7.58 5.14 8.81
5/26/2021 9:00:00 PM 18.38 65.084 0.128 7.58 5.01 8.77
5/26/2021 9:15:00 PM 18.29 64.922 0.128 7.58 7.85 8.8
5/26/2021 9:30:00 PM 18.2 64.76 0.128 7.56 6.25 8.84
5/26/2021 9:45:00 PM 18.09 64.562 0.129 7.54 4.02 8.85
5/26/2021 10:00:00 PM 18.01 64.418 0.129 7.53 4.83 8.72
5/26/2021 10:15:00 PM 17.96 64.328 0.129 7.55 3.99 8.91
5/26/2021 10:30:00 PM 17.89 64.202 0.129 7.55 4.88 8.93
5/26/2021 10:45:00 PM 17.85 64.13 0.129 7.57 5.34 8.99
5/26/2021 11:00:00 PM 17.76 63.968 0.129 7.56 5.04 9.01
5/26/2021 11:15:00 PM 17.68 63.824 0.129 7.56 4.35 9.01
5/26/2021 11:30:00 PM 17.59 63.662 0.129 7.54 4.41 9.03
5/26/2021 11:45:00 PM 17.54 63.572 0.129 7.53 4.46 9.05
5/27/2021 12:00:00 AM 17.47 63.446 0.129 7.53 4.4 9.06
5/27/2021 12:15:00 AM 17.41 63.338 0.129 7.54 7.63 9.08
5/27/2021 12:30:00 AM 17.36 63.248 0.13 7.55 5.19 9.15
5/27/2021 12:45:00 AM 17.3 63.14 0.13 7.56 4.75 9.18
5/27/2021 1:00:00 AM 17.23 63.014 0.13 7.56 4.7 9.17
5/27/2021 1:15:00 AM 17.19 62.942 0.13 7.58 4.3 9.25
5/27/2021 1:30:00 AM 17.11 62.798 0.129 7.59 4.84 9.23
5/27/2021 1:45:00 AM 17.06 62.708 0.129 7.6 4.31 9.25
5/27/2021 2:00:00 AM 16.99 62.582 0.129 7.61 4.33 9.25
5/27/2021 2:15:00 AM 16.91 62.438 0.129 7.61 3.9 9.29
5/27/2021 2:30:00 AM 16.83 62.294 0.129 7.61 4.54 9.3
5/27/2021 2:45:00 AM 16.77 62.186 0.129 7.63 4.45 9.36
5/27/2021 3:00:00 AM 16.69 62.042 0.129 7.62 5.03 9.34
5/27/2021 3:15:00 AM 16.6 61.88 0.129 7.62 8.68 9.37
5/27/2021 3:30:00 AM 16.54 61.772 0.129 7.63 4.57 9.41
5/27/2021 3:45:00 AM 16.47 61.646 0.128 7.63 4.23 9.43
5/27/2021 4:00:00 AM 16.39 61.502 0.128 7.62 4.3 9.45
5/27/2021 4:15:00 AM 16.33 61.394 0.128 7.63 4.15 9.49
5/27/2021 4:30:00 AM 16.26 61.268 0.129 7.63 4.37 9.52
5/27/2021 4:45:00 AM 16.19 61.142 0.129 7.61 4.46 9.51
5/27/2021 5:00:00 AM 16.15 61.07 0.129 7.62 4.25 9.5
5/27/2021 5:15:00 AM 16.12 61.016 0.129 7.63 4.58 9.54
5/27/2021 5:30:00 AM 16.07 60.926 0.129 7.63 4.09 9.55
5/27/2021 5:45:00 AM 16.01 60.818 0.129 7.63 4.36 9.6
5/27/2021 6:00:00 AM 15.96 60.728 0.129 7.63 4.16 9.61
5/27/2021 6:15:00 AM 15.9 60.62 0.129 7.64 4.44 9.52
5/27/2021 6:30:00 AM 15.87 60.566 0.129 7.65 4.39 9.61
5/27/2021 6:45:00 AM 15.84 60.512 0.128 7.65 5.76 9.7
5/27/2021 7:00:00 AM 15.82 60.476 0.128 7.67 3.91 9.72
5/27/2021 7:15:00 AM 15.81 60.458 0.128 7.67 5.16 9.74
5/27/2021 7:30:00 AM 15.81 60.458 0.128 7.68 3.81 9.77
5/27/2021 7:45:00 AM 15.83 60.494 0.128 7.7 3.56 9.61
5/27/2021 8:00:00 AM 15.88 60.584 0.127 7.72 3.8 9.83
5/27/2021 8:15:00 AM 15.91 60.638 0.127 7.73 3.61 9.89
5/27/2021 8:30:00 AM 15.96 60.728 0.127 7.74 3.94 9.89
5/27/2021 8:45:00 AM 16.01 60.818 0.126 7.75 3.53 9.87
5/27/2021 9:00:00 AM 16.11 60.998 0.126 7.76 3.58 9.83
5/27/2021 9:15:00 AM 16.2 61.16 0.126 7.76 3.5 9.82
5/27/2021 9:30:00 AM 16.35 61.43 0.125 7.78 3.77 9.87
5/27/2021 9:45:00 AM 16.48 61.664 0.125 7.79 4.01 9.89
5/27/2021 10:00:00 AM 16.58 61.844 0.125 7.79 10.54 9.88
5/27/2021 10:15:00 AM 16.71 62.078 0.125 7.81 3.63 9.89
5/27/2021 10:30:00 AM 16.82 62.276 0.125 7.81 3.62 9.84
5/27/2021 10:45:00 AM 16.95 62.51 0.124 7.82 3.46 9.84
5/27/2021 11:00:00 AM 17.13 62.834 0.124 7.84 3.39 9.84
5/27/2021 11:15:00 AM 17.28 63.104 0.124 7.82 3.46 9.82
5/27/2021 11:30:00 AM 17.46 63.428 0.123 7.84 3.62 9.82
5/27/2021 11:45:00 AM 17.62 63.716 0.123 7.84 3.54 9.78
5/27/2021 12:00:00 PM 17.79 64.022 0.123 7.83 3.61 9.74
5/27/2021 12:15:00 PM 17.97 64.346 0.123 7.85 3.53 9.73
5/27/2021 12:30:00 PM 18.09 64.562 0.123 7.84 3.75 9.7
5/27/2021 12:45:00 PM 18.24 64.832 0.122 7.84 3.54 9.65
5/27/2021 1:00:00 PM 18.39 65.102 0.122 7.85 3.76 9.61
5/27/2021 1:15:00 PM 18.51 65.318 0.122 7.83 3.75 9.56
5/27/2021 1:30:00 PM 18.63 65.534 0.122 7.82 7.55 9.56
5/27/2021 1:45:00 PM 18.7 65.66 0.122 7.83 3.43 9.51
5/27/2021 2:00:00 PM 18.84 65.912 0.122 7.86 3.85 9.51
5/27/2021 2:15:00 PM 18.83 65.894 0.121 7.8 4.06 9.45
5/27/2021 2:30:00 PM 18.91 66.038 0.121 7.82 3.87 9.44
5/27/2021 2:45:00 PM 18.96 66.128 0.121 7.83 3.76 9.43
5/27/2021 3:00:00 PM 18.98 66.164 0.121 7.82 3.87 9.42
5/27/2021 3:15:00 PM 19.05 66.29 0.121 7.86 4.27 9.45
5/27/2021 3:30:00 PM 19.05 66.29 0.121 7.85 4.24 9.39
5/27/2021 3:45:00 PM 19.1 66.38 0.121 7.86 3.7 9.41
5/27/2021 4:00:00 PM 19.07 66.326 0.121 7.82 3.55 9.37
5/27/2021 4:15:00 PM 19.08 66.344 0.121 7.8 3.6 9.34
5/27/2021 4:30:00 PM 19.1 66.38 0.121 7.85 3.71 9.36
5/27/2021 4:45:00 PM 19.12 66.416 0.121 7.84 3.69 9.37
5/27/2021 5:00:00 PM 19.1 66.38 0.121 7.83 3.64 9.33
5/27/2021 5:15:00 PM 19.05 66.29 0.121 7.8 3.66 9.31
5/27/2021 5:30:00 PM 18.99 66.182 0.122 7.77 3.76 9.24
5/27/2021 5:45:00 PM 18.98 66.164 0.121 7.79 3.69 9.26
5/27/2021 6:00:00 PM 18.88 65.984 0.121 7.8 4.6 9.27
5/27/2021 6:15:00 PM 18.82 65.876 0.121 7.77 4.28 9.29
5/27/2021 6:30:00 PM 18.73 65.714 0.121 7.76 4.28 9.26
5/27/2021 6:45:00 PM 18.6 65.48 0.121 7.72 3.65 9.21
5/27/2021 7:00:00 PM 18.45 65.21 0.121 7.65 3.65 9.17
5/27/2021 7:15:00 PM 18.35 65.03 0.122 7.66 3.33 9.12
5/27/2021 7:30:00 PM 18.25 64.85 0.122 7.66 3.69 9.16
5/27/2021 7:45:00 PM 18.09 64.562 0.122 7.65 3.64 9.15
5/27/2021 8:00:00 PM 17.99 64.382 0.122 7.65 3.73 9.15
5/27/2021 8:15:00 PM 17.89 64.202 0.122 7.66 3.42 9.21
5/27/2021 8:30:00 PM 17.68 63.824 0.122 7.59 3.35 9.13
5/27/2021 8:45:00 PM 17.59 63.662 0.123 7.62 3.59 9.17
5/27/2021 9:00:00 PM 17.41 63.338 0.123 7.6 4.19 9.19
5/27/2021 9:15:00 PM 17.27 63.086 0.123 7.62 3.7 9.23
5/27/2021 9:30:00 PM 17.12 62.816 0.123 7.62 3.75 9.31
5/27/2021 9:45:00 PM 16.93 62.474 0.123 7.61 4.04 9.31
5/27/2021 10:00:00 PM 16.72 62.096 0.123 7.58 3.89 9.34
5/27/2021 10:15:00 PM 16.62 61.916 0.123 7.6 3.73 9.42
5/27/2021 10:30:00 PM 16.49 61.682 0.124 7.62 4.12 9.42
5/27/2021 10:45:00 PM 16.33 61.394 0.124 7.62 3.7 9.48
5/27/2021 11:00:00 PM 16.13 61.034 0.124 7.57 3.89 9.36
5/27/2021 11:15:00 PM 15.99 60.782 0.124 7.57 3.89 9.5
5/27/2021 11:30:00 PM 15.84 60.512 0.124 7.52 3.83 9.46
5/27/2021 11:45:00 PM 15.75 60.35 0.124 7.55 3.57 9.49
5/28/2021 12:00:00 AM 15.6 60.08 0.125 7.55 3.54 9.45
5/28/2021 12:15:00 AM 15.45 59.81 0.124 7.52 4.59 9.29
5/28/2021 12:30:00 AM 15.34 59.612 0.125 7.53 3.76 9.44
5/28/2021 12:45:00 AM 15.24 59.432 0.125 7.52 4.97 9.59
5/28/2021 1:00:00 AM 15.1 59.18 0.125 7.49 4.32 9.55
5/28/2021 1:15:00 AM 15.08 59.144 0.125 7.54 3.77 9.53
5/28/2021 1:30:00 AM 14.91 58.838 0.125 7.49 3.64 9.39
5/28/2021 1:45:00 AM 14.9 58.82 0.125 7.55 3.69 9.7
5/28/2021 2:00:00 AM 14.77 58.586 0.125 7.52 3.43 9.52
5/28/2021 2:15:00 AM 14.7 58.46 0.126 7.53 3.86 9.7
5/28/2021 2:30:00 AM 14.64 58.352 0.126 7.56 3.91 9.67
5/28/2021 2:45:00 AM 14.56 58.208 0.126 7.55 3.5 9.62
5/28/2021 3:00:00 AM 14.39 57.902 0.126 7.49 3.94 9.65
5/28/2021 3:15:00 AM 14.44 57.992 0.126 7.57 3.72 9.78
5/28/2021 3:30:00 AM 14.35 57.83 0.126 7.55 3.54 9.75
5/28/2021 3:45:00 AM 14.28 57.704 0.126 7.52 4.14 9.64
5/28/2021 4:00:00 AM 14.26 57.668 0.126 7.56 3.81 9.86
5/28/2021 4:15:00 AM 14.23 57.614 0.126 7.58 3.72 9.94
5/28/2021 4:30:00 AM 14.14 57.452 0.126 7.55 6.04 9.87
5/28/2021 4:45:00 AM 14.13 57.434 0.126 7.58 4.01 9.69
5/28/2021 5:00:00 AM 14.04 57.272 0.127 7.54 6.17 9.59
5/28/2021 5:15:00 AM 14 57.2 0.126 7.55 4.68 9.94
5/28/2021 5:30:00 AM 13.97 57.146 0.127 7.58 4 9.92
5/28/2021 5:45:00 AM 13.9 57.02 0.126 7.53 4.82 9.66
5/28/2021 6:00:00 AM 13.87 56.966 0.126 7.56 4.1 9.91
5/28/2021 6:15:00 AM 13.8 56.84 0.126 7.55 3.88 9.94
5/28/2021 6:30:00 AM 13.79 56.822 0.126 7.56 6.87 9.96
5/28/2021 6:45:00 AM 13.76 56.768 0.126 7.56 3.75 10.07
5/28/2021 7:00:00 AM 13.74 56.732 0.126 7.56 3.55 10.08
5/28/2021 7:15:00 AM 13.74 56.732 0.126 7.59 3.65 10.16
5/28/2021 7:30:00 AM 13.74 56.732 0.126 7.6 3.87 10.23
5/28/2021 7:45:00 AM 13.74 56.732 0.126 7.6 3.62 10.15
5/28/2021 8:00:00 AM 13.71 56.678 0.126 7.57 3.42 10.16
5/28/2021 8:15:00 AM 14.12 57.416 0.125 7.62 3.42 10.19
5/28/2021 8:30:00 AM 14.1 57.38 0.125 7.6 3.41 10.08
5/28/2021 8:45:00 AM 14.1 57.38 0.125 7.64 3.55 10.21
5/28/2021 9:00:00 AM 14.13 57.434 0.125 7.66 3.45 10.22
5/28/2021 9:15:00 AM 14.05 57.29 0.125 7.58 3.48 10.05
5/28/2021 9:30:00 AM 14.12 57.416 0.125 7.65 3.4 10.22
5/28/2021 9:45:00 AM 14.11 57.398 0.125 7.65 3.36 10.23
5/28/2021 10:00:00 A